<?xml version="1.0" encoding="UTF-8" standalone="no" ?>
<gpx xmlns="http://www.topografix.com/GPX/1/1" xmlns:xsi="http://www.w3.org/2001/XMLSchema-instance" xsi:schemaLocation="http://www.topografix.com/GPX/1/1 http://www.topografix.com/GPX/1/1/gpx.xsd" version="1.1" creator="VisuGPX - https://www.visugpx.com">
  <metadata>
    <name>RSPG Chanousse tour de la Fayee</name>
    <desc><![CDATA[Au départ du village de Chanousse prendre le sentier sud et parcourir une boucle ensuivant les sentiers pour revenir vers le point de départ ]]></desc>
  </metadata>
  <trk>
    <name><![CDATA[Chanousse tour de la Fayée: 22 SEPT 2016 09:08]]></name>
    <trkseg>
      <trkpt lat="44.35537" lon="5.65644">
        <ele>848.02</ele>
        <time>2016-09-22T07:08:52Z</time>
      </trkpt>
      <trkpt lat="44.35537" lon="5.65645">
        <ele>848.02</ele>
        <time>2016-09-22T07:08:53Z</time>
      </trkpt>
      <trkpt lat="44.35538" lon="5.65643">
        <ele>802.84</ele>
        <time>2016-09-22T07:08:57Z</time>
      </trkpt>
      <trkpt lat="44.35539" lon="5.65643">
        <ele>803.32</ele>
        <time>2016-09-22T07:08:58Z</time>
      </trkpt>
      <trkpt lat="44.3554" lon="5.65635">
        <ele>802.84</ele>
        <time>2016-09-22T07:09:14Z</time>
      </trkpt>
      <trkpt lat="44.35534" lon="5.65622">
        <ele>801.88</ele>
        <time>2016-09-22T07:09:30Z</time>
      </trkpt>
      <trkpt lat="44.35533" lon="5.6562">
        <ele>799.95</ele>
        <time>2016-09-22T07:09:32Z</time>
      </trkpt>
      <trkpt lat="44.35525" lon="5.65604">
        <ele>797.55</ele>
        <time>2016-09-22T07:09:52Z</time>
      </trkpt>
      <trkpt lat="44.3552" lon="5.65593">
        <ele>796.11</ele>
        <time>2016-09-22T07:10:05Z</time>
      </trkpt>
      <trkpt lat="44.35518" lon="5.65584">
        <ele>795.15</ele>
        <time>2016-09-22T07:10:13Z</time>
      </trkpt>
      <trkpt lat="44.35512" lon="5.65562">
        <ele>793.22</ele>
        <time>2016-09-22T07:10:31Z</time>
      </trkpt>
      <trkpt lat="44.35511" lon="5.65546">
        <ele>792.26</ele>
        <time>2016-09-22T07:10:43Z</time>
      </trkpt>
      <trkpt lat="44.35512" lon="5.6554">
        <ele>792.26</ele>
        <time>2016-09-22T07:10:48Z</time>
      </trkpt>
      <trkpt lat="44.35506" lon="5.65535">
        <ele>791.78</ele>
        <time>2016-09-22T07:11:03Z</time>
      </trkpt>
      <trkpt lat="44.35505" lon="5.65533">
        <ele>791.78</ele>
        <time>2016-09-22T07:11:19Z</time>
      </trkpt>
      <trkpt lat="44.35502" lon="5.65531">
        <ele>792.26</ele>
        <time>2016-09-22T07:11:31Z</time>
      </trkpt>
      <trkpt lat="44.35501" lon="5.65532">
        <ele>791.78</ele>
        <time>2016-09-22T07:12:03Z</time>
      </trkpt>
      <trkpt lat="44.35498" lon="5.6552">
        <ele>792.74</ele>
        <time>2016-09-22T07:12:20Z</time>
      </trkpt>
      <trkpt lat="44.35496" lon="5.65517">
        <ele>792.74</ele>
        <time>2016-09-22T07:12:22Z</time>
      </trkpt>
      <trkpt lat="44.35495" lon="5.65511">
        <ele>793.22</ele>
        <time>2016-09-22T07:12:26Z</time>
      </trkpt>
      <trkpt lat="44.35488" lon="5.65487">
        <ele>794.19</ele>
        <time>2016-09-22T07:12:43Z</time>
      </trkpt>
      <trkpt lat="44.35479" lon="5.6547">
        <ele>795.63</ele>
        <time>2016-09-22T07:13:00Z</time>
      </trkpt>
      <trkpt lat="44.35471" lon="5.65456">
        <ele>796.59</ele>
        <time>2016-09-22T07:13:16Z</time>
      </trkpt>
      <trkpt lat="44.3546" lon="5.6545">
        <ele>795.63</ele>
        <time>2016-09-22T07:13:31Z</time>
      </trkpt>
      <trkpt lat="44.35448" lon="5.65436">
        <ele>795.15</ele>
        <time>2016-09-22T07:13:49Z</time>
      </trkpt>
      <trkpt lat="44.35439" lon="5.65427">
        <ele>795.63</ele>
        <time>2016-09-22T07:14:03Z</time>
      </trkpt>
      <trkpt lat="44.35428" lon="5.65417">
        <ele>794.67</ele>
        <time>2016-09-22T07:14:20Z</time>
      </trkpt>
      <trkpt lat="44.35413" lon="5.65401">
        <ele>794.67</ele>
        <time>2016-09-22T07:14:41Z</time>
      </trkpt>
      <trkpt lat="44.35397" lon="5.65388">
        <ele>794.67</ele>
        <time>2016-09-22T07:14:59Z</time>
      </trkpt>
      <trkpt lat="44.35382" lon="5.65386">
        <ele>794.67</ele>
        <time>2016-09-22T07:15:13Z</time>
      </trkpt>
      <trkpt lat="44.35368" lon="5.65383">
        <ele>794.19</ele>
        <time>2016-09-22T07:15:28Z</time>
      </trkpt>
      <trkpt lat="44.35356" lon="5.65384">
        <ele>794.67</ele>
        <time>2016-09-22T07:15:45Z</time>
      </trkpt>
      <trkpt lat="44.35349" lon="5.65389">
        <ele>794.67</ele>
        <time>2016-09-22T07:16:03Z</time>
      </trkpt>
      <trkpt lat="44.35342" lon="5.65396">
        <ele>796.11</ele>
        <time>2016-09-22T07:16:19Z</time>
      </trkpt>
      <trkpt lat="44.35336" lon="5.65398">
        <ele>796.59</ele>
        <time>2016-09-22T07:16:33Z</time>
      </trkpt>
      <trkpt lat="44.35328" lon="5.654">
        <ele>798.03</ele>
        <time>2016-09-22T07:16:48Z</time>
      </trkpt>
      <trkpt lat="44.35319" lon="5.65402">
        <ele>798.99</ele>
        <time>2016-09-22T07:17:04Z</time>
      </trkpt>
      <trkpt lat="44.3531" lon="5.65404">
        <ele>799.95</ele>
        <time>2016-09-22T07:17:20Z</time>
      </trkpt>
      <trkpt lat="44.35298" lon="5.65404">
        <ele>801.88</ele>
        <time>2016-09-22T07:17:38Z</time>
      </trkpt>
      <trkpt lat="44.35288" lon="5.65403">
        <ele>803.32</ele>
        <time>2016-09-22T07:17:53Z</time>
      </trkpt>
      <trkpt lat="44.35279" lon="5.65396">
        <ele>805.24</ele>
        <time>2016-09-22T07:18:10Z</time>
      </trkpt>
      <trkpt lat="44.35272" lon="5.65391">
        <ele>807.64</ele>
        <time>2016-09-22T07:18:25Z</time>
      </trkpt>
      <trkpt lat="44.35267" lon="5.65391">
        <ele>809.57</ele>
        <time>2016-09-22T07:18:41Z</time>
      </trkpt>
      <trkpt lat="44.35263" lon="5.65387">
        <ele>810.53</ele>
        <time>2016-09-22T07:18:54Z</time>
      </trkpt>
      <trkpt lat="44.35255" lon="5.65383">
        <ele>812.93</ele>
        <time>2016-09-22T07:19:09Z</time>
      </trkpt>
      <trkpt lat="44.35244" lon="5.6538">
        <ele>814.85</ele>
        <time>2016-09-22T07:19:26Z</time>
      </trkpt>
      <trkpt lat="44.35238" lon="5.65377">
        <ele>816.78</ele>
        <time>2016-09-22T07:19:41Z</time>
      </trkpt>
      <trkpt lat="44.3523" lon="5.65371">
        <ele>818.7</ele>
        <time>2016-09-22T07:19:56Z</time>
      </trkpt>
      <trkpt lat="44.35227" lon="5.65366">
        <ele>820.62</ele>
        <time>2016-09-22T07:20:13Z</time>
      </trkpt>
      <trkpt lat="44.3522" lon="5.6536">
        <ele>823.51</ele>
        <time>2016-09-22T07:20:30Z</time>
      </trkpt>
      <trkpt lat="44.35215" lon="5.65356">
        <ele>825.43</ele>
        <time>2016-09-22T07:20:44Z</time>
      </trkpt>
      <trkpt lat="44.3521" lon="5.65355">
        <ele>828.31</ele>
        <time>2016-09-22T07:20:59Z</time>
      </trkpt>
      <trkpt lat="44.35204" lon="5.65352">
        <ele>830.24</ele>
        <time>2016-09-22T07:21:13Z</time>
      </trkpt>
      <trkpt lat="44.35196" lon="5.65348">
        <ele>833.12</ele>
        <time>2016-09-22T07:21:30Z</time>
      </trkpt>
      <trkpt lat="44.35191" lon="5.65346">
        <ele>835.04</ele>
        <time>2016-09-22T07:21:45Z</time>
      </trkpt>
      <trkpt lat="44.35189" lon="5.65344">
        <ele>836.48</ele>
        <time>2016-09-22T07:21:59Z</time>
      </trkpt>
      <trkpt lat="44.35182" lon="5.6534">
        <ele>838.41</ele>
        <time>2016-09-22T07:22:16Z</time>
      </trkpt>
      <trkpt lat="44.35178" lon="5.65335">
        <ele>840.33</ele>
        <time>2016-09-22T07:22:33Z</time>
      </trkpt>
      <trkpt lat="44.35172" lon="5.65333">
        <ele>841.77</ele>
        <time>2016-09-22T07:22:49Z</time>
      </trkpt>
      <trkpt lat="44.35164" lon="5.65334">
        <ele>843.69</ele>
        <time>2016-09-22T07:23:05Z</time>
      </trkpt>
      <trkpt lat="44.35154" lon="5.65339">
        <ele>845.62</ele>
        <time>2016-09-22T07:23:21Z</time>
      </trkpt>
      <trkpt lat="44.35147" lon="5.65345">
        <ele>847.06</ele>
        <time>2016-09-22T07:23:36Z</time>
      </trkpt>
      <trkpt lat="44.35142" lon="5.65348">
        <ele>848.5</ele>
        <time>2016-09-22T07:23:51Z</time>
      </trkpt>
      <trkpt lat="44.35136" lon="5.65354">
        <ele>850.42</ele>
        <time>2016-09-22T07:24:06Z</time>
      </trkpt>
      <trkpt lat="44.35128" lon="5.65351">
        <ele>852.35</ele>
        <time>2016-09-22T07:24:20Z</time>
      </trkpt>
      <trkpt lat="44.35126" lon="5.65354">
        <ele>852.83</ele>
        <time>2016-09-22T07:24:34Z</time>
      </trkpt>
      <trkpt lat="44.35122" lon="5.6535">
        <ele>854.75</ele>
        <time>2016-09-22T07:24:55Z</time>
      </trkpt>
      <trkpt lat="44.35115" lon="5.65343">
        <ele>857.15</ele>
        <time>2016-09-22T07:25:09Z</time>
      </trkpt>
      <trkpt lat="44.35106" lon="5.65349">
        <ele>858.59</ele>
        <time>2016-09-22T07:25:22Z</time>
      </trkpt>
      <trkpt lat="44.35096" lon="5.65352">
        <ele>860.52</ele>
        <time>2016-09-22T07:25:37Z</time>
      </trkpt>
      <trkpt lat="44.35087" lon="5.65355">
        <ele>862.92</ele>
        <time>2016-09-22T07:25:53Z</time>
      </trkpt>
      <trkpt lat="44.35084" lon="5.65359">
        <ele>864.84</ele>
        <time>2016-09-22T07:26:07Z</time>
      </trkpt>
      <trkpt lat="44.35081" lon="5.65362">
        <ele>865.8</ele>
        <time>2016-09-22T07:26:26Z</time>
      </trkpt>
      <trkpt lat="44.35074" lon="5.65369">
        <ele>867.25</ele>
        <time>2016-09-22T07:26:45Z</time>
      </trkpt>
      <trkpt lat="44.35073" lon="5.65365">
        <ele>867.73</ele>
        <time>2016-09-22T07:27:11Z</time>
      </trkpt>
      <trkpt lat="44.35072" lon="5.65364">
        <ele>867.73</ele>
        <time>2016-09-22T07:27:54Z</time>
      </trkpt>
      <trkpt lat="44.35069" lon="5.65373">
        <ele>868.69</ele>
        <time>2016-09-22T07:28:25Z</time>
      </trkpt>
      <trkpt lat="44.35062" lon="5.65384">
        <ele>871.57</ele>
        <time>2016-09-22T07:28:40Z</time>
      </trkpt>
      <trkpt lat="44.35056" lon="5.6539">
        <ele>873.98</ele>
        <time>2016-09-22T07:28:55Z</time>
      </trkpt>
      <trkpt lat="44.35051" lon="5.65397">
        <ele>876.86</ele>
        <time>2016-09-22T07:29:09Z</time>
      </trkpt>
      <trkpt lat="44.35043" lon="5.65408">
        <ele>878.78</ele>
        <time>2016-09-22T07:29:24Z</time>
      </trkpt>
      <trkpt lat="44.35035" lon="5.65414">
        <ele>881.19</ele>
        <time>2016-09-22T07:29:41Z</time>
      </trkpt>
      <trkpt lat="44.35029" lon="5.65422">
        <ele>883.59</ele>
        <time>2016-09-22T07:30:00Z</time>
      </trkpt>
      <trkpt lat="44.35025" lon="5.65438">
        <ele>885.03</ele>
        <time>2016-09-22T07:30:19Z</time>
      </trkpt>
      <trkpt lat="44.35024" lon="5.65458">
        <ele>885.99</ele>
        <time>2016-09-22T07:30:36Z</time>
      </trkpt>
      <trkpt lat="44.35019" lon="5.65474">
        <ele>887.43</ele>
        <time>2016-09-22T07:30:52Z</time>
      </trkpt>
      <trkpt lat="44.35025" lon="5.65484">
        <ele>889.36</ele>
        <time>2016-09-22T07:31:09Z</time>
      </trkpt>
      <trkpt lat="44.35027" lon="5.65495">
        <ele>891.76</ele>
        <time>2016-09-22T07:31:23Z</time>
      </trkpt>
      <trkpt lat="44.35027" lon="5.65504">
        <ele>893.68</ele>
        <time>2016-09-22T07:31:36Z</time>
      </trkpt>
      <trkpt lat="44.35028" lon="5.6551">
        <ele>895.12</ele>
        <time>2016-09-22T07:31:52Z</time>
      </trkpt>
      <trkpt lat="44.35033" lon="5.65519">
        <ele>897.53</ele>
        <time>2016-09-22T07:32:08Z</time>
      </trkpt>
      <trkpt lat="44.35036" lon="5.65528">
        <ele>899.93</ele>
        <time>2016-09-22T07:32:22Z</time>
      </trkpt>
      <trkpt lat="44.35036" lon="5.65536">
        <ele>901.85</ele>
        <time>2016-09-22T07:32:41Z</time>
      </trkpt>
      <trkpt lat="44.35036" lon="5.65546">
        <ele>903.78</ele>
        <time>2016-09-22T07:32:59Z</time>
      </trkpt>
      <trkpt lat="44.35041" lon="5.65556">
        <ele>906.66</ele>
        <time>2016-09-22T07:33:16Z</time>
      </trkpt>
      <trkpt lat="44.35042" lon="5.65565">
        <ele>909.06</ele>
        <time>2016-09-22T07:33:33Z</time>
      </trkpt>
      <trkpt lat="44.35047" lon="5.65576">
        <ele>910.99</ele>
        <time>2016-09-22T07:33:50Z</time>
      </trkpt>
      <trkpt lat="44.35052" lon="5.65592">
        <ele>912.43</ele>
        <time>2016-09-22T07:34:09Z</time>
      </trkpt>
      <trkpt lat="44.35059" lon="5.65611">
        <ele>915.31</ele>
        <time>2016-09-22T07:34:29Z</time>
      </trkpt>
      <trkpt lat="44.35062" lon="5.65622">
        <ele>917.24</ele>
        <time>2016-09-22T07:34:44Z</time>
      </trkpt>
      <trkpt lat="44.3507" lon="5.65632">
        <ele>919.64</ele>
        <time>2016-09-22T07:35:02Z</time>
      </trkpt>
      <trkpt lat="44.35072" lon="5.65644">
        <ele>921.56</ele>
        <time>2016-09-22T07:35:19Z</time>
      </trkpt>
      <trkpt lat="44.35068" lon="5.65642">
        <ele>923</ele>
        <time>2016-09-22T07:35:37Z</time>
      </trkpt>
      <trkpt lat="44.35064" lon="5.65644">
        <ele>923.96</ele>
        <time>2016-09-22T07:35:53Z</time>
      </trkpt>
      <trkpt lat="44.3506" lon="5.65643">
        <ele>924.93</ele>
        <time>2016-09-22T07:36:11Z</time>
      </trkpt>
      <trkpt lat="44.35054" lon="5.65641">
        <ele>924.93</ele>
        <time>2016-09-22T07:36:46Z</time>
      </trkpt>
      <trkpt lat="44.35043" lon="5.65636">
        <ele>926.37</ele>
        <time>2016-09-22T07:37:04Z</time>
      </trkpt>
      <trkpt lat="44.35031" lon="5.65629">
        <ele>927.81</ele>
        <time>2016-09-22T07:37:20Z</time>
      </trkpt>
      <trkpt lat="44.35017" lon="5.65619">
        <ele>930.69</ele>
        <time>2016-09-22T07:37:42Z</time>
      </trkpt>
      <trkpt lat="44.35009" lon="5.65616">
        <ele>931.65</ele>
        <time>2016-09-22T07:38:05Z</time>
      </trkpt>
      <trkpt lat="44.35" lon="5.65611">
        <ele>934.54</ele>
        <time>2016-09-22T07:38:21Z</time>
      </trkpt>
      <trkpt lat="44.34991" lon="5.65607">
        <ele>936.46</ele>
        <time>2016-09-22T07:38:39Z</time>
      </trkpt>
      <trkpt lat="44.34982" lon="5.65604">
        <ele>938.86</ele>
        <time>2016-09-22T07:38:57Z</time>
      </trkpt>
      <trkpt lat="44.34974" lon="5.656">
        <ele>941.27</ele>
        <time>2016-09-22T07:39:14Z</time>
      </trkpt>
      <trkpt lat="44.34966" lon="5.65593">
        <ele>943.19</ele>
        <time>2016-09-22T07:39:30Z</time>
      </trkpt>
      <trkpt lat="44.3496" lon="5.65589">
        <ele>943.67</ele>
        <time>2016-09-22T07:39:50Z</time>
      </trkpt>
      <trkpt lat="44.34953" lon="5.65592">
        <ele>945.59</ele>
        <time>2016-09-22T07:40:06Z</time>
      </trkpt>
      <trkpt lat="44.34945" lon="5.65591">
        <ele>948</ele>
        <time>2016-09-22T07:40:23Z</time>
      </trkpt>
      <trkpt lat="44.34943" lon="5.65591">
        <ele>948.96</ele>
        <time>2016-09-22T07:40:42Z</time>
      </trkpt>
      <trkpt lat="44.34935" lon="5.6559">
        <ele>951.84</ele>
        <time>2016-09-22T07:41:01Z</time>
      </trkpt>
      <trkpt lat="44.34931" lon="5.65588">
        <ele>952.8</ele>
        <time>2016-09-22T07:41:17Z</time>
      </trkpt>
      <trkpt lat="44.34926" lon="5.65587">
        <ele>954.73</ele>
        <time>2016-09-22T07:41:37Z</time>
      </trkpt>
      <trkpt lat="44.34924" lon="5.65594">
        <ele>955.69</ele>
        <time>2016-09-22T07:41:59Z</time>
      </trkpt>
      <trkpt lat="44.34916" lon="5.65597">
        <ele>958.57</ele>
        <time>2016-09-22T07:42:17Z</time>
      </trkpt>
      <trkpt lat="44.3491" lon="5.65598">
        <ele>960.49</ele>
        <time>2016-09-22T07:42:34Z</time>
      </trkpt>
      <trkpt lat="44.34906" lon="5.656">
        <ele>961.94</ele>
        <time>2016-09-22T07:42:46Z</time>
      </trkpt>
      <trkpt lat="44.34907" lon="5.65598">
        <ele>960.98</ele>
        <time>2016-09-22T07:42:57Z</time>
      </trkpt>
      <trkpt lat="44.34907" lon="5.656">
        <ele>960.98</ele>
        <time>2016-09-22T07:43:34Z</time>
      </trkpt>
      <trkpt lat="44.34908" lon="5.65599">
        <ele>960.98</ele>
        <time>2016-09-22T07:44:14Z</time>
      </trkpt>
      <trkpt lat="44.34908" lon="5.656">
        <ele>960.98</ele>
        <time>2016-09-22T07:44:56Z</time>
      </trkpt>
      <trkpt lat="44.3491" lon="5.65599">
        <ele>960.98</ele>
        <time>2016-09-22T07:45:38Z</time>
      </trkpt>
      <trkpt lat="44.34908" lon="5.65599">
        <ele>960.98</ele>
        <time>2016-09-22T07:46:18Z</time>
      </trkpt>
      <trkpt lat="44.34908" lon="5.65601">
        <ele>960.98</ele>
        <time>2016-09-22T07:46:48Z</time>
      </trkpt>
      <trkpt lat="44.34909" lon="5.65598">
        <ele>960.98</ele>
        <time>2016-09-22T07:47:21Z</time>
      </trkpt>
      <trkpt lat="44.34908" lon="5.656">
        <ele>961.46</ele>
        <time>2016-09-22T07:47:48Z</time>
      </trkpt>
      <trkpt lat="44.34906" lon="5.65598">
        <ele>961.94</ele>
        <time>2016-09-22T07:48:04Z</time>
      </trkpt>
      <trkpt lat="44.34906" lon="5.65603">
        <ele>962.42</ele>
        <time>2016-09-22T07:48:18Z</time>
      </trkpt>
      <trkpt lat="44.34906" lon="5.65608">
        <ele>962.42</ele>
        <time>2016-09-22T07:48:41Z</time>
      </trkpt>
      <trkpt lat="44.349" lon="5.65602">
        <ele>962.42</ele>
        <time>2016-09-22T07:49:06Z</time>
      </trkpt>
      <trkpt lat="44.34898" lon="5.65603">
        <ele>962.9</ele>
        <time>2016-09-22T07:49:21Z</time>
      </trkpt>
      <trkpt lat="44.34888" lon="5.656">
        <ele>963.86</ele>
        <time>2016-09-22T07:49:33Z</time>
      </trkpt>
      <trkpt lat="44.34883" lon="5.65597">
        <ele>964.34</ele>
        <time>2016-09-22T07:49:39Z</time>
      </trkpt>
      <trkpt lat="44.34873" lon="5.65594">
        <ele>965.3</ele>
        <time>2016-09-22T07:49:54Z</time>
      </trkpt>
      <trkpt lat="44.34861" lon="5.65592">
        <ele>966.26</ele>
        <time>2016-09-22T07:50:10Z</time>
      </trkpt>
      <trkpt lat="44.34847" lon="5.65595">
        <ele>967.22</ele>
        <time>2016-09-22T07:50:27Z</time>
      </trkpt>
      <trkpt lat="44.34835" lon="5.65595">
        <ele>968.18</ele>
        <time>2016-09-22T07:50:43Z</time>
      </trkpt>
      <trkpt lat="44.34825" lon="5.65598">
        <ele>969.15</ele>
        <time>2016-09-22T07:50:58Z</time>
      </trkpt>
      <trkpt lat="44.34811" lon="5.65601">
        <ele>969.63</ele>
        <time>2016-09-22T07:51:16Z</time>
      </trkpt>
      <trkpt lat="44.34796" lon="5.65602">
        <ele>970.59</ele>
        <time>2016-09-22T07:51:34Z</time>
      </trkpt>
      <trkpt lat="44.34781" lon="5.65611">
        <ele>970.59</ele>
        <time>2016-09-22T07:51:53Z</time>
      </trkpt>
      <trkpt lat="44.34766" lon="5.65615">
        <ele>969.63</ele>
        <time>2016-09-22T07:52:10Z</time>
      </trkpt>
      <trkpt lat="44.34751" lon="5.6562">
        <ele>969.63</ele>
        <time>2016-09-22T07:52:26Z</time>
      </trkpt>
      <trkpt lat="44.34735" lon="5.65627">
        <ele>971.07</ele>
        <time>2016-09-22T07:52:45Z</time>
      </trkpt>
      <trkpt lat="44.34725" lon="5.65629">
        <ele>972.03</ele>
        <time>2016-09-22T07:53:02Z</time>
      </trkpt>
      <trkpt lat="44.34716" lon="5.6563">
        <ele>973.47</ele>
        <time>2016-09-22T07:53:15Z</time>
      </trkpt>
      <trkpt lat="44.3471" lon="5.6563">
        <ele>973.95</ele>
        <time>2016-09-22T07:53:22Z</time>
      </trkpt>
      <trkpt lat="44.34707" lon="5.6563">
        <ele>973.95</ele>
        <time>2016-09-22T07:53:25Z</time>
      </trkpt>
      <trkpt lat="44.34691" lon="5.65628">
        <ele>973.95</ele>
        <time>2016-09-22T07:53:43Z</time>
      </trkpt>
      <trkpt lat="44.34675" lon="5.65629">
        <ele>974.43</ele>
        <time>2016-09-22T07:53:59Z</time>
      </trkpt>
      <trkpt lat="44.34668" lon="5.6563">
        <ele>974.43</ele>
        <time>2016-09-22T07:54:17Z</time>
      </trkpt>
      <trkpt lat="44.3465" lon="5.65625">
        <ele>977.32</ele>
        <time>2016-09-22T07:54:37Z</time>
      </trkpt>
      <trkpt lat="44.34632" lon="5.65621">
        <ele>977.8</ele>
        <time>2016-09-22T07:54:55Z</time>
      </trkpt>
      <trkpt lat="44.34617" lon="5.65621">
        <ele>977.8</ele>
        <time>2016-09-22T07:55:11Z</time>
      </trkpt>
      <trkpt lat="44.34604" lon="5.65619">
        <ele>976.84</ele>
        <time>2016-09-22T07:55:26Z</time>
      </trkpt>
      <trkpt lat="44.3459" lon="5.6562">
        <ele>975.88</ele>
        <time>2016-09-22T07:55:42Z</time>
      </trkpt>
      <trkpt lat="44.34578" lon="5.65623">
        <ele>974.91</ele>
        <time>2016-09-22T07:55:56Z</time>
      </trkpt>
      <trkpt lat="44.34573" lon="5.65624">
        <ele>974.43</ele>
        <time>2016-09-22T07:56:02Z</time>
      </trkpt>
      <trkpt lat="44.34562" lon="5.65613">
        <ele>972.99</ele>
        <time>2016-09-22T07:56:18Z</time>
      </trkpt>
      <trkpt lat="44.34557" lon="5.65598">
        <ele>973.95</ele>
        <time>2016-09-22T07:56:33Z</time>
      </trkpt>
      <trkpt lat="44.34556" lon="5.65591">
        <ele>974.43</ele>
        <time>2016-09-22T07:56:39Z</time>
      </trkpt>
      <trkpt lat="44.34553" lon="5.65587">
        <ele>973.95</ele>
        <time>2016-09-22T07:56:43Z</time>
      </trkpt>
      <trkpt lat="44.34538" lon="5.65573">
        <ele>972.99</ele>
        <time>2016-09-22T07:57:01Z</time>
      </trkpt>
      <trkpt lat="44.34526" lon="5.6556">
        <ele>974.43</ele>
        <time>2016-09-22T07:57:17Z</time>
      </trkpt>
      <trkpt lat="44.34515" lon="5.65545">
        <ele>974.91</ele>
        <time>2016-09-22T07:57:31Z</time>
      </trkpt>
      <trkpt lat="44.34506" lon="5.65524">
        <ele>976.36</ele>
        <time>2016-09-22T07:57:50Z</time>
      </trkpt>
      <trkpt lat="44.34498" lon="5.65504">
        <ele>978.28</ele>
        <time>2016-09-22T07:58:08Z</time>
      </trkpt>
      <trkpt lat="44.34491" lon="5.65489">
        <ele>979.72</ele>
        <time>2016-09-22T07:58:22Z</time>
      </trkpt>
      <trkpt lat="44.34484" lon="5.65472">
        <ele>981.64</ele>
        <time>2016-09-22T07:58:39Z</time>
      </trkpt>
      <trkpt lat="44.34479" lon="5.65454">
        <ele>983.09</ele>
        <time>2016-09-22T07:58:54Z</time>
      </trkpt>
      <trkpt lat="44.34469" lon="5.6544">
        <ele>985.01</ele>
        <time>2016-09-22T07:59:11Z</time>
      </trkpt>
      <trkpt lat="44.34459" lon="5.65431">
        <ele>985.97</ele>
        <time>2016-09-22T07:59:23Z</time>
      </trkpt>
      <trkpt lat="44.34447" lon="5.65415">
        <ele>987.41</ele>
        <time>2016-09-22T07:59:40Z</time>
      </trkpt>
      <trkpt lat="44.34436" lon="5.65403">
        <ele>988.85</ele>
        <time>2016-09-22T07:59:56Z</time>
      </trkpt>
      <trkpt lat="44.34423" lon="5.65394">
        <ele>990.3</ele>
        <time>2016-09-22T08:00:11Z</time>
      </trkpt>
      <trkpt lat="44.34408" lon="5.65382">
        <ele>992.22</ele>
        <time>2016-09-22T08:00:30Z</time>
      </trkpt>
      <trkpt lat="44.34394" lon="5.65374">
        <ele>994.14</ele>
        <time>2016-09-22T08:00:48Z</time>
      </trkpt>
      <trkpt lat="44.34382" lon="5.65363">
        <ele>995.58</ele>
        <time>2016-09-22T08:01:02Z</time>
      </trkpt>
      <trkpt lat="44.34371" lon="5.65356">
        <ele>996.54</ele>
        <time>2016-09-22T08:01:16Z</time>
      </trkpt>
      <trkpt lat="44.3437" lon="5.65356">
        <ele>996.54</ele>
        <time>2016-09-22T08:01:17Z</time>
      </trkpt>
      <trkpt lat="44.34354" lon="5.6535">
        <ele>998.47</ele>
        <time>2016-09-22T08:01:35Z</time>
      </trkpt>
      <trkpt lat="44.3434" lon="5.65342">
        <ele>999.91</ele>
        <time>2016-09-22T08:01:51Z</time>
      </trkpt>
      <trkpt lat="44.34326" lon="5.65332">
        <ele>1001.83</ele>
        <time>2016-09-22T08:02:10Z</time>
      </trkpt>
      <trkpt lat="44.3431" lon="5.65323">
        <ele>1003.27</ele>
        <time>2016-09-22T08:02:29Z</time>
      </trkpt>
      <trkpt lat="44.34296" lon="5.65313">
        <ele>1005.2</ele>
        <time>2016-09-22T08:02:48Z</time>
      </trkpt>
      <trkpt lat="44.34282" lon="5.65323">
        <ele>1006.64</ele>
        <time>2016-09-22T08:03:08Z</time>
      </trkpt>
      <trkpt lat="44.34271" lon="5.65338">
        <ele>1008.08</ele>
        <time>2016-09-22T08:03:25Z</time>
      </trkpt>
      <trkpt lat="44.34261" lon="5.65349">
        <ele>1010</ele>
        <time>2016-09-22T08:03:42Z</time>
      </trkpt>
      <trkpt lat="44.34248" lon="5.65364">
        <ele>1011.44</ele>
        <time>2016-09-22T08:04:00Z</time>
      </trkpt>
      <trkpt lat="44.34241" lon="5.65381">
        <ele>1012.89</ele>
        <time>2016-09-22T08:04:18Z</time>
      </trkpt>
      <trkpt lat="44.34238" lon="5.65386">
        <ele>1012.89</ele>
        <time>2016-09-22T08:04:35Z</time>
      </trkpt>
      <trkpt lat="44.34239" lon="5.65381">
        <ele>1012.89</ele>
        <time>2016-09-22T08:04:59Z</time>
      </trkpt>
      <trkpt lat="44.34248" lon="5.65383">
        <ele>1013.37</ele>
        <time>2016-09-22T08:05:16Z</time>
      </trkpt>
      <trkpt lat="44.34254" lon="5.65383">
        <ele>1012.89</ele>
        <time>2016-09-22T08:05:22Z</time>
      </trkpt>
      <trkpt lat="44.34271" lon="5.6539">
        <ele>1012.89</ele>
        <time>2016-09-22T08:05:38Z</time>
      </trkpt>
      <trkpt lat="44.34285" lon="5.65409">
        <ele>1014.33</ele>
        <time>2016-09-22T08:05:55Z</time>
      </trkpt>
      <trkpt lat="44.34291" lon="5.6542">
        <ele>1015.29</ele>
        <time>2016-09-22T08:06:05Z</time>
      </trkpt>
      <trkpt lat="44.34299" lon="5.65442">
        <ele>1016.25</ele>
        <time>2016-09-22T08:06:23Z</time>
      </trkpt>
      <trkpt lat="44.34302" lon="5.6546">
        <ele>1017.69</ele>
        <time>2016-09-22T08:06:36Z</time>
      </trkpt>
      <trkpt lat="44.34304" lon="5.65477">
        <ele>1019.13</ele>
        <time>2016-09-22T08:06:49Z</time>
      </trkpt>
      <trkpt lat="44.34305" lon="5.65484">
        <ele>1019.13</ele>
        <time>2016-09-22T08:06:54Z</time>
      </trkpt>
      <trkpt lat="44.34311" lon="5.65502">
        <ele>1021.06</ele>
        <time>2016-09-22T08:07:09Z</time>
      </trkpt>
      <trkpt lat="44.34315" lon="5.6552">
        <ele>1022.5</ele>
        <time>2016-09-22T08:07:24Z</time>
      </trkpt>
      <trkpt lat="44.34323" lon="5.65535">
        <ele>1023.94</ele>
        <time>2016-09-22T08:07:39Z</time>
      </trkpt>
      <trkpt lat="44.3433" lon="5.65552">
        <ele>1024.9</ele>
        <time>2016-09-22T08:07:52Z</time>
      </trkpt>
      <trkpt lat="44.34338" lon="5.65573">
        <ele>1026.34</ele>
        <time>2016-09-22T08:08:08Z</time>
      </trkpt>
      <trkpt lat="44.34342" lon="5.6559">
        <ele>1027.79</ele>
        <time>2016-09-22T08:08:22Z</time>
      </trkpt>
      <trkpt lat="44.3435" lon="5.65609">
        <ele>1029.23</ele>
        <time>2016-09-22T08:08:37Z</time>
      </trkpt>
      <trkpt lat="44.34355" lon="5.65628">
        <ele>1030.19</ele>
        <time>2016-09-22T08:08:53Z</time>
      </trkpt>
      <trkpt lat="44.3436" lon="5.65652">
        <ele>1031.63</ele>
        <time>2016-09-22T08:09:10Z</time>
      </trkpt>
      <trkpt lat="44.34361" lon="5.65656">
        <ele>1031.63</ele>
        <time>2016-09-22T08:09:13Z</time>
      </trkpt>
      <trkpt lat="44.34371" lon="5.65669">
        <ele>1033.55</ele>
        <time>2016-09-22T08:09:28Z</time>
      </trkpt>
      <trkpt lat="44.34376" lon="5.65684">
        <ele>1035</ele>
        <time>2016-09-22T08:09:43Z</time>
      </trkpt>
      <trkpt lat="44.34363" lon="5.65682">
        <ele>1036.92</ele>
        <time>2016-09-22T08:09:55Z</time>
      </trkpt>
      <trkpt lat="44.3435" lon="5.6567">
        <ele>1038.36</ele>
        <time>2016-09-22T08:10:10Z</time>
      </trkpt>
      <trkpt lat="44.34337" lon="5.65658">
        <ele>1039.8</ele>
        <time>2016-09-22T08:10:27Z</time>
      </trkpt>
      <trkpt lat="44.34323" lon="5.65645">
        <ele>1041.25</ele>
        <time>2016-09-22T08:10:44Z</time>
      </trkpt>
      <trkpt lat="44.34311" lon="5.65632">
        <ele>1042.69</ele>
        <time>2016-09-22T08:11:00Z</time>
      </trkpt>
      <trkpt lat="44.34301" lon="5.65615">
        <ele>1044.13</ele>
        <time>2016-09-22T08:11:18Z</time>
      </trkpt>
      <trkpt lat="44.34291" lon="5.656">
        <ele>1045.09</ele>
        <time>2016-09-22T08:11:34Z</time>
      </trkpt>
      <trkpt lat="44.34281" lon="5.65588">
        <ele>1047.01</ele>
        <time>2016-09-22T08:11:49Z</time>
      </trkpt>
      <trkpt lat="44.34271" lon="5.65575">
        <ele>1047.97</ele>
        <time>2016-09-22T08:12:04Z</time>
      </trkpt>
      <trkpt lat="44.34267" lon="5.6557">
        <ele>1048.45</ele>
        <time>2016-09-22T08:12:10Z</time>
      </trkpt>
      <trkpt lat="44.34255" lon="5.65558">
        <ele>1050.38</ele>
        <time>2016-09-22T08:12:26Z</time>
      </trkpt>
      <trkpt lat="44.34242" lon="5.65547">
        <ele>1051.34</ele>
        <time>2016-09-22T08:12:43Z</time>
      </trkpt>
      <trkpt lat="44.3423" lon="5.65534">
        <ele>1052.78</ele>
        <time>2016-09-22T08:12:59Z</time>
      </trkpt>
      <trkpt lat="44.34226" lon="5.65528">
        <ele>1053.26</ele>
        <time>2016-09-22T08:13:06Z</time>
      </trkpt>
      <trkpt lat="44.34215" lon="5.65514">
        <ele>1054.7</ele>
        <time>2016-09-22T08:13:23Z</time>
      </trkpt>
      <trkpt lat="44.34203" lon="5.655">
        <ele>1056.15</ele>
        <time>2016-09-22T08:13:39Z</time>
      </trkpt>
      <trkpt lat="44.34187" lon="5.65486">
        <ele>1057.59</ele>
        <time>2016-09-22T08:13:57Z</time>
      </trkpt>
      <trkpt lat="44.34173" lon="5.65474">
        <ele>1059.51</ele>
        <time>2016-09-22T08:14:14Z</time>
      </trkpt>
      <trkpt lat="44.34159" lon="5.65466">
        <ele>1060.95</ele>
        <time>2016-09-22T08:14:30Z</time>
      </trkpt>
      <trkpt lat="44.34146" lon="5.65458">
        <ele>1061.91</ele>
        <time>2016-09-22T08:14:45Z</time>
      </trkpt>
      <trkpt lat="44.34135" lon="5.65446">
        <ele>1063.36</ele>
        <time>2016-09-22T08:15:01Z</time>
      </trkpt>
      <trkpt lat="44.3412" lon="5.65435">
        <ele>1064.8</ele>
        <time>2016-09-22T08:15:18Z</time>
      </trkpt>
      <trkpt lat="44.34107" lon="5.65424">
        <ele>1066.24</ele>
        <time>2016-09-22T08:15:35Z</time>
      </trkpt>
      <trkpt lat="44.341" lon="5.65417">
        <ele>1067.2</ele>
        <time>2016-09-22T08:15:46Z</time>
      </trkpt>
      <trkpt lat="44.34098" lon="5.65409">
        <ele>1067.2</ele>
        <time>2016-09-22T08:16:00Z</time>
      </trkpt>
      <trkpt lat="44.34083" lon="5.65396">
        <ele>1069.12</ele>
        <time>2016-09-22T08:16:17Z</time>
      </trkpt>
      <trkpt lat="44.3407" lon="5.65381">
        <ele>1070.08</ele>
        <time>2016-09-22T08:16:34Z</time>
      </trkpt>
      <trkpt lat="44.3406" lon="5.65362">
        <ele>1072.01</ele>
        <time>2016-09-22T08:16:53Z</time>
      </trkpt>
      <trkpt lat="44.34059" lon="5.65339">
        <ele>1073.45</ele>
        <time>2016-09-22T08:17:10Z</time>
      </trkpt>
      <trkpt lat="44.34064" lon="5.65324">
        <ele>1074.89</ele>
        <time>2016-09-22T08:17:23Z</time>
      </trkpt>
      <trkpt lat="44.34069" lon="5.65308">
        <ele>1076.33</ele>
        <time>2016-09-22T08:17:38Z</time>
      </trkpt>
      <trkpt lat="44.3407" lon="5.6529">
        <ele>1077.29</ele>
        <time>2016-09-22T08:17:54Z</time>
      </trkpt>
      <trkpt lat="44.34068" lon="5.6527">
        <ele>1078.74</ele>
        <time>2016-09-22T08:18:09Z</time>
      </trkpt>
      <trkpt lat="44.34063" lon="5.6525">
        <ele>1080.18</ele>
        <time>2016-09-22T08:18:25Z</time>
      </trkpt>
      <trkpt lat="44.34058" lon="5.65227">
        <ele>1081.62</ele>
        <time>2016-09-22T08:18:43Z</time>
      </trkpt>
      <trkpt lat="44.34052" lon="5.6521">
        <ele>1082.58</ele>
        <time>2016-09-22T08:18:58Z</time>
      </trkpt>
      <trkpt lat="44.3405" lon="5.65201">
        <ele>1083.54</ele>
        <time>2016-09-22T08:19:06Z</time>
      </trkpt>
      <trkpt lat="44.34044" lon="5.65182">
        <ele>1084.5</ele>
        <time>2016-09-22T08:19:24Z</time>
      </trkpt>
      <trkpt lat="44.34041" lon="5.65171">
        <ele>1084.99</ele>
        <time>2016-09-22T08:19:42Z</time>
      </trkpt>
      <trkpt lat="44.34039" lon="5.65168">
        <ele>1085.47</ele>
        <time>2016-09-22T08:19:58Z</time>
      </trkpt>
      <trkpt lat="44.34038" lon="5.6517">
        <ele>1085.47</ele>
        <time>2016-09-22T08:20:23Z</time>
      </trkpt>
      <trkpt lat="44.34039" lon="5.65168">
        <ele>1085.47</ele>
        <time>2016-09-22T08:20:39Z</time>
      </trkpt>
      <trkpt lat="44.34042" lon="5.6517">
        <ele>1084.99</ele>
        <time>2016-09-22T08:20:58Z</time>
      </trkpt>
      <trkpt lat="44.34042" lon="5.65171">
        <ele>1084.99</ele>
        <time>2016-09-22T08:21:22Z</time>
      </trkpt>
      <trkpt lat="44.34043" lon="5.65171">
        <ele>1084.99</ele>
        <time>2016-09-22T08:21:40Z</time>
      </trkpt>
      <trkpt lat="44.34041" lon="5.65169">
        <ele>1084.5</ele>
        <time>2016-09-22T08:21:53Z</time>
      </trkpt>
      <trkpt lat="44.3404" lon="5.6517">
        <ele>1084.5</ele>
        <time>2016-09-22T08:22:18Z</time>
      </trkpt>
      <trkpt lat="44.34039" lon="5.65168">
        <ele>1084.99</ele>
        <time>2016-09-22T08:22:49Z</time>
      </trkpt>
      <trkpt lat="44.3404" lon="5.65168">
        <ele>1084.5</ele>
        <time>2016-09-22T08:23:26Z</time>
      </trkpt>
      <trkpt lat="44.34039" lon="5.65169">
        <ele>1084.99</ele>
        <time>2016-09-22T08:24:00Z</time>
      </trkpt>
      <trkpt lat="44.34039" lon="5.65169">
        <ele>1084.99</ele>
        <time>2016-09-22T08:24:29Z</time>
      </trkpt>
      <trkpt lat="44.3404" lon="5.65168">
        <ele>1085.47</ele>
        <time>2016-09-22T08:24:59Z</time>
      </trkpt>
      <trkpt lat="44.3404" lon="5.65168">
        <ele>1085.47</ele>
        <time>2016-09-22T08:25:32Z</time>
      </trkpt>
      <trkpt lat="44.34039" lon="5.65167">
        <ele>1085.47</ele>
        <time>2016-09-22T08:26:10Z</time>
      </trkpt>
      <trkpt lat="44.3404" lon="5.65168">
        <ele>1085.47</ele>
        <time>2016-09-22T08:26:49Z</time>
      </trkpt>
      <trkpt lat="44.34039" lon="5.65168">
        <ele>1085.95</ele>
        <time>2016-09-22T08:27:29Z</time>
      </trkpt>
      <trkpt lat="44.3404" lon="5.65166">
        <ele>1085.95</ele>
        <time>2016-09-22T08:28:06Z</time>
      </trkpt>
      <trkpt lat="44.34038" lon="5.65166">
        <ele>1085.95</ele>
        <time>2016-09-22T08:28:34Z</time>
      </trkpt>
      <trkpt lat="44.34038" lon="5.65164">
        <ele>1086.43</ele>
        <time>2016-09-22T08:29:13Z</time>
      </trkpt>
      <trkpt lat="44.34037" lon="5.65162">
        <ele>1086.43</ele>
        <time>2016-09-22T08:29:45Z</time>
      </trkpt>
      <trkpt lat="44.34037" lon="5.6516">
        <ele>1086.43</ele>
        <time>2016-09-22T08:30:15Z</time>
      </trkpt>
      <trkpt lat="44.34038" lon="5.65162">
        <ele>1086.43</ele>
        <time>2016-09-22T08:30:49Z</time>
      </trkpt>
      <trkpt lat="44.34039" lon="5.65169">
        <ele>1087.39</ele>
        <time>2016-09-22T08:31:10Z</time>
      </trkpt>
      <trkpt lat="44.34037" lon="5.65163">
        <ele>1087.39</ele>
        <time>2016-09-22T08:31:27Z</time>
      </trkpt>
      <trkpt lat="44.34037" lon="5.65159">
        <ele>1087.39</ele>
        <time>2016-09-22T08:31:41Z</time>
      </trkpt>
      <trkpt lat="44.34035" lon="5.65156">
        <ele>1087.39</ele>
        <time>2016-09-22T08:31:57Z</time>
      </trkpt>
      <trkpt lat="44.34037" lon="5.65151">
        <ele>1087.87</ele>
        <time>2016-09-22T08:32:16Z</time>
      </trkpt>
      <trkpt lat="44.34031" lon="5.65154">
        <ele>1086.91</ele>
        <time>2016-09-22T08:32:35Z</time>
      </trkpt>
      <trkpt lat="44.34015" lon="5.6515">
        <ele>1084.99</ele>
        <time>2016-09-22T08:32:53Z</time>
      </trkpt>
      <trkpt lat="44.34004" lon="5.65148">
        <ele>1083.54</ele>
        <time>2016-09-22T08:33:07Z</time>
      </trkpt>
      <trkpt lat="44.33991" lon="5.6515">
        <ele>1081.62</ele>
        <time>2016-09-22T08:33:22Z</time>
      </trkpt>
      <trkpt lat="44.33985" lon="5.6515">
        <ele>1080.66</ele>
        <time>2016-09-22T08:33:30Z</time>
      </trkpt>
      <trkpt lat="44.33971" lon="5.65147">
        <ele>1078.74</ele>
        <time>2016-09-22T08:33:45Z</time>
      </trkpt>
      <trkpt lat="44.33956" lon="5.65146">
        <ele>1077.78</ele>
        <time>2016-09-22T08:34:01Z</time>
      </trkpt>
      <trkpt lat="44.3394" lon="5.65138">
        <ele>1076.81</ele>
        <time>2016-09-22T08:34:17Z</time>
      </trkpt>
      <trkpt lat="44.3393" lon="5.65124">
        <ele>1075.37</ele>
        <time>2016-09-22T08:34:32Z</time>
      </trkpt>
      <trkpt lat="44.33918" lon="5.65114">
        <ele>1074.41</ele>
        <time>2016-09-22T08:34:47Z</time>
      </trkpt>
      <trkpt lat="44.33904" lon="5.65108">
        <ele>1074.41</ele>
        <time>2016-09-22T08:35:02Z</time>
      </trkpt>
      <trkpt lat="44.33892" lon="5.65101">
        <ele>1071.53</ele>
        <time>2016-09-22T08:35:17Z</time>
      </trkpt>
      <trkpt lat="44.33886" lon="5.65099">
        <ele>1070.57</ele>
        <time>2016-09-22T08:35:24Z</time>
      </trkpt>
      <trkpt lat="44.33875" lon="5.65086">
        <ele>1068.16</ele>
        <time>2016-09-22T08:35:39Z</time>
      </trkpt>
      <trkpt lat="44.33867" lon="5.6508">
        <ele>1067.2</ele>
        <time>2016-09-22T08:35:49Z</time>
      </trkpt>
      <trkpt lat="44.33852" lon="5.65081">
        <ele>1065.28</ele>
        <time>2016-09-22T08:36:04Z</time>
      </trkpt>
      <trkpt lat="44.33839" lon="5.65079">
        <ele>1063.84</ele>
        <time>2016-09-22T08:36:18Z</time>
      </trkpt>
      <trkpt lat="44.33826" lon="5.65081">
        <ele>1062.87</ele>
        <time>2016-09-22T08:36:36Z</time>
      </trkpt>
      <trkpt lat="44.33817" lon="5.6508">
        <ele>1061.91</ele>
        <time>2016-09-22T08:36:49Z</time>
      </trkpt>
      <trkpt lat="44.33811" lon="5.6508">
        <ele>1060.95</ele>
        <time>2016-09-22T08:37:04Z</time>
      </trkpt>
      <trkpt lat="44.33799" lon="5.65084">
        <ele>1058.55</ele>
        <time>2016-09-22T08:37:20Z</time>
      </trkpt>
      <trkpt lat="44.33789" lon="5.65086">
        <ele>1056.63</ele>
        <time>2016-09-22T08:37:35Z</time>
      </trkpt>
      <trkpt lat="44.33795" lon="5.65071">
        <ele>1054.7</ele>
        <time>2016-09-22T08:37:50Z</time>
      </trkpt>
      <trkpt lat="44.33801" lon="5.65055">
        <ele>1051.82</ele>
        <time>2016-09-22T08:38:07Z</time>
      </trkpt>
      <trkpt lat="44.33794" lon="5.65044">
        <ele>1048.94</ele>
        <time>2016-09-22T08:38:23Z</time>
      </trkpt>
      <trkpt lat="44.33781" lon="5.65051">
        <ele>1046.05</ele>
        <time>2016-09-22T08:38:43Z</time>
      </trkpt>
      <trkpt lat="44.33773" lon="5.65059">
        <ele>1044.13</ele>
        <time>2016-09-22T08:38:59Z</time>
      </trkpt>
      <trkpt lat="44.33763" lon="5.6506">
        <ele>1042.21</ele>
        <time>2016-09-22T08:39:14Z</time>
      </trkpt>
      <trkpt lat="44.33749" lon="5.65066">
        <ele>1040.28</ele>
        <time>2016-09-22T08:39:33Z</time>
      </trkpt>
      <trkpt lat="44.33736" lon="5.65067">
        <ele>1038.84</ele>
        <time>2016-09-22T08:39:50Z</time>
      </trkpt>
      <trkpt lat="44.33722" lon="5.65075">
        <ele>1035.48</ele>
        <time>2016-09-22T08:40:10Z</time>
      </trkpt>
      <trkpt lat="44.33709" lon="5.65081">
        <ele>1032.59</ele>
        <time>2016-09-22T08:40:30Z</time>
      </trkpt>
      <trkpt lat="44.33698" lon="5.65083">
        <ele>1030.67</ele>
        <time>2016-09-22T08:40:47Z</time>
      </trkpt>
      <trkpt lat="44.33694" lon="5.65083">
        <ele>1029.23</ele>
        <time>2016-09-22T08:40:53Z</time>
      </trkpt>
      <trkpt lat="44.33684" lon="5.65084">
        <ele>1027.31</ele>
        <time>2016-09-22T08:41:06Z</time>
      </trkpt>
      <trkpt lat="44.33673" lon="5.65098">
        <ele>1024.42</ele>
        <time>2016-09-22T08:41:28Z</time>
      </trkpt>
      <trkpt lat="44.33658" lon="5.65114">
        <ele>1021.06</ele>
        <time>2016-09-22T08:41:49Z</time>
      </trkpt>
      <trkpt lat="44.33644" lon="5.65122">
        <ele>1018.17</ele>
        <time>2016-09-22T08:42:07Z</time>
      </trkpt>
      <trkpt lat="44.33632" lon="5.65121">
        <ele>1014.81</ele>
        <time>2016-09-22T08:42:24Z</time>
      </trkpt>
      <trkpt lat="44.3362" lon="5.65122">
        <ele>1011.93</ele>
        <time>2016-09-22T08:42:41Z</time>
      </trkpt>
      <trkpt lat="44.33604" lon="5.65122">
        <ele>1009.04</ele>
        <time>2016-09-22T08:43:00Z</time>
      </trkpt>
      <trkpt lat="44.33588" lon="5.65117">
        <ele>1005.68</ele>
        <time>2016-09-22T08:43:20Z</time>
      </trkpt>
      <trkpt lat="44.3357" lon="5.65114">
        <ele>1002.79</ele>
        <time>2016-09-22T08:43:38Z</time>
      </trkpt>
      <trkpt lat="44.33551" lon="5.65123">
        <ele>999.91</ele>
        <time>2016-09-22T08:44:00Z</time>
      </trkpt>
      <trkpt lat="44.33532" lon="5.65131">
        <ele>997.99</ele>
        <time>2016-09-22T08:44:24Z</time>
      </trkpt>
      <trkpt lat="44.33516" lon="5.65141">
        <ele>996.06</ele>
        <time>2016-09-22T08:44:47Z</time>
      </trkpt>
      <trkpt lat="44.33508" lon="5.65137">
        <ele>994.62</ele>
        <time>2016-09-22T08:45:12Z</time>
      </trkpt>
      <trkpt lat="44.33509" lon="5.65145">
        <ele>995.58</ele>
        <time>2016-09-22T08:45:33Z</time>
      </trkpt>
      <trkpt lat="44.33508" lon="5.6514">
        <ele>996.06</ele>
        <time>2016-09-22T08:45:47Z</time>
      </trkpt>
      <trkpt lat="44.335" lon="5.6514">
        <ele>994.62</ele>
        <time>2016-09-22T08:46:11Z</time>
      </trkpt>
      <trkpt lat="44.33497" lon="5.65131">
        <ele>993.18</ele>
        <time>2016-09-22T08:46:30Z</time>
      </trkpt>
      <trkpt lat="44.33505" lon="5.65126">
        <ele>992.22</ele>
        <time>2016-09-22T08:46:39Z</time>
      </trkpt>
      <trkpt lat="44.33518" lon="5.65121">
        <ele>992.22</ele>
        <time>2016-09-22T08:46:54Z</time>
      </trkpt>
      <trkpt lat="44.33527" lon="5.65113">
        <ele>991.74</ele>
        <time>2016-09-22T08:47:08Z</time>
      </trkpt>
      <trkpt lat="44.33538" lon="5.65102">
        <ele>989.81</ele>
        <time>2016-09-22T08:47:22Z</time>
      </trkpt>
      <trkpt lat="44.33548" lon="5.65085">
        <ele>989.33</ele>
        <time>2016-09-22T08:47:39Z</time>
      </trkpt>
      <trkpt lat="44.33562" lon="5.65075">
        <ele>988.85</ele>
        <time>2016-09-22T08:47:57Z</time>
      </trkpt>
      <trkpt lat="44.33578" lon="5.65063">
        <ele>986.45</ele>
        <time>2016-09-22T08:48:16Z</time>
      </trkpt>
      <trkpt lat="44.33581" lon="5.65064">
        <ele>986.45</ele>
        <time>2016-09-22T08:48:19Z</time>
      </trkpt>
      <trkpt lat="44.33598" lon="5.65063">
        <ele>985.49</ele>
        <time>2016-09-22T08:48:37Z</time>
      </trkpt>
      <trkpt lat="44.33604" lon="5.65066">
        <ele>985.49</ele>
        <time>2016-09-22T08:48:43Z</time>
      </trkpt>
      <trkpt lat="44.33622" lon="5.65052">
        <ele>985.49</ele>
        <time>2016-09-22T08:49:03Z</time>
      </trkpt>
      <trkpt lat="44.33637" lon="5.6504">
        <ele>986.93</ele>
        <time>2016-09-22T08:49:22Z</time>
      </trkpt>
      <trkpt lat="44.33642" lon="5.65027">
        <ele>986.93</ele>
        <time>2016-09-22T08:49:35Z</time>
      </trkpt>
      <trkpt lat="44.33649" lon="5.6502">
        <ele>987.89</ele>
        <time>2016-09-22T08:49:44Z</time>
      </trkpt>
      <trkpt lat="44.33658" lon="5.65006">
        <ele>988.37</ele>
        <time>2016-09-22T08:50:00Z</time>
      </trkpt>
      <trkpt lat="44.33674" lon="5.64999">
        <ele>990.3</ele>
        <time>2016-09-22T08:50:21Z</time>
      </trkpt>
      <trkpt lat="44.33688" lon="5.64993">
        <ele>993.18</ele>
        <time>2016-09-22T08:50:39Z</time>
      </trkpt>
      <trkpt lat="44.33696" lon="5.6498">
        <ele>995.1</ele>
        <time>2016-09-22T08:50:55Z</time>
      </trkpt>
      <trkpt lat="44.33705" lon="5.64975">
        <ele>997.02</ele>
        <time>2016-09-22T08:51:09Z</time>
      </trkpt>
      <trkpt lat="44.33716" lon="5.64959">
        <ele>997.51</ele>
        <time>2016-09-22T08:51:28Z</time>
      </trkpt>
      <trkpt lat="44.33728" lon="5.64946">
        <ele>998.95</ele>
        <time>2016-09-22T08:51:47Z</time>
      </trkpt>
      <trkpt lat="44.33738" lon="5.64949">
        <ele>999.91</ele>
        <time>2016-09-22T08:52:07Z</time>
      </trkpt>
      <trkpt lat="44.33737" lon="5.64941">
        <ele>1000.87</ele>
        <time>2016-09-22T08:52:16Z</time>
      </trkpt>
      <trkpt lat="44.33742" lon="5.64935">
        <ele>1000.87</ele>
        <time>2016-09-22T08:52:25Z</time>
      </trkpt>
      <trkpt lat="44.33752" lon="5.64934">
        <ele>1001.83</ele>
        <time>2016-09-22T08:52:35Z</time>
      </trkpt>
      <trkpt lat="44.33763" lon="5.64929">
        <ele>1003.27</ele>
        <time>2016-09-22T08:52:55Z</time>
      </trkpt>
      <trkpt lat="44.3377" lon="5.64924">
        <ele>1003.75</ele>
        <time>2016-09-22T08:53:09Z</time>
      </trkpt>
      <trkpt lat="44.33772" lon="5.64921">
        <ele>1004.23</ele>
        <time>2016-09-22T08:53:22Z</time>
      </trkpt>
      <trkpt lat="44.33776" lon="5.64917">
        <ele>1005.2</ele>
        <time>2016-09-22T08:53:35Z</time>
      </trkpt>
      <trkpt lat="44.33776" lon="5.64901">
        <ele>1007.6</ele>
        <time>2016-09-22T08:53:54Z</time>
      </trkpt>
      <trkpt lat="44.33781" lon="5.64892">
        <ele>1009.52</ele>
        <time>2016-09-22T08:54:10Z</time>
      </trkpt>
      <trkpt lat="44.33792" lon="5.64895">
        <ele>1010.48</ele>
        <time>2016-09-22T08:54:24Z</time>
      </trkpt>
      <trkpt lat="44.33798" lon="5.64893">
        <ele>1011.93</ele>
        <time>2016-09-22T08:54:36Z</time>
      </trkpt>
      <trkpt lat="44.33804" lon="5.64883">
        <ele>1012.89</ele>
        <time>2016-09-22T08:54:53Z</time>
      </trkpt>
      <trkpt lat="44.33814" lon="5.64873">
        <ele>1014.33</ele>
        <time>2016-09-22T08:55:09Z</time>
      </trkpt>
      <trkpt lat="44.33825" lon="5.64865">
        <ele>1016.25</ele>
        <time>2016-09-22T08:55:27Z</time>
      </trkpt>
      <trkpt lat="44.33831" lon="5.64853">
        <ele>1017.21</ele>
        <time>2016-09-22T08:55:44Z</time>
      </trkpt>
      <trkpt lat="44.33833" lon="5.6484">
        <ele>1019.62</ele>
        <time>2016-09-22T08:56:03Z</time>
      </trkpt>
      <trkpt lat="44.3384" lon="5.64837">
        <ele>1021.06</ele>
        <time>2016-09-22T08:56:17Z</time>
      </trkpt>
      <trkpt lat="44.33836" lon="5.64834">
        <ele>1023.94</ele>
        <time>2016-09-22T08:56:35Z</time>
      </trkpt>
      <trkpt lat="44.33831" lon="5.64827">
        <ele>1025.38</ele>
        <time>2016-09-22T08:56:52Z</time>
      </trkpt>
      <trkpt lat="44.33824" lon="5.64825">
        <ele>1026.83</ele>
        <time>2016-09-22T08:57:09Z</time>
      </trkpt>
      <trkpt lat="44.33812" lon="5.64822">
        <ele>1030.19</ele>
        <time>2016-09-22T08:57:31Z</time>
      </trkpt>
      <trkpt lat="44.338" lon="5.64814">
        <ele>1032.59</ele>
        <time>2016-09-22T08:57:49Z</time>
      </trkpt>
      <trkpt lat="44.33792" lon="5.6481">
        <ele>1035.48</ele>
        <time>2016-09-22T08:58:09Z</time>
      </trkpt>
      <trkpt lat="44.33786" lon="5.64796">
        <ele>1037.4</ele>
        <time>2016-09-22T08:58:25Z</time>
      </trkpt>
      <trkpt lat="44.33782" lon="5.64786">
        <ele>1039.8</ele>
        <time>2016-09-22T08:58:42Z</time>
      </trkpt>
      <trkpt lat="44.33776" lon="5.64776">
        <ele>1041.73</ele>
        <time>2016-09-22T08:59:01Z</time>
      </trkpt>
      <trkpt lat="44.33768" lon="5.64763">
        <ele>1043.65</ele>
        <time>2016-09-22T08:59:19Z</time>
      </trkpt>
      <trkpt lat="44.33763" lon="5.64753">
        <ele>1045.57</ele>
        <time>2016-09-22T08:59:36Z</time>
      </trkpt>
      <trkpt lat="44.33762" lon="5.64739">
        <ele>1047.01</ele>
        <time>2016-09-22T08:59:53Z</time>
      </trkpt>
      <trkpt lat="44.33765" lon="5.64741">
        <ele>1046.53</ele>
        <time>2016-09-22T09:00:08Z</time>
      </trkpt>
      <trkpt lat="44.33761" lon="5.6474">
        <ele>1047.49</ele>
        <time>2016-09-22T09:00:34Z</time>
      </trkpt>
      <trkpt lat="44.33757" lon="5.6473">
        <ele>1048.45</ele>
        <time>2016-09-22T09:00:48Z</time>
      </trkpt>
      <trkpt lat="44.33757" lon="5.64726">
        <ele>1049.9</ele>
        <time>2016-09-22T09:01:14Z</time>
      </trkpt>
      <trkpt lat="44.33756" lon="5.64722">
        <ele>1049.42</ele>
        <time>2016-09-22T09:01:29Z</time>
      </trkpt>
      <trkpt lat="44.33751" lon="5.6471">
        <ele>1050.86</ele>
        <time>2016-09-22T09:01:42Z</time>
      </trkpt>
      <trkpt lat="44.33744" lon="5.647">
        <ele>1053.26</ele>
        <time>2016-09-22T09:02:00Z</time>
      </trkpt>
      <trkpt lat="44.33735" lon="5.64692">
        <ele>1054.7</ele>
        <time>2016-09-22T09:02:20Z</time>
      </trkpt>
      <trkpt lat="44.33724" lon="5.64685">
        <ele>1056.15</ele>
        <time>2016-09-22T09:02:39Z</time>
      </trkpt>
      <trkpt lat="44.33716" lon="5.64681">
        <ele>1058.07</ele>
        <time>2016-09-22T09:02:56Z</time>
      </trkpt>
      <trkpt lat="44.33709" lon="5.64673">
        <ele>1059.51</ele>
        <time>2016-09-22T09:03:09Z</time>
      </trkpt>
      <trkpt lat="44.33698" lon="5.64664">
        <ele>1061.43</ele>
        <time>2016-09-22T09:03:26Z</time>
      </trkpt>
      <trkpt lat="44.3369" lon="5.64653">
        <ele>1063.36</ele>
        <time>2016-09-22T09:03:42Z</time>
      </trkpt>
      <trkpt lat="44.3369" lon="5.64643">
        <ele>1063.84</ele>
        <time>2016-09-22T09:04:02Z</time>
      </trkpt>
      <trkpt lat="44.33685" lon="5.64635">
        <ele>1063.84</ele>
        <time>2016-09-22T09:04:28Z</time>
      </trkpt>
      <trkpt lat="44.33685" lon="5.64636">
        <ele>1063.84</ele>
        <time>2016-09-22T09:04:59Z</time>
      </trkpt>
      <trkpt lat="44.33685" lon="5.64636">
        <ele>1063.36</ele>
        <time>2016-09-22T09:05:30Z</time>
      </trkpt>
      <trkpt lat="44.33688" lon="5.64639">
        <ele>1063.36</ele>
        <time>2016-09-22T09:05:58Z</time>
      </trkpt>
      <trkpt lat="44.33687" lon="5.64641">
        <ele>1063.84</ele>
        <time>2016-09-22T09:06:30Z</time>
      </trkpt>
      <trkpt lat="44.33685" lon="5.64635">
        <ele>1063.84</ele>
        <time>2016-09-22T09:06:55Z</time>
      </trkpt>
      <trkpt lat="44.33685" lon="5.64633">
        <ele>1063.84</ele>
        <time>2016-09-22T09:07:25Z</time>
      </trkpt>
      <trkpt lat="44.33686" lon="5.64639">
        <ele>1063.84</ele>
        <time>2016-09-22T09:08:01Z</time>
      </trkpt>
      <trkpt lat="44.33687" lon="5.64641">
        <ele>1063.84</ele>
        <time>2016-09-22T09:08:34Z</time>
      </trkpt>
      <trkpt lat="44.33685" lon="5.64636">
        <ele>1064.8</ele>
        <time>2016-09-22T09:09:11Z</time>
      </trkpt>
      <trkpt lat="44.33686" lon="5.64634">
        <ele>1064.8</ele>
        <time>2016-09-22T09:09:50Z</time>
      </trkpt>
      <trkpt lat="44.33689" lon="5.64633">
        <ele>1065.28</ele>
        <time>2016-09-22T09:10:15Z</time>
      </trkpt>
      <trkpt lat="44.33694" lon="5.64634">
        <ele>1065.28</ele>
        <time>2016-09-22T09:10:31Z</time>
      </trkpt>
      <trkpt lat="44.33705" lon="5.64619">
        <ele>1066.72</ele>
        <time>2016-09-22T09:10:50Z</time>
      </trkpt>
      <trkpt lat="44.33711" lon="5.64619">
        <ele>1067.2</ele>
        <time>2016-09-22T09:11:08Z</time>
      </trkpt>
      <trkpt lat="44.33716" lon="5.6461">
        <ele>1069.6</ele>
        <time>2016-09-22T09:11:22Z</time>
      </trkpt>
      <trkpt lat="44.33719" lon="5.646">
        <ele>1070.57</ele>
        <time>2016-09-22T09:11:37Z</time>
      </trkpt>
      <trkpt lat="44.33723" lon="5.6459">
        <ele>1072.49</ele>
        <time>2016-09-22T09:11:54Z</time>
      </trkpt>
      <trkpt lat="44.33728" lon="5.64581">
        <ele>1074.41</ele>
        <time>2016-09-22T09:12:07Z</time>
      </trkpt>
      <trkpt lat="44.33734" lon="5.64572">
        <ele>1075.85</ele>
        <time>2016-09-22T09:12:22Z</time>
      </trkpt>
      <trkpt lat="44.33733" lon="5.6456">
        <ele>1077.29</ele>
        <time>2016-09-22T09:12:37Z</time>
      </trkpt>
      <trkpt lat="44.33731" lon="5.64545">
        <ele>1078.74</ele>
        <time>2016-09-22T09:12:51Z</time>
      </trkpt>
      <trkpt lat="44.33731" lon="5.64533">
        <ele>1080.66</ele>
        <time>2016-09-22T09:13:05Z</time>
      </trkpt>
      <trkpt lat="44.33732" lon="5.64529">
        <ele>1082.58</ele>
        <time>2016-09-22T09:13:20Z</time>
      </trkpt>
      <trkpt lat="44.33735" lon="5.64527">
        <ele>1081.14</ele>
        <time>2016-09-22T09:13:53Z</time>
      </trkpt>
      <trkpt lat="44.3373" lon="5.64525">
        <ele>1081.14</ele>
        <time>2016-09-22T09:14:23Z</time>
      </trkpt>
      <trkpt lat="44.33736" lon="5.64524">
        <ele>1081.62</ele>
        <time>2016-09-22T09:14:50Z</time>
      </trkpt>
      <trkpt lat="44.3373" lon="5.64516">
        <ele>1082.1</ele>
        <time>2016-09-22T09:15:05Z</time>
      </trkpt>
      <trkpt lat="44.33729" lon="5.64508">
        <ele>1083.06</ele>
        <time>2016-09-22T09:15:19Z</time>
      </trkpt>
      <trkpt lat="44.33726" lon="5.645">
        <ele>1083.54</ele>
        <time>2016-09-22T09:15:39Z</time>
      </trkpt>
      <trkpt lat="44.33725" lon="5.64482">
        <ele>1084.5</ele>
        <time>2016-09-22T09:15:54Z</time>
      </trkpt>
      <trkpt lat="44.33725" lon="5.64464">
        <ele>1085.47</ele>
        <time>2016-09-22T09:16:09Z</time>
      </trkpt>
      <trkpt lat="44.33727" lon="5.64461">
        <ele>1085.47</ele>
        <time>2016-09-22T09:16:12Z</time>
      </trkpt>
      <trkpt lat="44.33737" lon="5.64452">
        <ele>1085.95</ele>
        <time>2016-09-22T09:16:25Z</time>
      </trkpt>
      <trkpt lat="44.33746" lon="5.6444">
        <ele>1086.91</ele>
        <time>2016-09-22T09:16:39Z</time>
      </trkpt>
      <trkpt lat="44.33761" lon="5.64435">
        <ele>1088.83</ele>
        <time>2016-09-22T09:16:55Z</time>
      </trkpt>
      <trkpt lat="44.33766" lon="5.64428">
        <ele>1089.31</ele>
        <time>2016-09-22T09:17:02Z</time>
      </trkpt>
      <trkpt lat="44.33771" lon="5.64417">
        <ele>1089.79</ele>
        <time>2016-09-22T09:17:12Z</time>
      </trkpt>
      <trkpt lat="44.33777" lon="5.64403">
        <ele>1091.71</ele>
        <time>2016-09-22T09:17:27Z</time>
      </trkpt>
      <trkpt lat="44.33784" lon="5.64394">
        <ele>1094.12</ele>
        <time>2016-09-22T09:17:43Z</time>
      </trkpt>
      <trkpt lat="44.3379" lon="5.64383">
        <ele>1097</ele>
        <time>2016-09-22T09:17:59Z</time>
      </trkpt>
      <trkpt lat="44.33797" lon="5.64371">
        <ele>1099.89</ele>
        <time>2016-09-22T09:18:16Z</time>
      </trkpt>
      <trkpt lat="44.33797" lon="5.64366">
        <ele>1100.37</ele>
        <time>2016-09-22T09:18:23Z</time>
      </trkpt>
      <trkpt lat="44.33803" lon="5.64352">
        <ele>1101.81</ele>
        <time>2016-09-22T09:18:39Z</time>
      </trkpt>
      <trkpt lat="44.33804" lon="5.64338">
        <ele>1102.29</ele>
        <time>2016-09-22T09:18:54Z</time>
      </trkpt>
      <trkpt lat="44.33803" lon="5.64338">
        <ele>1102.29</ele>
        <time>2016-09-22T09:19:01Z</time>
      </trkpt>
      <trkpt lat="44.33803" lon="5.64321">
        <ele>1102.29</ele>
        <time>2016-09-22T09:19:13Z</time>
      </trkpt>
      <trkpt lat="44.33807" lon="5.64306">
        <ele>1103.25</ele>
        <time>2016-09-22T09:19:30Z</time>
      </trkpt>
      <trkpt lat="44.33807" lon="5.64306">
        <ele>1103.25</ele>
        <time>2016-09-22T09:19:32Z</time>
      </trkpt>
      <trkpt lat="44.33802" lon="5.64283">
        <ele>1103.73</ele>
        <time>2016-09-22T09:19:48Z</time>
      </trkpt>
      <trkpt lat="44.33801" lon="5.64261">
        <ele>1104.69</ele>
        <time>2016-09-22T09:20:05Z</time>
      </trkpt>
      <trkpt lat="44.33803" lon="5.64244">
        <ele>1107.58</ele>
        <time>2016-09-22T09:20:19Z</time>
      </trkpt>
      <trkpt lat="44.33806" lon="5.64232">
        <ele>1109.02</ele>
        <time>2016-09-22T09:20:32Z</time>
      </trkpt>
      <trkpt lat="44.33812" lon="5.64213">
        <ele>1112.38</ele>
        <time>2016-09-22T09:20:48Z</time>
      </trkpt>
      <trkpt lat="44.33822" lon="5.642">
        <ele>1113.34</ele>
        <time>2016-09-22T09:21:03Z</time>
      </trkpt>
      <trkpt lat="44.33832" lon="5.6419">
        <ele>1114.31</ele>
        <time>2016-09-22T09:21:17Z</time>
      </trkpt>
      <trkpt lat="44.33838" lon="5.64178">
        <ele>1115.27</ele>
        <time>2016-09-22T09:21:33Z</time>
      </trkpt>
      <trkpt lat="44.33852" lon="5.64165">
        <ele>1114.79</ele>
        <time>2016-09-22T09:21:50Z</time>
      </trkpt>
      <trkpt lat="44.33862" lon="5.64159">
        <ele>1114.79</ele>
        <time>2016-09-22T09:22:01Z</time>
      </trkpt>
      <trkpt lat="44.33873" lon="5.64144">
        <ele>1114.31</ele>
        <time>2016-09-22T09:22:17Z</time>
      </trkpt>
      <trkpt lat="44.33884" lon="5.64133">
        <ele>1114.79</ele>
        <time>2016-09-22T09:22:30Z</time>
      </trkpt>
      <trkpt lat="44.33895" lon="5.64118">
        <ele>1115.27</ele>
        <time>2016-09-22T09:22:46Z</time>
      </trkpt>
      <trkpt lat="44.33909" lon="5.64108">
        <ele>1115.75</ele>
        <time>2016-09-22T09:23:01Z</time>
      </trkpt>
      <trkpt lat="44.33919" lon="5.64101">
        <ele>1116.71</ele>
        <time>2016-09-22T09:23:13Z</time>
      </trkpt>
      <trkpt lat="44.33936" lon="5.64094">
        <ele>1118.15</ele>
        <time>2016-09-22T09:23:32Z</time>
      </trkpt>
      <trkpt lat="44.33951" lon="5.64086">
        <ele>1119.11</ele>
        <time>2016-09-22T09:23:47Z</time>
      </trkpt>
      <trkpt lat="44.33964" lon="5.6408">
        <ele>1120.07</ele>
        <time>2016-09-22T09:24:03Z</time>
      </trkpt>
      <trkpt lat="44.33972" lon="5.64061">
        <ele>1120.07</ele>
        <time>2016-09-22T09:24:20Z</time>
      </trkpt>
      <trkpt lat="44.33975" lon="5.64051">
        <ele>1120.55</ele>
        <time>2016-09-22T09:24:27Z</time>
      </trkpt>
      <trkpt lat="44.33987" lon="5.64037">
        <ele>1121.03</ele>
        <time>2016-09-22T09:24:44Z</time>
      </trkpt>
      <trkpt lat="44.33996" lon="5.6402">
        <ele>1122.48</ele>
        <time>2016-09-22T09:24:59Z</time>
      </trkpt>
      <trkpt lat="44.33999" lon="5.64011">
        <ele>1123.44</ele>
        <time>2016-09-22T09:25:10Z</time>
      </trkpt>
      <trkpt lat="44.33992" lon="5.63992">
        <ele>1124.4</ele>
        <time>2016-09-22T09:25:27Z</time>
      </trkpt>
      <trkpt lat="44.33982" lon="5.63972">
        <ele>1124.88</ele>
        <time>2016-09-22T09:25:44Z</time>
      </trkpt>
      <trkpt lat="44.33979" lon="5.63951">
        <ele>1125.36</ele>
        <time>2016-09-22T09:26:03Z</time>
      </trkpt>
      <trkpt lat="44.33978" lon="5.63931">
        <ele>1127.28</ele>
        <time>2016-09-22T09:26:21Z</time>
      </trkpt>
      <trkpt lat="44.3398" lon="5.63918">
        <ele>1129.21</ele>
        <time>2016-09-22T09:26:39Z</time>
      </trkpt>
      <trkpt lat="44.33983" lon="5.63906">
        <ele>1130.65</ele>
        <time>2016-09-22T09:26:54Z</time>
      </trkpt>
      <trkpt lat="44.33989" lon="5.63889">
        <ele>1131.13</ele>
        <time>2016-09-22T09:27:10Z</time>
      </trkpt>
      <trkpt lat="44.33997" lon="5.63869">
        <ele>1132.09</ele>
        <time>2016-09-22T09:27:29Z</time>
      </trkpt>
      <trkpt lat="44.34005" lon="5.6386">
        <ele>1132.09</ele>
        <time>2016-09-22T09:27:43Z</time>
      </trkpt>
      <trkpt lat="44.34023" lon="5.63854">
        <ele>1133.53</ele>
        <time>2016-09-22T09:28:01Z</time>
      </trkpt>
      <trkpt lat="44.34038" lon="5.63843">
        <ele>1134.97</ele>
        <time>2016-09-22T09:28:21Z</time>
      </trkpt>
      <trkpt lat="44.34048" lon="5.63831">
        <ele>1135.94</ele>
        <time>2016-09-22T09:28:40Z</time>
      </trkpt>
      <trkpt lat="44.34052" lon="5.6381">
        <ele>1136.42</ele>
        <time>2016-09-22T09:28:57Z</time>
      </trkpt>
      <trkpt lat="44.34052" lon="5.63786">
        <ele>1136.42</ele>
        <time>2016-09-22T09:29:16Z</time>
      </trkpt>
      <trkpt lat="44.34054" lon="5.63764">
        <ele>1137.38</ele>
        <time>2016-09-22T09:29:34Z</time>
      </trkpt>
      <trkpt lat="44.34051" lon="5.63742">
        <ele>1138.34</ele>
        <time>2016-09-22T09:29:51Z</time>
      </trkpt>
      <trkpt lat="44.34051" lon="5.63739">
        <ele>1137.86</ele>
        <time>2016-09-22T09:29:54Z</time>
      </trkpt>
      <trkpt lat="44.34046" lon="5.63712">
        <ele>1137.38</ele>
        <time>2016-09-22T09:30:16Z</time>
      </trkpt>
      <trkpt lat="44.34039" lon="5.63679">
        <ele>1138.34</ele>
        <time>2016-09-22T09:30:40Z</time>
      </trkpt>
      <trkpt lat="44.34034" lon="5.63662">
        <ele>1139.78</ele>
        <time>2016-09-22T09:30:56Z</time>
      </trkpt>
      <trkpt lat="44.34028" lon="5.63641">
        <ele>1141.22</ele>
        <time>2016-09-22T09:31:16Z</time>
      </trkpt>
      <trkpt lat="44.34026" lon="5.63623">
        <ele>1143.14</ele>
        <time>2016-09-22T09:31:33Z</time>
      </trkpt>
      <trkpt lat="44.34022" lon="5.63603">
        <ele>1144.59</ele>
        <time>2016-09-22T09:31:52Z</time>
      </trkpt>
      <trkpt lat="44.34016" lon="5.6358">
        <ele>1144.59</ele>
        <time>2016-09-22T09:32:11Z</time>
      </trkpt>
      <trkpt lat="44.34011" lon="5.63555">
        <ele>1145.55</ele>
        <time>2016-09-22T09:32:31Z</time>
      </trkpt>
      <trkpt lat="44.34005" lon="5.63535">
        <ele>1145.55</ele>
        <time>2016-09-22T09:32:50Z</time>
      </trkpt>
      <trkpt lat="44.33996" lon="5.63512">
        <ele>1146.99</ele>
        <time>2016-09-22T09:33:10Z</time>
      </trkpt>
      <trkpt lat="44.33989" lon="5.63503">
        <ele>1147.47</ele>
        <time>2016-09-22T09:33:22Z</time>
      </trkpt>
      <trkpt lat="44.3398" lon="5.63485">
        <ele>1147.47</ele>
        <time>2016-09-22T09:33:41Z</time>
      </trkpt>
      <trkpt lat="44.33977" lon="5.63461">
        <ele>1149.39</ele>
        <time>2016-09-22T09:34:02Z</time>
      </trkpt>
      <trkpt lat="44.33978" lon="5.63442">
        <ele>1150.84</ele>
        <time>2016-09-22T09:34:20Z</time>
      </trkpt>
      <trkpt lat="44.33981" lon="5.63423">
        <ele>1151.8</ele>
        <time>2016-09-22T09:34:37Z</time>
      </trkpt>
      <trkpt lat="44.3398" lon="5.63409">
        <ele>1153.72</ele>
        <time>2016-09-22T09:34:52Z</time>
      </trkpt>
      <trkpt lat="44.3398" lon="5.63408">
        <ele>1153.72</ele>
        <time>2016-09-22T09:34:53Z</time>
      </trkpt>
      <trkpt lat="44.33979" lon="5.63401">
        <ele>1155.16</ele>
        <time>2016-09-22T09:35:08Z</time>
      </trkpt>
      <trkpt lat="44.3398" lon="5.6339">
        <ele>1156.6</ele>
        <time>2016-09-22T09:35:25Z</time>
      </trkpt>
      <trkpt lat="44.3398" lon="5.63379">
        <ele>1159.01</ele>
        <time>2016-09-22T09:35:41Z</time>
      </trkpt>
      <trkpt lat="44.33983" lon="5.63376">
        <ele>1159.49</ele>
        <time>2016-09-22T09:36:03Z</time>
      </trkpt>
      <trkpt lat="44.33981" lon="5.63378">
        <ele>1159.01</ele>
        <time>2016-09-22T09:36:27Z</time>
      </trkpt>
      <trkpt lat="44.33983" lon="5.63376">
        <ele>1159.49</ele>
        <time>2016-09-22T09:36:52Z</time>
      </trkpt>
      <trkpt lat="44.33981" lon="5.63377">
        <ele>1159.49</ele>
        <time>2016-09-22T09:37:15Z</time>
      </trkpt>
      <trkpt lat="44.33981" lon="5.63372">
        <ele>1159.49</ele>
        <time>2016-09-22T09:37:34Z</time>
      </trkpt>
      <trkpt lat="44.33979" lon="5.63372">
        <ele>1159.49</ele>
        <time>2016-09-22T09:37:52Z</time>
      </trkpt>
      <trkpt lat="44.33982" lon="5.63376">
        <ele>1159.01</ele>
        <time>2016-09-22T09:38:15Z</time>
      </trkpt>
      <trkpt lat="44.33981" lon="5.63375">
        <ele>1159.49</ele>
        <time>2016-09-22T09:38:41Z</time>
      </trkpt>
      <trkpt lat="44.33978" lon="5.63372">
        <ele>1159.49</ele>
        <time>2016-09-22T09:39:12Z</time>
      </trkpt>
      <trkpt lat="44.33978" lon="5.63375">
        <ele>1159.49</ele>
        <time>2016-09-22T09:39:43Z</time>
      </trkpt>
      <trkpt lat="44.33982" lon="5.63374">
        <ele>1159.97</ele>
        <time>2016-09-22T09:40:07Z</time>
      </trkpt>
      <trkpt lat="44.3398" lon="5.63371">
        <ele>1160.45</ele>
        <time>2016-09-22T09:40:24Z</time>
      </trkpt>
      <trkpt lat="44.33981" lon="5.63373">
        <ele>1159.97</ele>
        <time>2016-09-22T09:40:53Z</time>
      </trkpt>
      <trkpt lat="44.33976" lon="5.63372">
        <ele>1160.93</ele>
        <time>2016-09-22T09:41:18Z</time>
      </trkpt>
      <trkpt lat="44.33973" lon="5.63365">
        <ele>1161.41</ele>
        <time>2016-09-22T09:41:32Z</time>
      </trkpt>
      <trkpt lat="44.33967" lon="5.63361">
        <ele>1161.89</ele>
        <time>2016-09-22T09:41:46Z</time>
      </trkpt>
      <trkpt lat="44.33961" lon="5.63352">
        <ele>1162.85</ele>
        <time>2016-09-22T09:42:02Z</time>
      </trkpt>
      <trkpt lat="44.33953" lon="5.63339">
        <ele>1162.85</ele>
        <time>2016-09-22T09:42:21Z</time>
      </trkpt>
      <trkpt lat="44.33947" lon="5.63326">
        <ele>1161.89</ele>
        <time>2016-09-22T09:42:34Z</time>
      </trkpt>
      <trkpt lat="44.33935" lon="5.63313">
        <ele>1160.93</ele>
        <time>2016-09-22T09:42:52Z</time>
      </trkpt>
      <trkpt lat="44.33926" lon="5.63305">
        <ele>1160.93</ele>
        <time>2016-09-22T09:43:08Z</time>
      </trkpt>
      <trkpt lat="44.33915" lon="5.63294">
        <ele>1161.41</ele>
        <time>2016-09-22T09:43:24Z</time>
      </trkpt>
      <trkpt lat="44.33901" lon="5.6328">
        <ele>1161.89</ele>
        <time>2016-09-22T09:43:43Z</time>
      </trkpt>
      <trkpt lat="44.33894" lon="5.63267">
        <ele>1162.85</ele>
        <time>2016-09-22T09:43:58Z</time>
      </trkpt>
      <trkpt lat="44.33884" lon="5.63249">
        <ele>1163.33</ele>
        <time>2016-09-22T09:44:16Z</time>
      </trkpt>
      <trkpt lat="44.33875" lon="5.63235">
        <ele>1163.33</ele>
        <time>2016-09-22T09:44:30Z</time>
      </trkpt>
      <trkpt lat="44.33873" lon="5.6323">
        <ele>1163.81</ele>
        <time>2016-09-22T09:44:34Z</time>
      </trkpt>
      <trkpt lat="44.33867" lon="5.63206">
        <ele>1164.29</ele>
        <time>2016-09-22T09:44:51Z</time>
      </trkpt>
      <trkpt lat="44.33865" lon="5.632">
        <ele>1165.26</ele>
        <time>2016-09-22T09:44:57Z</time>
      </trkpt>
      <trkpt lat="44.33852" lon="5.63192">
        <ele>1166.22</ele>
        <time>2016-09-22T09:45:12Z</time>
      </trkpt>
      <trkpt lat="44.33843" lon="5.63177">
        <ele>1168.14</ele>
        <time>2016-09-22T09:45:29Z</time>
      </trkpt>
      <trkpt lat="44.33836" lon="5.63165">
        <ele>1170.06</ele>
        <time>2016-09-22T09:45:45Z</time>
      </trkpt>
      <trkpt lat="44.33829" lon="5.63152">
        <ele>1171.98</ele>
        <time>2016-09-22T09:46:01Z</time>
      </trkpt>
      <trkpt lat="44.33821" lon="5.63146">
        <ele>1173.91</ele>
        <time>2016-09-22T09:46:17Z</time>
      </trkpt>
      <trkpt lat="44.33814" lon="5.63135">
        <ele>1175.83</ele>
        <time>2016-09-22T09:46:32Z</time>
      </trkpt>
      <trkpt lat="44.33812" lon="5.63132">
        <ele>1176.31</ele>
        <time>2016-09-22T09:46:48Z</time>
      </trkpt>
      <trkpt lat="44.33813" lon="5.6313">
        <ele>1176.31</ele>
        <time>2016-09-22T09:47:14Z</time>
      </trkpt>
      <trkpt lat="44.3381" lon="5.6313">
        <ele>1176.31</ele>
        <time>2016-09-22T09:47:31Z</time>
      </trkpt>
      <trkpt lat="44.33809" lon="5.6313">
        <ele>1176.79</ele>
        <time>2016-09-22T09:47:57Z</time>
      </trkpt>
      <trkpt lat="44.33809" lon="5.63133">
        <ele>1176.79</ele>
        <time>2016-09-22T09:48:29Z</time>
      </trkpt>
      <trkpt lat="44.33813" lon="5.63127">
        <ele>1176.79</ele>
        <time>2016-09-22T09:48:45Z</time>
      </trkpt>
      <trkpt lat="44.33813" lon="5.63128">
        <ele>1176.79</ele>
        <time>2016-09-22T09:49:09Z</time>
      </trkpt>
      <trkpt lat="44.33813" lon="5.63126">
        <ele>1176.79</ele>
        <time>2016-09-22T09:49:34Z</time>
      </trkpt>
      <trkpt lat="44.33814" lon="5.63125">
        <ele>1176.79</ele>
        <time>2016-09-22T09:50:00Z</time>
      </trkpt>
      <trkpt lat="44.33814" lon="5.63127">
        <ele>1176.31</ele>
        <time>2016-09-22T09:50:24Z</time>
      </trkpt>
      <trkpt lat="44.33815" lon="5.63129">
        <ele>1176.31</ele>
        <time>2016-09-22T09:50:47Z</time>
      </trkpt>
      <trkpt lat="44.33815" lon="5.63127">
        <ele>1176.31</ele>
        <time>2016-09-22T09:51:13Z</time>
      </trkpt>
      <trkpt lat="44.33813" lon="5.63127">
        <ele>1176.79</ele>
        <time>2016-09-22T09:51:44Z</time>
      </trkpt>
      <trkpt lat="44.33814" lon="5.63126">
        <ele>1176.79</ele>
        <time>2016-09-22T09:52:25Z</time>
      </trkpt>
      <trkpt lat="44.33817" lon="5.63124">
        <ele>1176.79</ele>
        <time>2016-09-22T09:52:56Z</time>
      </trkpt>
      <trkpt lat="44.33815" lon="5.63127">
        <ele>1176.79</ele>
        <time>2016-09-22T09:53:28Z</time>
      </trkpt>
      <trkpt lat="44.33814" lon="5.63124">
        <ele>1176.79</ele>
        <time>2016-09-22T09:53:59Z</time>
      </trkpt>
      <trkpt lat="44.33812" lon="5.63125">
        <ele>1176.79</ele>
        <time>2016-09-22T09:54:28Z</time>
      </trkpt>
      <trkpt lat="44.33813" lon="5.63126">
        <ele>1176.79</ele>
        <time>2016-09-22T09:55:01Z</time>
      </trkpt>
      <trkpt lat="44.33814" lon="5.63125">
        <ele>1176.79</ele>
        <time>2016-09-22T09:55:28Z</time>
      </trkpt>
      <trkpt lat="44.33813" lon="5.63125">
        <ele>1176.79</ele>
        <time>2016-09-22T09:56:04Z</time>
      </trkpt>
      <trkpt lat="44.33812" lon="5.63125">
        <ele>1176.79</ele>
        <time>2016-09-22T09:56:31Z</time>
      </trkpt>
      <trkpt lat="44.33812" lon="5.6313">
        <ele>1177.27</ele>
        <time>2016-09-22T09:56:54Z</time>
      </trkpt>
      <trkpt lat="44.33816" lon="5.6314">
        <ele>1176.79</ele>
        <time>2016-09-22T09:57:20Z</time>
      </trkpt>
      <trkpt lat="44.33813" lon="5.63127">
        <ele>1176.79</ele>
        <time>2016-09-22T09:57:51Z</time>
      </trkpt>
      <trkpt lat="44.33813" lon="5.63128">
        <ele>1176.79</ele>
        <time>2016-09-22T09:58:25Z</time>
      </trkpt>
      <trkpt lat="44.33811" lon="5.63127">
        <ele>1176.79</ele>
        <time>2016-09-22T09:58:56Z</time>
      </trkpt>
      <trkpt lat="44.33815" lon="5.63134">
        <ele>1176.79</ele>
        <time>2016-09-22T09:59:23Z</time>
      </trkpt>
      <trkpt lat="44.33819" lon="5.63139">
        <ele>1176.31</ele>
        <time>2016-09-22T09:59:39Z</time>
      </trkpt>
      <trkpt lat="44.33826" lon="5.6315">
        <ele>1173.91</ele>
        <time>2016-09-22T09:59:55Z</time>
      </trkpt>
      <trkpt lat="44.33836" lon="5.63157">
        <ele>1171.5</ele>
        <time>2016-09-22T10:00:09Z</time>
      </trkpt>
      <trkpt lat="44.33845" lon="5.63173">
        <ele>1169.58</ele>
        <time>2016-09-22T10:00:24Z</time>
      </trkpt>
      <trkpt lat="44.33854" lon="5.63188">
        <ele>1167.66</ele>
        <time>2016-09-22T10:00:38Z</time>
      </trkpt>
      <trkpt lat="44.33857" lon="5.63192">
        <ele>1167.18</ele>
        <time>2016-09-22T10:00:42Z</time>
      </trkpt>
      <trkpt lat="44.33867" lon="5.63204">
        <ele>1165.26</ele>
        <time>2016-09-22T10:00:57Z</time>
      </trkpt>
      <trkpt lat="44.33873" lon="5.6322">
        <ele>1163.81</ele>
        <time>2016-09-22T10:01:12Z</time>
      </trkpt>
      <trkpt lat="44.3388" lon="5.63233">
        <ele>1164.29</ele>
        <time>2016-09-22T10:01:26Z</time>
      </trkpt>
      <trkpt lat="44.3389" lon="5.63248">
        <ele>1164.29</ele>
        <time>2016-09-22T10:01:43Z</time>
      </trkpt>
      <trkpt lat="44.33903" lon="5.63267">
        <ele>1163.81</ele>
        <time>2016-09-22T10:02:03Z</time>
      </trkpt>
      <trkpt lat="44.33912" lon="5.63284">
        <ele>1163.33</ele>
        <time>2016-09-22T10:02:19Z</time>
      </trkpt>
      <trkpt lat="44.33927" lon="5.63298">
        <ele>1162.85</ele>
        <time>2016-09-22T10:02:37Z</time>
      </trkpt>
      <trkpt lat="44.3394" lon="5.63312">
        <ele>1162.37</ele>
        <time>2016-09-22T10:02:53Z</time>
      </trkpt>
      <trkpt lat="44.33951" lon="5.63326">
        <ele>1163.33</ele>
        <time>2016-09-22T10:03:08Z</time>
      </trkpt>
      <trkpt lat="44.33957" lon="5.63335">
        <ele>1163.81</ele>
        <time>2016-09-22T10:03:17Z</time>
      </trkpt>
      <trkpt lat="44.33964" lon="5.63349">
        <ele>1164.29</ele>
        <time>2016-09-22T10:03:32Z</time>
      </trkpt>
      <trkpt lat="44.33971" lon="5.63362">
        <ele>1163.33</ele>
        <time>2016-09-22T10:03:49Z</time>
      </trkpt>
      <trkpt lat="44.33981" lon="5.63369">
        <ele>1162.37</ele>
        <time>2016-09-22T10:04:06Z</time>
      </trkpt>
      <trkpt lat="44.33979" lon="5.6337">
        <ele>1162.37</ele>
        <time>2016-09-22T10:04:24Z</time>
      </trkpt>
      <trkpt lat="44.33984" lon="5.63371">
        <ele>1161.89</ele>
        <time>2016-09-22T10:04:42Z</time>
      </trkpt>
      <trkpt lat="44.33988" lon="5.63371">
        <ele>1161.41</ele>
        <time>2016-09-22T10:05:01Z</time>
      </trkpt>
      <trkpt lat="44.33993" lon="5.63376">
        <ele>1161.89</ele>
        <time>2016-09-22T10:05:20Z</time>
      </trkpt>
      <trkpt lat="44.33988" lon="5.63374">
        <ele>1162.37</ele>
        <time>2016-09-22T10:05:46Z</time>
      </trkpt>
      <trkpt lat="44.33993" lon="5.63382">
        <ele>1162.37</ele>
        <time>2016-09-22T10:06:09Z</time>
      </trkpt>
      <trkpt lat="44.33992" lon="5.63383">
        <ele>1161.89</ele>
        <time>2016-09-22T10:06:24Z</time>
      </trkpt>
      <trkpt lat="44.33992" lon="5.63384">
        <ele>1161.41</ele>
        <time>2016-09-22T10:07:02Z</time>
      </trkpt>
      <trkpt lat="44.33992" lon="5.63382">
        <ele>1161.41</ele>
        <time>2016-09-22T10:07:33Z</time>
      </trkpt>
      <trkpt lat="44.33991" lon="5.63381">
        <ele>1161.41</ele>
        <time>2016-09-22T10:08:04Z</time>
      </trkpt>
      <trkpt lat="44.33992" lon="5.63384">
        <ele>1161.41</ele>
        <time>2016-09-22T10:08:21Z</time>
      </trkpt>
      <trkpt lat="44.33995" lon="5.63382">
        <ele>1161.41</ele>
        <time>2016-09-22T10:09:06Z</time>
      </trkpt>
      <trkpt lat="44.33995" lon="5.63384">
        <ele>1161.89</ele>
        <time>2016-09-22T10:09:49Z</time>
      </trkpt>
      <trkpt lat="44.33993" lon="5.63385">
        <ele>1161.89</ele>
        <time>2016-09-22T10:10:31Z</time>
      </trkpt>
      <trkpt lat="44.33997" lon="5.63384">
        <ele>1162.37</ele>
        <time>2016-09-22T10:11:16Z</time>
      </trkpt>
      <trkpt lat="44.33993" lon="5.63384">
        <ele>1162.37</ele>
        <time>2016-09-22T10:12:05Z</time>
      </trkpt>
      <trkpt lat="44.33992" lon="5.63384">
        <ele>1162.37</ele>
        <time>2016-09-22T10:12:42Z</time>
      </trkpt>
      <trkpt lat="44.33993" lon="5.63384">
        <ele>1162.85</ele>
        <time>2016-09-22T10:13:20Z</time>
      </trkpt>
      <trkpt lat="44.33992" lon="5.63383">
        <ele>1162.85</ele>
        <time>2016-09-22T10:14:03Z</time>
      </trkpt>
      <trkpt lat="44.33991" lon="5.63383">
        <ele>1162.85</ele>
        <time>2016-09-22T10:14:52Z</time>
      </trkpt>
      <trkpt lat="44.33992" lon="5.63384">
        <ele>1162.85</ele>
        <time>2016-09-22T10:15:38Z</time>
      </trkpt>
      <trkpt lat="44.33991" lon="5.63384">
        <ele>1162.85</ele>
        <time>2016-09-22T10:16:25Z</time>
      </trkpt>
      <trkpt lat="44.33993" lon="5.63383">
        <ele>1162.37</ele>
        <time>2016-09-22T10:17:06Z</time>
      </trkpt>
      <trkpt lat="44.33991" lon="5.63383">
        <ele>1162.37</ele>
        <time>2016-09-22T10:17:46Z</time>
      </trkpt>
      <trkpt lat="44.33992" lon="5.63384">
        <ele>1162.85</ele>
        <time>2016-09-22T10:18:29Z</time>
      </trkpt>
      <trkpt lat="44.33993" lon="5.63383">
        <ele>1162.37</ele>
        <time>2016-09-22T10:19:07Z</time>
      </trkpt>
      <trkpt lat="44.33991" lon="5.63384">
        <ele>1162.85</ele>
        <time>2016-09-22T10:19:47Z</time>
      </trkpt>
      <trkpt lat="44.33993" lon="5.63383">
        <ele>1162.37</ele>
        <time>2016-09-22T10:20:33Z</time>
      </trkpt>
      <trkpt lat="44.33993" lon="5.63383">
        <ele>1162.85</ele>
        <time>2016-09-22T10:21:01Z</time>
      </trkpt>
      <trkpt lat="44.33993" lon="5.63383">
        <ele>1162.85</ele>
        <time>2016-09-22T10:21:33Z</time>
      </trkpt>
      <trkpt lat="44.33994" lon="5.63382">
        <ele>1162.85</ele>
        <time>2016-09-22T10:22:24Z</time>
      </trkpt>
      <trkpt lat="44.33995" lon="5.63382">
        <ele>1163.33</ele>
        <time>2016-09-22T10:23:10Z</time>
      </trkpt>
      <trkpt lat="44.33993" lon="5.63383">
        <ele>1163.81</ele>
        <time>2016-09-22T10:23:51Z</time>
      </trkpt>
      <trkpt lat="44.33992" lon="5.63384">
        <ele>1163.33</ele>
        <time>2016-09-22T10:24:25Z</time>
      </trkpt>
      <trkpt lat="44.33992" lon="5.63384">
        <ele>1163.33</ele>
        <time>2016-09-22T10:25:09Z</time>
      </trkpt>
      <trkpt lat="44.33992" lon="5.63383">
        <ele>1163.33</ele>
        <time>2016-09-22T10:25:58Z</time>
      </trkpt>
      <trkpt lat="44.33992" lon="5.63384">
        <ele>1163.33</ele>
        <time>2016-09-22T10:26:35Z</time>
      </trkpt>
      <trkpt lat="44.3399" lon="5.63384">
        <ele>1163.33</ele>
        <time>2016-09-22T10:27:20Z</time>
      </trkpt>
      <trkpt lat="44.33992" lon="5.63384">
        <ele>1163.33</ele>
        <time>2016-09-22T10:28:07Z</time>
      </trkpt>
      <trkpt lat="44.3399" lon="5.63381">
        <ele>1163.81</ele>
        <time>2016-09-22T10:28:57Z</time>
      </trkpt>
      <trkpt lat="44.33992" lon="5.63381">
        <ele>1163.33</ele>
        <time>2016-09-22T10:29:39Z</time>
      </trkpt>
      <trkpt lat="44.33993" lon="5.63383">
        <ele>1163.81</ele>
        <time>2016-09-22T10:30:22Z</time>
      </trkpt>
      <trkpt lat="44.33991" lon="5.63383">
        <ele>1163.33</ele>
        <time>2016-09-22T10:31:06Z</time>
      </trkpt>
      <trkpt lat="44.33991" lon="5.63382">
        <ele>1163.33</ele>
        <time>2016-09-22T10:31:45Z</time>
      </trkpt>
      <trkpt lat="44.33989" lon="5.63381">
        <ele>1163.33</ele>
        <time>2016-09-22T10:32:26Z</time>
      </trkpt>
      <trkpt lat="44.33991" lon="5.63381">
        <ele>1163.33</ele>
        <time>2016-09-22T10:33:01Z</time>
      </trkpt>
      <trkpt lat="44.33992" lon="5.63383">
        <ele>1163.33</ele>
        <time>2016-09-22T10:33:37Z</time>
      </trkpt>
      <trkpt lat="44.33993" lon="5.63382">
        <ele>1163.33</ele>
        <time>2016-09-22T10:34:20Z</time>
      </trkpt>
      <trkpt lat="44.3399" lon="5.63383">
        <ele>1163.33</ele>
        <time>2016-09-22T10:34:58Z</time>
      </trkpt>
      <trkpt lat="44.33989" lon="5.63382">
        <ele>1163.33</ele>
        <time>2016-09-22T10:35:38Z</time>
      </trkpt>
      <trkpt lat="44.3399" lon="5.63382">
        <ele>1163.33</ele>
        <time>2016-09-22T10:36:16Z</time>
      </trkpt>
      <trkpt lat="44.33991" lon="5.63382">
        <ele>1163.33</ele>
        <time>2016-09-22T10:36:56Z</time>
      </trkpt>
      <trkpt lat="44.33992" lon="5.63384">
        <ele>1163.33</ele>
        <time>2016-09-22T10:37:37Z</time>
      </trkpt>
      <trkpt lat="44.33991" lon="5.63383">
        <ele>1163.33</ele>
        <time>2016-09-22T10:38:18Z</time>
      </trkpt>
      <trkpt lat="44.33989" lon="5.63383">
        <ele>1163.33</ele>
        <time>2016-09-22T10:39:00Z</time>
      </trkpt>
      <trkpt lat="44.33991" lon="5.63384">
        <ele>1163.33</ele>
        <time>2016-09-22T10:39:37Z</time>
      </trkpt>
      <trkpt lat="44.3399" lon="5.63382">
        <ele>1164.77</ele>
        <time>2016-09-22T10:40:24Z</time>
      </trkpt>
      <trkpt lat="44.3399" lon="5.6338">
        <ele>1163.81</ele>
        <time>2016-09-22T10:41:00Z</time>
      </trkpt>
      <trkpt lat="44.33991" lon="5.63383">
        <ele>1163.81</ele>
        <time>2016-09-22T10:41:48Z</time>
      </trkpt>
      <trkpt lat="44.3399" lon="5.63383">
        <ele>1163.81</ele>
        <time>2016-09-22T10:42:35Z</time>
      </trkpt>
      <trkpt lat="44.33991" lon="5.63383">
        <ele>1163.81</ele>
        <time>2016-09-22T10:43:10Z</time>
      </trkpt>
      <trkpt lat="44.33992" lon="5.63385">
        <ele>1163.81</ele>
        <time>2016-09-22T10:43:47Z</time>
      </trkpt>
      <trkpt lat="44.33991" lon="5.63383">
        <ele>1163.81</ele>
        <time>2016-09-22T10:44:27Z</time>
      </trkpt>
      <trkpt lat="44.3399" lon="5.63383">
        <ele>1163.81</ele>
        <time>2016-09-22T10:45:17Z</time>
      </trkpt>
      <trkpt lat="44.33992" lon="5.63383">
        <ele>1164.29</ele>
        <time>2016-09-22T10:45:55Z</time>
      </trkpt>
      <trkpt lat="44.33992" lon="5.63383">
        <ele>1164.77</ele>
        <time>2016-09-22T10:46:24Z</time>
      </trkpt>
      <trkpt lat="44.33991" lon="5.63382">
        <ele>1164.29</ele>
        <time>2016-09-22T10:46:58Z</time>
      </trkpt>
      <trkpt lat="44.3399" lon="5.6338">
        <ele>1164.29</ele>
        <time>2016-09-22T10:47:24Z</time>
      </trkpt>
      <trkpt lat="44.33992" lon="5.63382">
        <ele>1164.29</ele>
        <time>2016-09-22T10:47:57Z</time>
      </trkpt>
      <trkpt lat="44.33991" lon="5.63381">
        <ele>1164.29</ele>
        <time>2016-09-22T10:48:21Z</time>
      </trkpt>
      <trkpt lat="44.33992" lon="5.63384">
        <ele>1164.29</ele>
        <time>2016-09-22T10:49:02Z</time>
      </trkpt>
      <trkpt lat="44.33991" lon="5.63383">
        <ele>1164.77</ele>
        <time>2016-09-22T10:49:49Z</time>
      </trkpt>
      <trkpt lat="44.3399" lon="5.63383">
        <ele>1164.77</ele>
        <time>2016-09-22T10:50:17Z</time>
      </trkpt>
      <trkpt lat="44.33994" lon="5.63384">
        <ele>1164.29</ele>
        <time>2016-09-22T10:51:01Z</time>
      </trkpt>
      <trkpt lat="44.33993" lon="5.63386">
        <ele>1164.29</ele>
        <time>2016-09-22T10:51:35Z</time>
      </trkpt>
      <trkpt lat="44.3399" lon="5.63382">
        <ele>1164.29</ele>
        <time>2016-09-22T10:52:13Z</time>
      </trkpt>
      <trkpt lat="44.33993" lon="5.63384">
        <ele>1164.29</ele>
        <time>2016-09-22T10:52:48Z</time>
      </trkpt>
      <trkpt lat="44.3399" lon="5.63383">
        <ele>1164.29</ele>
        <time>2016-09-22T10:53:16Z</time>
      </trkpt>
      <trkpt lat="44.3399" lon="5.63383">
        <ele>1164.29</ele>
        <time>2016-09-22T10:53:50Z</time>
      </trkpt>
      <trkpt lat="44.33991" lon="5.63384">
        <ele>1164.29</ele>
        <time>2016-09-22T10:54:32Z</time>
      </trkpt>
      <trkpt lat="44.33991" lon="5.63384">
        <ele>1164.29</ele>
        <time>2016-09-22T10:55:02Z</time>
      </trkpt>
      <trkpt lat="44.33993" lon="5.63383">
        <ele>1164.29</ele>
        <time>2016-09-22T10:55:46Z</time>
      </trkpt>
      <trkpt lat="44.33993" lon="5.63383">
        <ele>1164.77</ele>
        <time>2016-09-22T10:56:21Z</time>
      </trkpt>
      <trkpt lat="44.33992" lon="5.63383">
        <ele>1164.29</ele>
        <time>2016-09-22T10:56:44Z</time>
      </trkpt>
      <trkpt lat="44.3399" lon="5.63384">
        <ele>1164.29</ele>
        <time>2016-09-22T10:57:13Z</time>
      </trkpt>
      <trkpt lat="44.33992" lon="5.63384">
        <ele>1164.29</ele>
        <time>2016-09-22T10:57:48Z</time>
      </trkpt>
      <trkpt lat="44.33991" lon="5.63384">
        <ele>1164.29</ele>
        <time>2016-09-22T10:58:23Z</time>
      </trkpt>
      <trkpt lat="44.3399" lon="5.63383">
        <ele>1164.29</ele>
        <time>2016-09-22T10:59:03Z</time>
      </trkpt>
      <trkpt lat="44.33989" lon="5.63384">
        <ele>1164.29</ele>
        <time>2016-09-22T10:59:40Z</time>
      </trkpt>
      <trkpt lat="44.3399" lon="5.63384">
        <ele>1164.29</ele>
        <time>2016-09-22T11:00:10Z</time>
      </trkpt>
      <trkpt lat="44.33991" lon="5.63385">
        <ele>1164.29</ele>
        <time>2016-09-22T11:00:46Z</time>
      </trkpt>
      <trkpt lat="44.33991" lon="5.63386">
        <ele>1164.29</ele>
        <time>2016-09-22T11:01:23Z</time>
      </trkpt>
      <trkpt lat="44.3399" lon="5.63387">
        <ele>1164.77</ele>
        <time>2016-09-22T11:01:57Z</time>
      </trkpt>
      <trkpt lat="44.3399" lon="5.63386">
        <ele>1164.29</ele>
        <time>2016-09-22T11:02:34Z</time>
      </trkpt>
      <trkpt lat="44.3399" lon="5.63385">
        <ele>1164.29</ele>
        <time>2016-09-22T11:03:02Z</time>
      </trkpt>
      <trkpt lat="44.33992" lon="5.63386">
        <ele>1164.77</ele>
        <time>2016-09-22T11:03:40Z</time>
      </trkpt>
      <trkpt lat="44.33992" lon="5.63385">
        <ele>1164.29</ele>
        <time>2016-09-22T11:04:22Z</time>
      </trkpt>
      <trkpt lat="44.3399" lon="5.63386">
        <ele>1161.41</ele>
        <time>2016-09-22T11:04:55Z</time>
      </trkpt>
      <trkpt lat="44.3399" lon="5.63386">
        <ele>1163.33</ele>
        <time>2016-09-22T11:04:56Z</time>
      </trkpt>
      <trkpt lat="44.3399" lon="5.63386">
        <ele>1155.16</ele>
        <time>2016-09-22T11:04:57Z</time>
      </trkpt>
      <trkpt lat="44.3399" lon="5.63386">
        <ele>1176.31</ele>
        <time>2016-09-22T11:04:58Z</time>
      </trkpt>
      <trkpt lat="44.3399" lon="5.63386">
        <ele>1165.74</ele>
        <time>2016-09-22T11:04:59Z</time>
      </trkpt>
      <trkpt lat="44.3399" lon="5.63386">
        <ele>1158.05</ele>
        <time>2016-09-22T11:05:00Z</time>
      </trkpt>
      <trkpt lat="44.3399" lon="5.63386">
        <ele>1163.81</ele>
        <time>2016-09-22T11:05:01Z</time>
      </trkpt>
      <trkpt lat="44.3399" lon="5.63387">
        <ele>1165.26</ele>
        <time>2016-09-22T11:05:03Z</time>
      </trkpt>
      <trkpt lat="44.33992" lon="5.63383">
        <ele>1165.74</ele>
        <time>2016-09-22T11:05:14Z</time>
      </trkpt>
      <trkpt lat="44.33991" lon="5.63381">
        <ele>1162.37</ele>
        <time>2016-09-22T11:05:16Z</time>
      </trkpt>
      <trkpt lat="44.33991" lon="5.6338">
        <ele>1170.06</ele>
        <time>2016-09-22T11:05:17Z</time>
      </trkpt>
      <trkpt lat="44.33991" lon="5.6338">
        <ele>1168.62</ele>
        <time>2016-09-22T11:05:18Z</time>
      </trkpt>
      <trkpt lat="44.33991" lon="5.6338">
        <ele>1165.26</ele>
        <time>2016-09-22T11:05:20Z</time>
      </trkpt>
      <trkpt lat="44.33991" lon="5.6338">
        <ele>1161.89</ele>
        <time>2016-09-22T11:05:21Z</time>
      </trkpt>
      <trkpt lat="44.3399" lon="5.63379">
        <ele>1164.77</ele>
        <time>2016-09-22T11:05:22Z</time>
      </trkpt>
      <trkpt lat="44.3399" lon="5.63382">
        <ele>1169.1</ele>
        <time>2016-09-22T11:05:26Z</time>
      </trkpt>
      <trkpt lat="44.3399" lon="5.63383">
        <ele>1165.74</ele>
        <time>2016-09-22T11:05:27Z</time>
      </trkpt>
      <trkpt lat="44.33995" lon="5.63382">
        <ele>1161.41</ele>
        <time>2016-09-22T11:05:48Z</time>
      </trkpt>
      <trkpt lat="44.33996" lon="5.63382">
        <ele>1163.81</ele>
        <time>2016-09-22T11:05:49Z</time>
      </trkpt>
      <trkpt lat="44.33993" lon="5.63393">
        <ele>1164.77</ele>
        <time>2016-09-22T11:06:12Z</time>
      </trkpt>
      <trkpt lat="44.33992" lon="5.63385">
        <ele>1164.77</ele>
        <time>2016-09-22T11:06:46Z</time>
      </trkpt>
      <trkpt lat="44.33993" lon="5.63382">
        <ele>1164.29</ele>
        <time>2016-09-22T11:07:15Z</time>
      </trkpt>
      <trkpt lat="44.3399" lon="5.63382">
        <ele>1165.26</ele>
        <time>2016-09-22T11:07:48Z</time>
      </trkpt>
      <trkpt lat="44.33994" lon="5.63382">
        <ele>1164.77</ele>
        <time>2016-09-22T11:08:24Z</time>
      </trkpt>
      <trkpt lat="44.33992" lon="5.63386">
        <ele>1163.81</ele>
        <time>2016-09-22T11:08:50Z</time>
      </trkpt>
      <trkpt lat="44.33992" lon="5.63386">
        <ele>1159.49</ele>
        <time>2016-09-22T11:09:06Z</time>
      </trkpt>
      <trkpt lat="44.33992" lon="5.63386">
        <ele>1164.29</ele>
        <time>2016-09-22T11:09:07Z</time>
      </trkpt>
      <trkpt lat="44.33992" lon="5.63386">
        <ele>1163.81</ele>
        <time>2016-09-22T11:09:31Z</time>
      </trkpt>
      <trkpt lat="44.33991" lon="5.63387">
        <ele>1164.29</ele>
        <time>2016-09-22T11:09:56Z</time>
      </trkpt>
      <trkpt lat="44.33996" lon="5.63381">
        <ele>1163.81</ele>
        <time>2016-09-22T11:10:26Z</time>
      </trkpt>
      <trkpt lat="44.3399" lon="5.63384">
        <ele>1163.33</ele>
        <time>2016-09-22T11:10:51Z</time>
      </trkpt>
      <trkpt lat="44.3399" lon="5.63386">
        <ele>1170.06</ele>
        <time>2016-09-22T11:10:57Z</time>
      </trkpt>
      <trkpt lat="44.3399" lon="5.63386">
        <ele>1162.37</ele>
        <time>2016-09-22T11:10:58Z</time>
      </trkpt>
      <trkpt lat="44.33992" lon="5.63388">
        <ele>1162.85</ele>
        <time>2016-09-22T11:11:30Z</time>
      </trkpt>
      <trkpt lat="44.3399" lon="5.63386">
        <ele>1163.33</ele>
        <time>2016-09-22T11:12:02Z</time>
      </trkpt>
      <trkpt lat="44.33989" lon="5.63387">
        <ele>1163.33</ele>
        <time>2016-09-22T11:12:36Z</time>
      </trkpt>
      <trkpt lat="44.33987" lon="5.63387">
        <ele>1162.37</ele>
        <time>2016-09-22T11:13:05Z</time>
      </trkpt>
      <trkpt lat="44.33989" lon="5.63382">
        <ele>1162.85</ele>
        <time>2016-09-22T11:13:32Z</time>
      </trkpt>
      <trkpt lat="44.3399" lon="5.6338">
        <ele>1163.33</ele>
        <time>2016-09-22T11:13:59Z</time>
      </trkpt>
      <trkpt lat="44.3399" lon="5.63386">
        <ele>1162.85</ele>
        <time>2016-09-22T11:14:33Z</time>
      </trkpt>
      <trkpt lat="44.3399" lon="5.63389">
        <ele>1162.85</ele>
        <time>2016-09-22T11:15:05Z</time>
      </trkpt>
      <trkpt lat="44.33987" lon="5.63389">
        <ele>1162.37</ele>
        <time>2016-09-22T11:15:43Z</time>
      </trkpt>
      <trkpt lat="44.33988" lon="5.63385">
        <ele>1161.41</ele>
        <time>2016-09-22T11:16:01Z</time>
      </trkpt>
      <trkpt lat="44.33988" lon="5.63387">
        <ele>1166.7</ele>
        <time>2016-09-22T11:16:12Z</time>
      </trkpt>
      <trkpt lat="44.33988" lon="5.63386">
        <ele>1161.89</ele>
        <time>2016-09-22T11:16:13Z</time>
      </trkpt>
      <trkpt lat="44.3399" lon="5.63386">
        <ele>1162.37</ele>
        <time>2016-09-22T11:16:55Z</time>
      </trkpt>
      <trkpt lat="44.33991" lon="5.63387">
        <ele>1162.85</ele>
        <time>2016-09-22T11:17:43Z</time>
      </trkpt>
      <trkpt lat="44.33993" lon="5.63384">
        <ele>1162.37</ele>
        <time>2016-09-22T11:18:25Z</time>
      </trkpt>
      <trkpt lat="44.33989" lon="5.63385">
        <ele>1162.37</ele>
        <time>2016-09-22T11:18:58Z</time>
      </trkpt>
      <trkpt lat="44.33994" lon="5.63386">
        <ele>1161.89</ele>
        <time>2016-09-22T11:19:29Z</time>
      </trkpt>
      <trkpt lat="44.33993" lon="5.63385">
        <ele>1161.41</ele>
        <time>2016-09-22T11:20:02Z</time>
      </trkpt>
      <trkpt lat="44.33993" lon="5.63383">
        <ele>1161.41</ele>
        <time>2016-09-22T11:20:33Z</time>
      </trkpt>
      <trkpt lat="44.33991" lon="5.63384">
        <ele>1161.89</ele>
        <time>2016-09-22T11:21:11Z</time>
      </trkpt>
      <trkpt lat="44.3399" lon="5.63389">
        <ele>1161.41</ele>
        <time>2016-09-22T11:21:49Z</time>
      </trkpt>
      <trkpt lat="44.33991" lon="5.63386">
        <ele>1161.89</ele>
        <time>2016-09-22T11:22:20Z</time>
      </trkpt>
      <trkpt lat="44.33993" lon="5.63387">
        <ele>1161.41</ele>
        <time>2016-09-22T11:22:56Z</time>
      </trkpt>
      <trkpt lat="44.3399" lon="5.63384">
        <ele>1161.89</ele>
        <time>2016-09-22T11:23:23Z</time>
      </trkpt>
      <trkpt lat="44.33989" lon="5.63382">
        <ele>1161.89</ele>
        <time>2016-09-22T11:24:03Z</time>
      </trkpt>
      <trkpt lat="44.33991" lon="5.63384">
        <ele>1162.85</ele>
        <time>2016-09-22T11:24:30Z</time>
      </trkpt>
      <trkpt lat="44.3399" lon="5.63383">
        <ele>1162.85</ele>
        <time>2016-09-22T11:24:44Z</time>
      </trkpt>
      <trkpt lat="44.33991" lon="5.63378">
        <ele>1162.85</ele>
        <time>2016-09-22T11:25:09Z</time>
      </trkpt>
      <trkpt lat="44.3399" lon="5.63376">
        <ele>1162.85</ele>
        <time>2016-09-22T11:25:50Z</time>
      </trkpt>
      <trkpt lat="44.3399" lon="5.63377">
        <ele>1162.85</ele>
        <time>2016-09-22T11:26:28Z</time>
      </trkpt>
      <trkpt lat="44.3399" lon="5.63378">
        <ele>1162.85</ele>
        <time>2016-09-22T11:27:04Z</time>
      </trkpt>
      <trkpt lat="44.33989" lon="5.63379">
        <ele>1162.85</ele>
        <time>2016-09-22T11:27:40Z</time>
      </trkpt>
      <trkpt lat="44.33988" lon="5.63378">
        <ele>1163.33</ele>
        <time>2016-09-22T11:28:13Z</time>
      </trkpt>
      <trkpt lat="44.33986" lon="5.63376">
        <ele>1162.85</ele>
        <time>2016-09-22T11:28:49Z</time>
      </trkpt>
      <trkpt lat="44.33989" lon="5.63378">
        <ele>1163.33</ele>
        <time>2016-09-22T11:29:28Z</time>
      </trkpt>
      <trkpt lat="44.33989" lon="5.6338">
        <ele>1163.33</ele>
        <time>2016-09-22T11:30:02Z</time>
      </trkpt>
      <trkpt lat="44.33989" lon="5.63382">
        <ele>1163.33</ele>
        <time>2016-09-22T11:30:26Z</time>
      </trkpt>
      <trkpt lat="44.33987" lon="5.63378">
        <ele>1163.33</ele>
        <time>2016-09-22T11:30:51Z</time>
      </trkpt>
      <trkpt lat="44.33986" lon="5.6337">
        <ele>1162.85</ele>
        <time>2016-09-22T11:31:06Z</time>
      </trkpt>
      <trkpt lat="44.33997" lon="5.63364">
        <ele>1161.41</ele>
        <time>2016-09-22T11:31:24Z</time>
      </trkpt>
      <trkpt lat="44.34003" lon="5.63356">
        <ele>1159.97</ele>
        <time>2016-09-22T11:31:41Z</time>
      </trkpt>
      <trkpt lat="44.34012" lon="5.63349">
        <ele>1158.53</ele>
        <time>2016-09-22T11:31:57Z</time>
      </trkpt>
      <trkpt lat="44.34022" lon="5.63341">
        <ele>1156.6</ele>
        <time>2016-09-22T11:32:14Z</time>
      </trkpt>
      <trkpt lat="44.34031" lon="5.63336">
        <ele>1155.16</ele>
        <time>2016-09-22T11:32:29Z</time>
      </trkpt>
      <trkpt lat="44.34036" lon="5.63331">
        <ele>1154.68</ele>
        <time>2016-09-22T11:32:43Z</time>
      </trkpt>
      <trkpt lat="44.34038" lon="5.6333">
        <ele>1153.72</ele>
        <time>2016-09-22T11:32:46Z</time>
      </trkpt>
      <trkpt lat="44.34047" lon="5.63326">
        <ele>1151.8</ele>
        <time>2016-09-22T11:32:59Z</time>
      </trkpt>
      <trkpt lat="44.34057" lon="5.63321">
        <ele>1148.91</ele>
        <time>2016-09-22T11:33:16Z</time>
      </trkpt>
      <trkpt lat="44.34072" lon="5.63326">
        <ele>1146.51</ele>
        <time>2016-09-22T11:33:34Z</time>
      </trkpt>
      <trkpt lat="44.3408" lon="5.63316">
        <ele>1144.11</ele>
        <time>2016-09-22T11:33:50Z</time>
      </trkpt>
      <trkpt lat="44.34088" lon="5.63304">
        <ele>1141.7</ele>
        <time>2016-09-22T11:34:05Z</time>
      </trkpt>
      <trkpt lat="44.34093" lon="5.63292">
        <ele>1139.78</ele>
        <time>2016-09-22T11:34:18Z</time>
      </trkpt>
      <trkpt lat="44.341" lon="5.63283">
        <ele>1136.9</ele>
        <time>2016-09-22T11:34:32Z</time>
      </trkpt>
      <trkpt lat="44.34111" lon="5.63274">
        <ele>1134.97</ele>
        <time>2016-09-22T11:34:49Z</time>
      </trkpt>
      <trkpt lat="44.34119" lon="5.63265">
        <ele>1132.57</ele>
        <time>2016-09-22T11:35:04Z</time>
      </trkpt>
      <trkpt lat="44.3413" lon="5.63256">
        <ele>1130.65</ele>
        <time>2016-09-22T11:35:21Z</time>
      </trkpt>
      <trkpt lat="44.3414" lon="5.63243">
        <ele>1127.28</ele>
        <time>2016-09-22T11:35:39Z</time>
      </trkpt>
      <trkpt lat="44.34147" lon="5.63229">
        <ele>1125.36</ele>
        <time>2016-09-22T11:35:56Z</time>
      </trkpt>
      <trkpt lat="44.34157" lon="5.63213">
        <ele>1122.48</ele>
        <time>2016-09-22T11:36:13Z</time>
      </trkpt>
      <trkpt lat="44.34164" lon="5.632">
        <ele>1120.07</ele>
        <time>2016-09-22T11:36:27Z</time>
      </trkpt>
      <trkpt lat="44.34166" lon="5.63193">
        <ele>1118.63</ele>
        <time>2016-09-22T11:36:34Z</time>
      </trkpt>
      <trkpt lat="44.3417" lon="5.6318">
        <ele>1116.23</ele>
        <time>2016-09-22T11:36:48Z</time>
      </trkpt>
      <trkpt lat="44.34176" lon="5.63169">
        <ele>1113.82</ele>
        <time>2016-09-22T11:37:01Z</time>
      </trkpt>
      <trkpt lat="44.34186" lon="5.6316">
        <ele>1112.38</ele>
        <time>2016-09-22T11:37:14Z</time>
      </trkpt>
      <trkpt lat="44.34195" lon="5.63147">
        <ele>1109.5</ele>
        <time>2016-09-22T11:37:30Z</time>
      </trkpt>
      <trkpt lat="44.34209" lon="5.63136">
        <ele>1107.1</ele>
        <time>2016-09-22T11:37:48Z</time>
      </trkpt>
      <trkpt lat="44.34216" lon="5.63125">
        <ele>1104.69</ele>
        <time>2016-09-22T11:38:01Z</time>
      </trkpt>
      <trkpt lat="44.34226" lon="5.6311">
        <ele>1102.29</ele>
        <time>2016-09-22T11:38:17Z</time>
      </trkpt>
      <trkpt lat="44.34237" lon="5.63094">
        <ele>1099.4</ele>
        <time>2016-09-22T11:38:35Z</time>
      </trkpt>
      <trkpt lat="44.34248" lon="5.63087">
        <ele>1098.44</ele>
        <time>2016-09-22T11:38:47Z</time>
      </trkpt>
      <trkpt lat="44.34263" lon="5.63083">
        <ele>1096.04</ele>
        <time>2016-09-22T11:39:03Z</time>
      </trkpt>
      <trkpt lat="44.34273" lon="5.63077">
        <ele>1094.12</ele>
        <time>2016-09-22T11:39:17Z</time>
      </trkpt>
      <trkpt lat="44.34284" lon="5.63067">
        <ele>1092.2</ele>
        <time>2016-09-22T11:39:32Z</time>
      </trkpt>
      <trkpt lat="44.34298" lon="5.63061">
        <ele>1090.27</ele>
        <time>2016-09-22T11:39:47Z</time>
      </trkpt>
      <trkpt lat="44.34306" lon="5.63048">
        <ele>1088.83</ele>
        <time>2016-09-22T11:40:02Z</time>
      </trkpt>
      <trkpt lat="44.34313" lon="5.6303">
        <ele>1086.43</ele>
        <time>2016-09-22T11:40:18Z</time>
      </trkpt>
      <trkpt lat="44.3432" lon="5.63013">
        <ele>1084.5</ele>
        <time>2016-09-22T11:40:34Z</time>
      </trkpt>
      <trkpt lat="44.34324" lon="5.62999">
        <ele>1084.5</ele>
        <time>2016-09-22T11:40:47Z</time>
      </trkpt>
      <trkpt lat="44.34328" lon="5.62987">
        <ele>1081.14</ele>
        <time>2016-09-22T11:41:03Z</time>
      </trkpt>
      <trkpt lat="44.3433" lon="5.62979">
        <ele>1080.66</ele>
        <time>2016-09-22T11:41:09Z</time>
      </trkpt>
      <trkpt lat="44.34338" lon="5.62962">
        <ele>1078.74</ele>
        <time>2016-09-22T11:41:24Z</time>
      </trkpt>
      <trkpt lat="44.34352" lon="5.62949">
        <ele>1076.33</ele>
        <time>2016-09-22T11:41:41Z</time>
      </trkpt>
      <trkpt lat="44.3436" lon="5.62938">
        <ele>1074.89</ele>
        <time>2016-09-22T11:41:54Z</time>
      </trkpt>
      <trkpt lat="44.34367" lon="5.62929">
        <ele>1073.93</ele>
        <time>2016-09-22T11:42:04Z</time>
      </trkpt>
      <trkpt lat="44.34368" lon="5.62926">
        <ele>1073.45</ele>
        <time>2016-09-22T11:42:06Z</time>
      </trkpt>
      <trkpt lat="44.34378" lon="5.62911">
        <ele>1071.53</ele>
        <time>2016-09-22T11:42:21Z</time>
      </trkpt>
      <trkpt lat="44.34389" lon="5.62897">
        <ele>1070.08</ele>
        <time>2016-09-22T11:42:37Z</time>
      </trkpt>
      <trkpt lat="44.34398" lon="5.62882">
        <ele>1069.12</ele>
        <time>2016-09-22T11:42:51Z</time>
      </trkpt>
      <trkpt lat="44.3441" lon="5.62872">
        <ele>1067.68</ele>
        <time>2016-09-22T11:43:04Z</time>
      </trkpt>
      <trkpt lat="44.3442" lon="5.62861">
        <ele>1067.2</ele>
        <time>2016-09-22T11:43:17Z</time>
      </trkpt>
      <trkpt lat="44.3443" lon="5.62845">
        <ele>1066.72</ele>
        <time>2016-09-22T11:43:32Z</time>
      </trkpt>
      <trkpt lat="44.34442" lon="5.62828">
        <ele>1066.72</ele>
        <time>2016-09-22T11:43:48Z</time>
      </trkpt>
      <trkpt lat="44.34443" lon="5.62826">
        <ele>1066.72</ele>
        <time>2016-09-22T11:43:50Z</time>
      </trkpt>
      <trkpt lat="44.34449" lon="5.62814">
        <ele>1066.24</ele>
        <time>2016-09-22T11:44:01Z</time>
      </trkpt>
      <trkpt lat="44.34463" lon="5.62804">
        <ele>1064.8</ele>
        <time>2016-09-22T11:44:17Z</time>
      </trkpt>
      <trkpt lat="44.34471" lon="5.62796">
        <ele>1062.87</ele>
        <time>2016-09-22T11:44:28Z</time>
      </trkpt>
      <trkpt lat="44.34481" lon="5.6278">
        <ele>1061.43</ele>
        <time>2016-09-22T11:44:43Z</time>
      </trkpt>
      <trkpt lat="44.34486" lon="5.62775">
        <ele>1060.95</ele>
        <time>2016-09-22T11:44:49Z</time>
      </trkpt>
      <trkpt lat="44.34495" lon="5.62766">
        <ele>1060.95</ele>
        <time>2016-09-22T11:45:01Z</time>
      </trkpt>
      <trkpt lat="44.34506" lon="5.62752">
        <ele>1059.51</ele>
        <time>2016-09-22T11:45:17Z</time>
      </trkpt>
      <trkpt lat="44.34515" lon="5.62739">
        <ele>1058.55</ele>
        <time>2016-09-22T11:45:31Z</time>
      </trkpt>
      <trkpt lat="44.34526" lon="5.62721">
        <ele>1057.59</ele>
        <time>2016-09-22T11:45:49Z</time>
      </trkpt>
      <trkpt lat="44.34535" lon="5.62706">
        <ele>1055.67</ele>
        <time>2016-09-22T11:46:05Z</time>
      </trkpt>
      <trkpt lat="44.34544" lon="5.62695">
        <ele>1054.7</ele>
        <time>2016-09-22T11:46:19Z</time>
      </trkpt>
      <trkpt lat="44.34554" lon="5.62681">
        <ele>1051.34</ele>
        <time>2016-09-22T11:46:35Z</time>
      </trkpt>
      <trkpt lat="44.34561" lon="5.6267">
        <ele>1048.94</ele>
        <time>2016-09-22T11:46:49Z</time>
      </trkpt>
      <trkpt lat="44.34569" lon="5.62654">
        <ele>1046.53</ele>
        <time>2016-09-22T11:47:05Z</time>
      </trkpt>
      <trkpt lat="44.34578" lon="5.62641">
        <ele>1043.17</ele>
        <time>2016-09-22T11:47:21Z</time>
      </trkpt>
      <trkpt lat="44.34589" lon="5.62627">
        <ele>1040.28</ele>
        <time>2016-09-22T11:47:39Z</time>
      </trkpt>
      <trkpt lat="44.34597" lon="5.62619">
        <ele>1037.88</ele>
        <time>2016-09-22T11:47:53Z</time>
      </trkpt>
      <trkpt lat="44.34604" lon="5.62607">
        <ele>1035</ele>
        <time>2016-09-22T11:48:07Z</time>
      </trkpt>
      <trkpt lat="44.34609" lon="5.62595">
        <ele>1032.59</ele>
        <time>2016-09-22T11:48:19Z</time>
      </trkpt>
      <trkpt lat="44.34615" lon="5.62587">
        <ele>1030.19</ele>
        <time>2016-09-22T11:48:31Z</time>
      </trkpt>
      <trkpt lat="44.34619" lon="5.62582">
        <ele>1028.75</ele>
        <time>2016-09-22T11:48:37Z</time>
      </trkpt>
      <trkpt lat="44.34627" lon="5.62569">
        <ele>1026.34</ele>
        <time>2016-09-22T11:48:53Z</time>
      </trkpt>
      <trkpt lat="44.34628" lon="5.62567">
        <ele>1025.86</ele>
        <time>2016-09-22T11:48:55Z</time>
      </trkpt>
      <trkpt lat="44.34637" lon="5.62555">
        <ele>1022.98</ele>
        <time>2016-09-22T11:49:10Z</time>
      </trkpt>
      <trkpt lat="44.34646" lon="5.62546">
        <ele>1020.58</ele>
        <time>2016-09-22T11:49:23Z</time>
      </trkpt>
      <trkpt lat="44.34653" lon="5.62535">
        <ele>1018.17</ele>
        <time>2016-09-22T11:49:36Z</time>
      </trkpt>
      <trkpt lat="44.34663" lon="5.62527">
        <ele>1016.25</ele>
        <time>2016-09-22T11:49:50Z</time>
      </trkpt>
      <trkpt lat="44.34671" lon="5.62521">
        <ele>1014.33</ele>
        <time>2016-09-22T11:50:04Z</time>
      </trkpt>
      <trkpt lat="44.34672" lon="5.6252">
        <ele>1014.33</ele>
        <time>2016-09-22T11:50:26Z</time>
      </trkpt>
      <trkpt lat="44.34674" lon="5.62521">
        <ele>1014.81</ele>
        <time>2016-09-22T11:50:43Z</time>
      </trkpt>
      <trkpt lat="44.34674" lon="5.6252">
        <ele>1014.33</ele>
        <time>2016-09-22T11:51:00Z</time>
      </trkpt>
      <trkpt lat="44.34672" lon="5.62521">
        <ele>1014.81</ele>
        <time>2016-09-22T11:51:24Z</time>
      </trkpt>
      <trkpt lat="44.34671" lon="5.62519">
        <ele>1014.81</ele>
        <time>2016-09-22T11:51:42Z</time>
      </trkpt>
      <trkpt lat="44.34668" lon="5.62524">
        <ele>1015.29</ele>
        <time>2016-09-22T11:52:00Z</time>
      </trkpt>
      <trkpt lat="44.3466" lon="5.62532">
        <ele>1016.73</ele>
        <time>2016-09-22T11:52:15Z</time>
      </trkpt>
      <trkpt lat="44.34654" lon="5.62539">
        <ele>1018.65</ele>
        <time>2016-09-22T11:52:30Z</time>
      </trkpt>
      <trkpt lat="44.34648" lon="5.6255">
        <ele>1020.1</ele>
        <time>2016-09-22T11:52:43Z</time>
      </trkpt>
      <trkpt lat="44.34644" lon="5.62555">
        <ele>1022.5</ele>
        <time>2016-09-22T11:52:54Z</time>
      </trkpt>
      <trkpt lat="44.34639" lon="5.62561">
        <ele>1022.98</ele>
        <time>2016-09-22T11:53:07Z</time>
      </trkpt>
      <trkpt lat="44.34633" lon="5.62568">
        <ele>1024.9</ele>
        <time>2016-09-22T11:53:21Z</time>
      </trkpt>
      <trkpt lat="44.34627" lon="5.62578">
        <ele>1027.31</ele>
        <time>2016-09-22T11:53:37Z</time>
      </trkpt>
      <trkpt lat="44.34621" lon="5.62587">
        <ele>1029.23</ele>
        <time>2016-09-22T11:53:54Z</time>
      </trkpt>
      <trkpt lat="44.34616" lon="5.62594">
        <ele>1030.67</ele>
        <time>2016-09-22T11:54:07Z</time>
      </trkpt>
      <trkpt lat="44.34611" lon="5.62599">
        <ele>1032.11</ele>
        <time>2016-09-22T11:54:18Z</time>
      </trkpt>
      <trkpt lat="44.34607" lon="5.62608">
        <ele>1033.55</ele>
        <time>2016-09-22T11:54:31Z</time>
      </trkpt>
      <trkpt lat="44.34601" lon="5.62616">
        <ele>1035.96</ele>
        <time>2016-09-22T11:54:47Z</time>
      </trkpt>
      <trkpt lat="44.34598" lon="5.62621">
        <ele>1037.4</ele>
        <time>2016-09-22T11:54:58Z</time>
      </trkpt>
      <trkpt lat="44.34593" lon="5.62627">
        <ele>1039.32</ele>
        <time>2016-09-22T11:55:10Z</time>
      </trkpt>
      <trkpt lat="44.34589" lon="5.62635">
        <ele>1040.76</ele>
        <time>2016-09-22T11:55:24Z</time>
      </trkpt>
      <trkpt lat="44.34581" lon="5.62643">
        <ele>1042.21</ele>
        <time>2016-09-22T11:55:37Z</time>
      </trkpt>
      <trkpt lat="44.34575" lon="5.62651">
        <ele>1044.13</ele>
        <time>2016-09-22T11:55:52Z</time>
      </trkpt>
      <trkpt lat="44.34569" lon="5.62662">
        <ele>1046.53</ele>
        <time>2016-09-22T11:56:07Z</time>
      </trkpt>
      <trkpt lat="44.34562" lon="5.62673">
        <ele>1048.45</ele>
        <time>2016-09-22T11:56:24Z</time>
      </trkpt>
      <trkpt lat="44.34556" lon="5.62682">
        <ele>1050.86</ele>
        <time>2016-09-22T11:56:40Z</time>
      </trkpt>
      <trkpt lat="44.34549" lon="5.6269">
        <ele>1052.78</ele>
        <time>2016-09-22T11:56:54Z</time>
      </trkpt>
      <trkpt lat="44.3454" lon="5.62701">
        <ele>1054.22</ele>
        <time>2016-09-22T11:57:08Z</time>
      </trkpt>
      <trkpt lat="44.34534" lon="5.62711">
        <ele>1055.67</ele>
        <time>2016-09-22T11:57:20Z</time>
      </trkpt>
      <trkpt lat="44.34528" lon="5.62721">
        <ele>1056.63</ele>
        <time>2016-09-22T11:57:32Z</time>
      </trkpt>
      <trkpt lat="44.34525" lon="5.62726">
        <ele>1056.63</ele>
        <time>2016-09-22T11:57:37Z</time>
      </trkpt>
      <trkpt lat="44.34518" lon="5.62736">
        <ele>1058.07</ele>
        <time>2016-09-22T11:57:48Z</time>
      </trkpt>
      <trkpt lat="44.34511" lon="5.62747">
        <ele>1058.55</ele>
        <time>2016-09-22T11:58:00Z</time>
      </trkpt>
      <trkpt lat="44.34504" lon="5.62755">
        <ele>1059.51</ele>
        <time>2016-09-22T11:58:11Z</time>
      </trkpt>
      <trkpt lat="44.34493" lon="5.62768">
        <ele>1060.47</ele>
        <time>2016-09-22T11:58:26Z</time>
      </trkpt>
      <trkpt lat="44.34486" lon="5.62775">
        <ele>1060.47</ele>
        <time>2016-09-22T11:58:35Z</time>
      </trkpt>
      <trkpt lat="44.34475" lon="5.6279">
        <ele>1060.95</ele>
        <time>2016-09-22T11:58:51Z</time>
      </trkpt>
      <trkpt lat="44.34467" lon="5.628">
        <ele>1062.87</ele>
        <time>2016-09-22T11:59:04Z</time>
      </trkpt>
      <trkpt lat="44.34459" lon="5.62809">
        <ele>1064.32</ele>
        <time>2016-09-22T11:59:18Z</time>
      </trkpt>
      <trkpt lat="44.34454" lon="5.62815">
        <ele>1065.28</ele>
        <time>2016-09-22T11:59:26Z</time>
      </trkpt>
      <trkpt lat="44.34445" lon="5.62821">
        <ele>1065.28</ele>
        <time>2016-09-22T11:59:36Z</time>
      </trkpt>
      <trkpt lat="44.3444" lon="5.62833">
        <ele>1065.76</ele>
        <time>2016-09-22T11:59:50Z</time>
      </trkpt>
      <trkpt lat="44.34431" lon="5.62845">
        <ele>1065.76</ele>
        <time>2016-09-22T12:00:03Z</time>
      </trkpt>
      <trkpt lat="44.34423" lon="5.62857">
        <ele>1066.24</ele>
        <time>2016-09-22T12:00:17Z</time>
      </trkpt>
      <trkpt lat="44.34414" lon="5.6287">
        <ele>1066.72</ele>
        <time>2016-09-22T12:00:31Z</time>
      </trkpt>
      <trkpt lat="44.34405" lon="5.62878">
        <ele>1067.2</ele>
        <time>2016-09-22T12:00:42Z</time>
      </trkpt>
      <trkpt lat="44.34396" lon="5.62892">
        <ele>1068.64</ele>
        <time>2016-09-22T12:00:56Z</time>
      </trkpt>
      <trkpt lat="44.34388" lon="5.62903">
        <ele>1069.12</ele>
        <time>2016-09-22T12:01:08Z</time>
      </trkpt>
      <trkpt lat="44.3438" lon="5.62915">
        <ele>1070.57</ele>
        <time>2016-09-22T12:01:21Z</time>
      </trkpt>
      <trkpt lat="44.34372" lon="5.62928">
        <ele>1071.53</ele>
        <time>2016-09-22T12:01:34Z</time>
      </trkpt>
      <trkpt lat="44.34367" lon="5.62939">
        <ele>1072.97</ele>
        <time>2016-09-22T12:01:46Z</time>
      </trkpt>
      <trkpt lat="44.34364" lon="5.62942">
        <ele>1073.45</ele>
        <time>2016-09-22T12:01:50Z</time>
      </trkpt>
      <trkpt lat="44.34354" lon="5.62952">
        <ele>1074.41</ele>
        <time>2016-09-22T12:02:05Z</time>
      </trkpt>
      <trkpt lat="44.34345" lon="5.62961">
        <ele>1075.85</ele>
        <time>2016-09-22T12:02:18Z</time>
      </trkpt>
      <trkpt lat="44.34336" lon="5.62972">
        <ele>1077.78</ele>
        <time>2016-09-22T12:02:30Z</time>
      </trkpt>
      <trkpt lat="44.34332" lon="5.62979">
        <ele>1078.74</ele>
        <time>2016-09-22T12:02:38Z</time>
      </trkpt>
      <trkpt lat="44.34328" lon="5.62993">
        <ele>1080.18</ele>
        <time>2016-09-22T12:02:52Z</time>
      </trkpt>
      <trkpt lat="44.34323" lon="5.63005">
        <ele>1082.1</ele>
        <time>2016-09-22T12:03:05Z</time>
      </trkpt>
      <trkpt lat="44.34319" lon="5.63021">
        <ele>1083.54</ele>
        <time>2016-09-22T12:03:20Z</time>
      </trkpt>
      <trkpt lat="44.34316" lon="5.63032">
        <ele>1084.5</ele>
        <time>2016-09-22T12:03:31Z</time>
      </trkpt>
      <trkpt lat="44.34315" lon="5.63042">
        <ele>1085.95</ele>
        <time>2016-09-22T12:03:40Z</time>
      </trkpt>
      <trkpt lat="44.34308" lon="5.63055">
        <ele>1087.87</ele>
        <time>2016-09-22T12:03:54Z</time>
      </trkpt>
      <trkpt lat="44.343" lon="5.63068">
        <ele>1088.35</ele>
        <time>2016-09-22T12:04:11Z</time>
      </trkpt>
      <trkpt lat="44.34299" lon="5.63068">
        <ele>1091.71</ele>
        <time>2016-09-22T12:04:12Z</time>
      </trkpt>
      <trkpt lat="44.34302" lon="5.6307">
        <ele>1089.79</ele>
        <time>2016-09-22T12:04:32Z</time>
      </trkpt>
      <trkpt lat="44.34301" lon="5.63067">
        <ele>1088.83</ele>
        <time>2016-09-22T12:04:42Z</time>
      </trkpt>
      <trkpt lat="44.34301" lon="5.63068">
        <ele>1090.27</ele>
        <time>2016-09-22T12:05:02Z</time>
      </trkpt>
      <trkpt lat="44.34298" lon="5.63072">
        <ele>1090.27</ele>
        <time>2016-09-22T12:05:22Z</time>
      </trkpt>
      <trkpt lat="44.34301" lon="5.6307">
        <ele>1090.27</ele>
        <time>2016-09-22T12:05:44Z</time>
      </trkpt>
      <trkpt lat="44.34301" lon="5.63075">
        <ele>1089.79</ele>
        <time>2016-09-22T12:06:09Z</time>
      </trkpt>
      <trkpt lat="44.343" lon="5.63075">
        <ele>1090.27</ele>
        <time>2016-09-22T12:06:34Z</time>
      </trkpt>
      <trkpt lat="44.34299" lon="5.63085">
        <ele>1091.23</ele>
        <time>2016-09-22T12:06:53Z</time>
      </trkpt>
      <trkpt lat="44.34297" lon="5.63099">
        <ele>1092.68</ele>
        <time>2016-09-22T12:07:09Z</time>
      </trkpt>
      <trkpt lat="44.34293" lon="5.63115">
        <ele>1094.6</ele>
        <time>2016-09-22T12:07:26Z</time>
      </trkpt>
      <trkpt lat="44.34288" lon="5.63137">
        <ele>1096.04</ele>
        <time>2016-09-22T12:07:44Z</time>
      </trkpt>
      <trkpt lat="44.34281" lon="5.63153">
        <ele>1097.48</ele>
        <time>2016-09-22T12:07:59Z</time>
      </trkpt>
      <trkpt lat="44.34269" lon="5.63165">
        <ele>1098.44</ele>
        <time>2016-09-22T12:08:15Z</time>
      </trkpt>
      <trkpt lat="44.34258" lon="5.6318">
        <ele>1099.4</ele>
        <time>2016-09-22T12:08:32Z</time>
      </trkpt>
      <trkpt lat="44.34247" lon="5.63194">
        <ele>1100.85</ele>
        <time>2016-09-22T12:08:47Z</time>
      </trkpt>
      <trkpt lat="44.34244" lon="5.63212">
        <ele>1101.33</ele>
        <time>2016-09-22T12:09:02Z</time>
      </trkpt>
      <trkpt lat="44.3425" lon="5.63225">
        <ele>1101.81</ele>
        <time>2016-09-22T12:09:17Z</time>
      </trkpt>
      <trkpt lat="44.34268" lon="5.63246">
        <ele>1101.81</ele>
        <time>2016-09-22T12:09:38Z</time>
      </trkpt>
      <trkpt lat="44.34269" lon="5.63249">
        <ele>1101.81</ele>
        <time>2016-09-22T12:09:41Z</time>
      </trkpt>
      <trkpt lat="44.34276" lon="5.63273">
        <ele>1103.25</ele>
        <time>2016-09-22T12:10:00Z</time>
      </trkpt>
      <trkpt lat="44.34276" lon="5.63279">
        <ele>1102.77</ele>
        <time>2016-09-22T12:10:04Z</time>
      </trkpt>
      <trkpt lat="44.34277" lon="5.633">
        <ele>1102.77</ele>
        <time>2016-09-22T12:10:19Z</time>
      </trkpt>
      <trkpt lat="44.34281" lon="5.63317">
        <ele>1103.73</ele>
        <time>2016-09-22T12:10:32Z</time>
      </trkpt>
      <trkpt lat="44.34287" lon="5.63331">
        <ele>1105.17</ele>
        <time>2016-09-22T12:10:49Z</time>
      </trkpt>
      <trkpt lat="44.3429" lon="5.63341">
        <ele>1106.13</ele>
        <time>2016-09-22T12:10:59Z</time>
      </trkpt>
      <trkpt lat="44.34295" lon="5.6336">
        <ele>1106.61</ele>
        <time>2016-09-22T12:11:16Z</time>
      </trkpt>
      <trkpt lat="44.343" lon="5.63375">
        <ele>1107.1</ele>
        <time>2016-09-22T12:11:31Z</time>
      </trkpt>
      <trkpt lat="44.34311" lon="5.63398">
        <ele>1108.54</ele>
        <time>2016-09-22T12:11:52Z</time>
      </trkpt>
      <trkpt lat="44.3432" lon="5.63416">
        <ele>1109.02</ele>
        <time>2016-09-22T12:12:10Z</time>
      </trkpt>
      <trkpt lat="44.34325" lon="5.63434">
        <ele>1109.02</ele>
        <time>2016-09-22T12:12:25Z</time>
      </trkpt>
      <trkpt lat="44.34326" lon="5.63451">
        <ele>1109.5</ele>
        <time>2016-09-22T12:12:37Z</time>
      </trkpt>
      <trkpt lat="44.34333" lon="5.63469">
        <ele>1110.94</ele>
        <time>2016-09-22T12:12:54Z</time>
      </trkpt>
      <trkpt lat="44.34335" lon="5.63476">
        <ele>1110.94</ele>
        <time>2016-09-22T12:13:09Z</time>
      </trkpt>
      <trkpt lat="44.34335" lon="5.63488">
        <ele>1111.42</ele>
        <time>2016-09-22T12:13:25Z</time>
      </trkpt>
      <trkpt lat="44.34333" lon="5.63494">
        <ele>1111.42</ele>
        <time>2016-09-22T12:13:43Z</time>
      </trkpt>
      <trkpt lat="44.34334" lon="5.63493">
        <ele>1111.42</ele>
        <time>2016-09-22T12:14:05Z</time>
      </trkpt>
      <trkpt lat="44.34339" lon="5.63494">
        <ele>1112.86</ele>
        <time>2016-09-22T12:14:32Z</time>
      </trkpt>
      <trkpt lat="44.3434" lon="5.63503">
        <ele>1113.34</ele>
        <time>2016-09-22T12:14:48Z</time>
      </trkpt>
      <trkpt lat="44.34347" lon="5.63518">
        <ele>1113.82</ele>
        <time>2016-09-22T12:15:05Z</time>
      </trkpt>
      <trkpt lat="44.34353" lon="5.63533">
        <ele>1114.79</ele>
        <time>2016-09-22T12:15:20Z</time>
      </trkpt>
      <trkpt lat="44.34358" lon="5.63543">
        <ele>1116.23</ele>
        <time>2016-09-22T12:15:35Z</time>
      </trkpt>
      <trkpt lat="44.34359" lon="5.63556">
        <ele>1117.67</ele>
        <time>2016-09-22T12:15:48Z</time>
      </trkpt>
      <trkpt lat="44.3436" lon="5.63572">
        <ele>1117.67</ele>
        <time>2016-09-22T12:16:01Z</time>
      </trkpt>
      <trkpt lat="44.34363" lon="5.63591">
        <ele>1117.19</ele>
        <time>2016-09-22T12:16:15Z</time>
      </trkpt>
      <trkpt lat="44.34365" lon="5.63609">
        <ele>1117.19</ele>
        <time>2016-09-22T12:16:29Z</time>
      </trkpt>
      <trkpt lat="44.34365" lon="5.63618">
        <ele>1117.19</ele>
        <time>2016-09-22T12:16:35Z</time>
      </trkpt>
      <trkpt lat="44.34362" lon="5.63633">
        <ele>1118.15</ele>
        <time>2016-09-22T12:16:48Z</time>
      </trkpt>
      <trkpt lat="44.3436" lon="5.63653">
        <ele>1118.63</ele>
        <time>2016-09-22T12:17:04Z</time>
      </trkpt>
      <trkpt lat="44.34359" lon="5.63663">
        <ele>1118.63</ele>
        <time>2016-09-22T12:17:21Z</time>
      </trkpt>
      <trkpt lat="44.34359" lon="5.63675">
        <ele>1118.15</ele>
        <time>2016-09-22T12:17:37Z</time>
      </trkpt>
      <trkpt lat="44.34358" lon="5.63691">
        <ele>1117.67</ele>
        <time>2016-09-22T12:17:51Z</time>
      </trkpt>
      <trkpt lat="44.34357" lon="5.63713">
        <ele>1117.19</ele>
        <time>2016-09-22T12:18:07Z</time>
      </trkpt>
      <trkpt lat="44.34354" lon="5.63735">
        <ele>1117.19</ele>
        <time>2016-09-22T12:18:22Z</time>
      </trkpt>
      <trkpt lat="44.34349" lon="5.63758">
        <ele>1117.19</ele>
        <time>2016-09-22T12:18:41Z</time>
      </trkpt>
      <trkpt lat="44.34344" lon="5.6378">
        <ele>1118.15</ele>
        <time>2016-09-22T12:18:57Z</time>
      </trkpt>
      <trkpt lat="44.3434" lon="5.638">
        <ele>1120.07</ele>
        <time>2016-09-22T12:19:15Z</time>
      </trkpt>
      <trkpt lat="44.34338" lon="5.63821">
        <ele>1121.52</ele>
        <time>2016-09-22T12:19:31Z</time>
      </trkpt>
      <trkpt lat="44.3434" lon="5.63847">
        <ele>1122.48</ele>
        <time>2016-09-22T12:19:51Z</time>
      </trkpt>
      <trkpt lat="44.34342" lon="5.63865">
        <ele>1121.52</ele>
        <time>2016-09-22T12:20:05Z</time>
      </trkpt>
      <trkpt lat="44.34344" lon="5.63888">
        <ele>1120.55</ele>
        <time>2016-09-22T12:20:23Z</time>
      </trkpt>
      <trkpt lat="44.34336" lon="5.63914">
        <ele>1120.07</ele>
        <time>2016-09-22T12:20:39Z</time>
      </trkpt>
      <trkpt lat="44.34331" lon="5.63926">
        <ele>1121.03</ele>
        <time>2016-09-22T12:20:56Z</time>
      </trkpt>
      <trkpt lat="44.34335" lon="5.63925">
        <ele>1121.03</ele>
        <time>2016-09-22T12:21:13Z</time>
      </trkpt>
      <trkpt lat="44.34342" lon="5.63926">
        <ele>1120.07</ele>
        <time>2016-09-22T12:21:28Z</time>
      </trkpt>
      <trkpt lat="44.34344" lon="5.63933">
        <ele>1120.07</ele>
        <time>2016-09-22T12:21:51Z</time>
      </trkpt>
      <trkpt lat="44.34351" lon="5.63926">
        <ele>1120.07</ele>
        <time>2016-09-22T12:22:08Z</time>
      </trkpt>
      <trkpt lat="44.34352" lon="5.63926">
        <ele>1120.07</ele>
        <time>2016-09-22T12:22:09Z</time>
      </trkpt>
      <trkpt lat="44.34365" lon="5.63928">
        <ele>1118.15</ele>
        <time>2016-09-22T12:22:24Z</time>
      </trkpt>
      <trkpt lat="44.34379" lon="5.63935">
        <ele>1117.67</ele>
        <time>2016-09-22T12:22:38Z</time>
      </trkpt>
      <trkpt lat="44.34394" lon="5.63946">
        <ele>1117.67</ele>
        <time>2016-09-22T12:22:56Z</time>
      </trkpt>
      <trkpt lat="44.34407" lon="5.63952">
        <ele>1117.67</ele>
        <time>2016-09-22T12:23:13Z</time>
      </trkpt>
      <trkpt lat="44.34414" lon="5.63957">
        <ele>1117.19</ele>
        <time>2016-09-22T12:23:32Z</time>
      </trkpt>
      <trkpt lat="44.34419" lon="5.63956">
        <ele>1117.67</ele>
        <time>2016-09-22T12:23:50Z</time>
      </trkpt>
      <trkpt lat="44.34423" lon="5.63963">
        <ele>1118.15</ele>
        <time>2016-09-22T12:24:12Z</time>
      </trkpt>
      <trkpt lat="44.34431" lon="5.63961">
        <ele>1118.15</ele>
        <time>2016-09-22T12:24:37Z</time>
      </trkpt>
      <trkpt lat="44.34436" lon="5.63962">
        <ele>1118.63</ele>
        <time>2016-09-22T12:24:57Z</time>
      </trkpt>
      <trkpt lat="44.34449" lon="5.6397">
        <ele>1118.15</ele>
        <time>2016-09-22T12:25:12Z</time>
      </trkpt>
      <trkpt lat="44.34467" lon="5.63981">
        <ele>1117.67</ele>
        <time>2016-09-22T12:25:30Z</time>
      </trkpt>
      <trkpt lat="44.34481" lon="5.63992">
        <ele>1118.63</ele>
        <time>2016-09-22T12:25:46Z</time>
      </trkpt>
      <trkpt lat="44.34493" lon="5.64001">
        <ele>1117.67</ele>
        <time>2016-09-22T12:26:00Z</time>
      </trkpt>
      <trkpt lat="44.34504" lon="5.64014">
        <ele>1117.19</ele>
        <time>2016-09-22T12:26:15Z</time>
      </trkpt>
      <trkpt lat="44.34513" lon="5.64021">
        <ele>1117.67</ele>
        <time>2016-09-22T12:26:30Z</time>
      </trkpt>
      <trkpt lat="44.34524" lon="5.6403">
        <ele>1119.11</ele>
        <time>2016-09-22T12:26:44Z</time>
      </trkpt>
      <trkpt lat="44.34536" lon="5.64034">
        <ele>1120.07</ele>
        <time>2016-09-22T12:26:58Z</time>
      </trkpt>
      <trkpt lat="44.34554" lon="5.64032">
        <ele>1121.52</ele>
        <time>2016-09-22T12:27:14Z</time>
      </trkpt>
      <trkpt lat="44.34566" lon="5.64035">
        <ele>1121.03</ele>
        <time>2016-09-22T12:27:27Z</time>
      </trkpt>
      <trkpt lat="44.3458" lon="5.64042">
        <ele>1122</ele>
        <time>2016-09-22T12:27:40Z</time>
      </trkpt>
      <trkpt lat="44.34591" lon="5.64042">
        <ele>1122.96</ele>
        <time>2016-09-22T12:27:53Z</time>
      </trkpt>
      <trkpt lat="44.34604" lon="5.64044">
        <ele>1123.92</ele>
        <time>2016-09-22T12:28:05Z</time>
      </trkpt>
      <trkpt lat="44.34616" lon="5.64051">
        <ele>1124.88</ele>
        <time>2016-09-22T12:28:18Z</time>
      </trkpt>
      <trkpt lat="44.34624" lon="5.6406">
        <ele>1125.84</ele>
        <time>2016-09-22T12:28:30Z</time>
      </trkpt>
      <trkpt lat="44.34632" lon="5.64067">
        <ele>1127.28</ele>
        <time>2016-09-22T12:28:44Z</time>
      </trkpt>
      <trkpt lat="44.34637" lon="5.64073">
        <ele>1127.28</ele>
        <time>2016-09-22T12:28:59Z</time>
      </trkpt>
      <trkpt lat="44.34647" lon="5.64077">
        <ele>1127.76</ele>
        <time>2016-09-22T12:29:12Z</time>
      </trkpt>
      <trkpt lat="44.34656" lon="5.64082">
        <ele>1128.24</ele>
        <time>2016-09-22T12:29:28Z</time>
      </trkpt>
      <trkpt lat="44.34667" lon="5.6409">
        <ele>1130.17</ele>
        <time>2016-09-22T12:29:43Z</time>
      </trkpt>
      <trkpt lat="44.34676" lon="5.64098">
        <ele>1130.65</ele>
        <time>2016-09-22T12:29:58Z</time>
      </trkpt>
      <trkpt lat="44.34686" lon="5.6411">
        <ele>1131.13</ele>
        <time>2016-09-22T12:30:13Z</time>
      </trkpt>
      <trkpt lat="44.34698" lon="5.64118">
        <ele>1132.09</ele>
        <time>2016-09-22T12:30:26Z</time>
      </trkpt>
      <trkpt lat="44.34706" lon="5.64115">
        <ele>1132.57</ele>
        <time>2016-09-22T12:30:40Z</time>
      </trkpt>
      <trkpt lat="44.34719" lon="5.64101">
        <ele>1134.49</ele>
        <time>2016-09-22T12:30:55Z</time>
      </trkpt>
      <trkpt lat="44.34723" lon="5.64089">
        <ele>1135.94</ele>
        <time>2016-09-22T12:31:07Z</time>
      </trkpt>
      <trkpt lat="44.34727" lon="5.64075">
        <ele>1137.38</ele>
        <time>2016-09-22T12:31:19Z</time>
      </trkpt>
      <trkpt lat="44.34735" lon="5.64061">
        <ele>1138.82</ele>
        <time>2016-09-22T12:31:33Z</time>
      </trkpt>
      <trkpt lat="44.3474" lon="5.64052">
        <ele>1140.74</ele>
        <time>2016-09-22T12:31:43Z</time>
      </trkpt>
      <trkpt lat="44.34749" lon="5.64038">
        <ele>1140.74</ele>
        <time>2016-09-22T12:31:58Z</time>
      </trkpt>
      <trkpt lat="44.34753" lon="5.64021">
        <ele>1139.3</ele>
        <time>2016-09-22T12:32:12Z</time>
      </trkpt>
      <trkpt lat="44.34759" lon="5.64002">
        <ele>1136.9</ele>
        <time>2016-09-22T12:32:27Z</time>
      </trkpt>
      <trkpt lat="44.34765" lon="5.63983">
        <ele>1134.01</ele>
        <time>2016-09-22T12:32:44Z</time>
      </trkpt>
      <trkpt lat="44.34771" lon="5.63968">
        <ele>1132.09</ele>
        <time>2016-09-22T12:32:57Z</time>
      </trkpt>
      <trkpt lat="44.34775" lon="5.63953">
        <ele>1131.13</ele>
        <time>2016-09-22T12:33:10Z</time>
      </trkpt>
      <trkpt lat="44.34783" lon="5.63937">
        <ele>1127.76</ele>
        <time>2016-09-22T12:33:26Z</time>
      </trkpt>
      <trkpt lat="44.3479" lon="5.63922">
        <ele>1126.32</ele>
        <time>2016-09-22T12:33:40Z</time>
      </trkpt>
      <trkpt lat="44.348" lon="5.63912">
        <ele>1125.36</ele>
        <time>2016-09-22T12:33:54Z</time>
      </trkpt>
      <trkpt lat="44.34811" lon="5.63897">
        <ele>1123.92</ele>
        <time>2016-09-22T12:34:11Z</time>
      </trkpt>
      <trkpt lat="44.34823" lon="5.63887">
        <ele>1122.48</ele>
        <time>2016-09-22T12:34:25Z</time>
      </trkpt>
      <trkpt lat="44.34835" lon="5.63876">
        <ele>1119.59</ele>
        <time>2016-09-22T12:34:42Z</time>
      </trkpt>
      <trkpt lat="44.34847" lon="5.6387">
        <ele>1117.67</ele>
        <time>2016-09-22T12:34:57Z</time>
      </trkpt>
      <trkpt lat="44.34861" lon="5.63863">
        <ele>1115.75</ele>
        <time>2016-09-22T12:35:12Z</time>
      </trkpt>
      <trkpt lat="44.34874" lon="5.63853">
        <ele>1113.82</ele>
        <time>2016-09-22T12:35:27Z</time>
      </trkpt>
      <trkpt lat="44.34885" lon="5.63846">
        <ele>1110.46</ele>
        <time>2016-09-22T12:35:42Z</time>
      </trkpt>
      <trkpt lat="44.34896" lon="5.63838">
        <ele>1108.54</ele>
        <time>2016-09-22T12:35:55Z</time>
      </trkpt>
      <trkpt lat="44.34904" lon="5.63821">
        <ele>1107.58</ele>
        <time>2016-09-22T12:36:10Z</time>
      </trkpt>
      <trkpt lat="44.34909" lon="5.63802">
        <ele>1105.65</ele>
        <time>2016-09-22T12:36:26Z</time>
      </trkpt>
      <trkpt lat="44.3491" lon="5.638">
        <ele>1105.17</ele>
        <time>2016-09-22T12:36:28Z</time>
      </trkpt>
      <trkpt lat="44.34914" lon="5.63785">
        <ele>1103.25</ele>
        <time>2016-09-22T12:36:41Z</time>
      </trkpt>
      <trkpt lat="44.3492" lon="5.6377">
        <ele>1101.33</ele>
        <time>2016-09-22T12:36:55Z</time>
      </trkpt>
      <trkpt lat="44.34927" lon="5.63757">
        <ele>1099.89</ele>
        <time>2016-09-22T12:37:08Z</time>
      </trkpt>
      <trkpt lat="44.34934" lon="5.63742">
        <ele>1098.44</ele>
        <time>2016-09-22T12:37:24Z</time>
      </trkpt>
      <trkpt lat="44.34938" lon="5.63723">
        <ele>1097</ele>
        <time>2016-09-22T12:37:41Z</time>
      </trkpt>
      <trkpt lat="44.34935" lon="5.63711">
        <ele>1095.08</ele>
        <time>2016-09-22T12:37:54Z</time>
      </trkpt>
      <trkpt lat="44.34946" lon="5.63703">
        <ele>1095.08</ele>
        <time>2016-09-22T12:38:07Z</time>
      </trkpt>
      <trkpt lat="44.34954" lon="5.6369">
        <ele>1093.64</ele>
        <time>2016-09-22T12:38:23Z</time>
      </trkpt>
      <trkpt lat="44.34964" lon="5.63673">
        <ele>1091.23</ele>
        <time>2016-09-22T12:38:39Z</time>
      </trkpt>
      <trkpt lat="44.34976" lon="5.63661">
        <ele>1089.79</ele>
        <time>2016-09-22T12:38:53Z</time>
      </trkpt>
      <trkpt lat="44.3499" lon="5.63651">
        <ele>1087.87</ele>
        <time>2016-09-22T12:39:09Z</time>
      </trkpt>
      <trkpt lat="44.35002" lon="5.6366">
        <ele>1088.35</ele>
        <time>2016-09-22T12:39:23Z</time>
      </trkpt>
      <trkpt lat="44.35013" lon="5.63673">
        <ele>1089.31</ele>
        <time>2016-09-22T12:39:38Z</time>
      </trkpt>
      <trkpt lat="44.35024" lon="5.63687">
        <ele>1090.75</ele>
        <time>2016-09-22T12:39:55Z</time>
      </trkpt>
      <trkpt lat="44.35027" lon="5.63691">
        <ele>1090.75</ele>
        <time>2016-09-22T12:40:00Z</time>
      </trkpt>
      <trkpt lat="44.35041" lon="5.63708">
        <ele>1091.71</ele>
        <time>2016-09-22T12:40:17Z</time>
      </trkpt>
      <trkpt lat="44.35051" lon="5.63721">
        <ele>1093.64</ele>
        <time>2016-09-22T12:40:33Z</time>
      </trkpt>
      <trkpt lat="44.35058" lon="5.63729">
        <ele>1095.56</ele>
        <time>2016-09-22T12:40:50Z</time>
      </trkpt>
      <trkpt lat="44.35061" lon="5.63732">
        <ele>1096.04</ele>
        <time>2016-09-22T12:41:07Z</time>
      </trkpt>
      <trkpt lat="44.3507" lon="5.63741">
        <ele>1099.4</ele>
        <time>2016-09-22T12:41:21Z</time>
      </trkpt>
      <trkpt lat="44.35074" lon="5.63745">
        <ele>1099.4</ele>
        <time>2016-09-22T12:41:30Z</time>
      </trkpt>
      <trkpt lat="44.35081" lon="5.63754">
        <ele>1100.85</ele>
        <time>2016-09-22T12:41:47Z</time>
      </trkpt>
      <trkpt lat="44.35088" lon="5.63761">
        <ele>1103.25</ele>
        <time>2016-09-22T12:42:02Z</time>
      </trkpt>
      <trkpt lat="44.35098" lon="5.63769">
        <ele>1104.69</ele>
        <time>2016-09-22T12:42:21Z</time>
      </trkpt>
      <trkpt lat="44.35107" lon="5.63778">
        <ele>1107.1</ele>
        <time>2016-09-22T12:42:38Z</time>
      </trkpt>
      <trkpt lat="44.35114" lon="5.63787">
        <ele>1109.98</ele>
        <time>2016-09-22T12:42:56Z</time>
      </trkpt>
      <trkpt lat="44.35128" lon="5.63796">
        <ele>1111.42</ele>
        <time>2016-09-22T12:43:14Z</time>
      </trkpt>
      <trkpt lat="44.35136" lon="5.63804">
        <ele>1112.86</ele>
        <time>2016-09-22T12:43:30Z</time>
      </trkpt>
      <trkpt lat="44.35149" lon="5.63814">
        <ele>1114.79</ele>
        <time>2016-09-22T12:43:48Z</time>
      </trkpt>
      <trkpt lat="44.35155" lon="5.63822">
        <ele>1115.27</ele>
        <time>2016-09-22T12:44:02Z</time>
      </trkpt>
      <trkpt lat="44.35156" lon="5.6382">
        <ele>1115.27</ele>
        <time>2016-09-22T12:44:29Z</time>
      </trkpt>
      <trkpt lat="44.35156" lon="5.6382">
        <ele>1115.75</ele>
        <time>2016-09-22T12:45:01Z</time>
      </trkpt>
      <trkpt lat="44.35153" lon="5.63819">
        <ele>1116.23</ele>
        <time>2016-09-22T12:45:32Z</time>
      </trkpt>
      <trkpt lat="44.35154" lon="5.63818">
        <ele>1115.75</ele>
        <time>2016-09-22T12:46:06Z</time>
      </trkpt>
      <trkpt lat="44.35152" lon="5.63817">
        <ele>1116.23</ele>
        <time>2016-09-22T12:46:33Z</time>
      </trkpt>
      <trkpt lat="44.35151" lon="5.6381">
        <ele>1116.23</ele>
        <time>2016-09-22T12:46:52Z</time>
      </trkpt>
      <trkpt lat="44.35149" lon="5.63817">
        <ele>1116.23</ele>
        <time>2016-09-22T12:47:24Z</time>
      </trkpt>
      <trkpt lat="44.35159" lon="5.63829">
        <ele>1116.71</ele>
        <time>2016-09-22T12:47:45Z</time>
      </trkpt>
      <trkpt lat="44.35168" lon="5.63841">
        <ele>1118.15</ele>
        <time>2016-09-22T12:48:02Z</time>
      </trkpt>
      <trkpt lat="44.35175" lon="5.63856">
        <ele>1119.59</ele>
        <time>2016-09-22T12:48:20Z</time>
      </trkpt>
      <trkpt lat="44.35178" lon="5.63873">
        <ele>1121.03</ele>
        <time>2016-09-22T12:48:35Z</time>
      </trkpt>
      <trkpt lat="44.35182" lon="5.63877">
        <ele>1121.52</ele>
        <time>2016-09-22T12:48:48Z</time>
      </trkpt>
      <trkpt lat="44.35191" lon="5.63873">
        <ele>1121.03</ele>
        <time>2016-09-22T12:49:06Z</time>
      </trkpt>
      <trkpt lat="44.35201" lon="5.63866">
        <ele>1120.55</ele>
        <time>2016-09-22T12:49:22Z</time>
      </trkpt>
      <trkpt lat="44.35208" lon="5.63863">
        <ele>1120.55</ele>
        <time>2016-09-22T12:49:31Z</time>
      </trkpt>
      <trkpt lat="44.35221" lon="5.63856">
        <ele>1120.55</ele>
        <time>2016-09-22T12:49:46Z</time>
      </trkpt>
      <trkpt lat="44.35231" lon="5.63856">
        <ele>1121.03</ele>
        <time>2016-09-22T12:49:59Z</time>
      </trkpt>
      <trkpt lat="44.35242" lon="5.63855">
        <ele>1121.03</ele>
        <time>2016-09-22T12:50:14Z</time>
      </trkpt>
      <trkpt lat="44.35255" lon="5.63856">
        <ele>1121.52</ele>
        <time>2016-09-22T12:50:30Z</time>
      </trkpt>
      <trkpt lat="44.35267" lon="5.6386">
        <ele>1122</ele>
        <time>2016-09-22T12:50:47Z</time>
      </trkpt>
      <trkpt lat="44.35283" lon="5.63861">
        <ele>1122</ele>
        <time>2016-09-22T12:51:02Z</time>
      </trkpt>
      <trkpt lat="44.35292" lon="5.63862">
        <ele>1121.52</ele>
        <time>2016-09-22T12:51:20Z</time>
      </trkpt>
      <trkpt lat="44.35302" lon="5.63861">
        <ele>1121.52</ele>
        <time>2016-09-22T12:51:37Z</time>
      </trkpt>
      <trkpt lat="44.35319" lon="5.63869">
        <ele>1121.03</ele>
        <time>2016-09-22T12:51:53Z</time>
      </trkpt>
      <trkpt lat="44.35329" lon="5.63868">
        <ele>1120.55</ele>
        <time>2016-09-22T12:52:05Z</time>
      </trkpt>
      <trkpt lat="44.35343" lon="5.63876">
        <ele>1119.11</ele>
        <time>2016-09-22T12:52:20Z</time>
      </trkpt>
      <trkpt lat="44.35357" lon="5.63888">
        <ele>1118.15</ele>
        <time>2016-09-22T12:52:34Z</time>
      </trkpt>
      <trkpt lat="44.35373" lon="5.63903">
        <ele>1116.71</ele>
        <time>2016-09-22T12:52:52Z</time>
      </trkpt>
      <trkpt lat="44.35386" lon="5.63908">
        <ele>1115.27</ele>
        <time>2016-09-22T12:53:07Z</time>
      </trkpt>
      <trkpt lat="44.35393" lon="5.63925">
        <ele>1114.31</ele>
        <time>2016-09-22T12:53:22Z</time>
      </trkpt>
      <trkpt lat="44.35402" lon="5.63938">
        <ele>1112.38</ele>
        <time>2016-09-22T12:53:37Z</time>
      </trkpt>
      <trkpt lat="44.35416" lon="5.63936">
        <ele>1109.5</ele>
        <time>2016-09-22T12:53:57Z</time>
      </trkpt>
      <trkpt lat="44.3543" lon="5.63933">
        <ele>1107.1</ele>
        <time>2016-09-22T12:54:15Z</time>
      </trkpt>
      <trkpt lat="44.35436" lon="5.63934">
        <ele>1106.13</ele>
        <time>2016-09-22T12:54:35Z</time>
      </trkpt>
      <trkpt lat="44.35442" lon="5.63931">
        <ele>1105.65</ele>
        <time>2016-09-22T12:54:54Z</time>
      </trkpt>
      <trkpt lat="44.35449" lon="5.63929">
        <ele>1104.69</ele>
        <time>2016-09-22T12:55:09Z</time>
      </trkpt>
      <trkpt lat="44.35459" lon="5.63927">
        <ele>1103.73</ele>
        <time>2016-09-22T12:55:22Z</time>
      </trkpt>
      <trkpt lat="44.35465" lon="5.63927">
        <ele>1103.25</ele>
        <time>2016-09-22T12:55:36Z</time>
      </trkpt>
      <trkpt lat="44.35469" lon="5.63926">
        <ele>1102.77</ele>
        <time>2016-09-22T12:55:50Z</time>
      </trkpt>
      <trkpt lat="44.35476" lon="5.63925">
        <ele>1101.81</ele>
        <time>2016-09-22T12:55:58Z</time>
      </trkpt>
      <trkpt lat="44.35479" lon="5.63923">
        <ele>1101.81</ele>
        <time>2016-09-22T12:56:01Z</time>
      </trkpt>
      <trkpt lat="44.35492" lon="5.63918">
        <ele>1100.37</ele>
        <time>2016-09-22T12:56:17Z</time>
      </trkpt>
      <trkpt lat="44.35503" lon="5.63921">
        <ele>1099.4</ele>
        <time>2016-09-22T12:56:33Z</time>
      </trkpt>
      <trkpt lat="44.3552" lon="5.63915">
        <ele>1097.96</ele>
        <time>2016-09-22T12:56:50Z</time>
      </trkpt>
      <trkpt lat="44.35539" lon="5.63912">
        <ele>1096.52</ele>
        <time>2016-09-22T12:57:08Z</time>
      </trkpt>
      <trkpt lat="44.35546" lon="5.63917">
        <ele>1097</ele>
        <time>2016-09-22T12:57:16Z</time>
      </trkpt>
      <trkpt lat="44.35557" lon="5.63915">
        <ele>1096.52</ele>
        <time>2016-09-22T12:57:26Z</time>
      </trkpt>
      <trkpt lat="44.35573" lon="5.63921">
        <ele>1096.52</ele>
        <time>2016-09-22T12:57:42Z</time>
      </trkpt>
      <trkpt lat="44.35585" lon="5.63923">
        <ele>1096.52</ele>
        <time>2016-09-22T12:57:54Z</time>
      </trkpt>
      <trkpt lat="44.35601" lon="5.63924">
        <ele>1096.52</ele>
        <time>2016-09-22T12:58:10Z</time>
      </trkpt>
      <trkpt lat="44.35604" lon="5.63923">
        <ele>1096.52</ele>
        <time>2016-09-22T12:58:14Z</time>
      </trkpt>
      <trkpt lat="44.35617" lon="5.63924">
        <ele>1097</ele>
        <time>2016-09-22T12:58:29Z</time>
      </trkpt>
      <trkpt lat="44.35624" lon="5.63913">
        <ele>1095.56</ele>
        <time>2016-09-22T12:58:43Z</time>
      </trkpt>
      <trkpt lat="44.35622" lon="5.63906">
        <ele>1095.08</ele>
        <time>2016-09-22T12:59:00Z</time>
      </trkpt>
      <trkpt lat="44.3562" lon="5.63904">
        <ele>1095.08</ele>
        <time>2016-09-22T12:59:03Z</time>
      </trkpt>
      <trkpt lat="44.35613" lon="5.63899">
        <ele>1094.12</ele>
        <time>2016-09-22T12:59:15Z</time>
      </trkpt>
      <trkpt lat="44.35611" lon="5.63895">
        <ele>1094.12</ele>
        <time>2016-09-22T12:59:30Z</time>
      </trkpt>
      <trkpt lat="44.3561" lon="5.63889">
        <ele>1093.16</ele>
        <time>2016-09-22T12:59:46Z</time>
      </trkpt>
      <trkpt lat="44.35608" lon="5.63886">
        <ele>1092.68</ele>
        <time>2016-09-22T13:00:11Z</time>
      </trkpt>
      <trkpt lat="44.35605" lon="5.63881">
        <ele>1091.71</ele>
        <time>2016-09-22T13:00:24Z</time>
      </trkpt>
      <trkpt lat="44.35604" lon="5.63879">
        <ele>1092.2</ele>
        <time>2016-09-22T13:00:26Z</time>
      </trkpt>
      <trkpt lat="44.35594" lon="5.63866">
        <ele>1089.79</ele>
        <time>2016-09-22T13:00:42Z</time>
      </trkpt>
      <trkpt lat="44.35588" lon="5.63858">
        <ele>1088.83</ele>
        <time>2016-09-22T13:00:58Z</time>
      </trkpt>
      <trkpt lat="44.35583" lon="5.63852">
        <ele>1087.39</ele>
        <time>2016-09-22T13:01:12Z</time>
      </trkpt>
      <trkpt lat="44.3558" lon="5.63848">
        <ele>1086.91</ele>
        <time>2016-09-22T13:01:28Z</time>
      </trkpt>
      <trkpt lat="44.35579" lon="5.63849">
        <ele>1086.91</ele>
        <time>2016-09-22T13:01:53Z</time>
      </trkpt>
      <trkpt lat="44.35578" lon="5.63849">
        <ele>1086.91</ele>
        <time>2016-09-22T13:02:23Z</time>
      </trkpt>
      <trkpt lat="44.3558" lon="5.6385">
        <ele>1086.91</ele>
        <time>2016-09-22T13:02:46Z</time>
      </trkpt>
      <trkpt lat="44.35579" lon="5.63851">
        <ele>1086.91</ele>
        <time>2016-09-22T13:03:13Z</time>
      </trkpt>
      <trkpt lat="44.35577" lon="5.63847">
        <ele>1086.91</ele>
        <time>2016-09-22T13:03:34Z</time>
      </trkpt>
      <trkpt lat="44.35568" lon="5.63829">
        <ele>1083.54</ele>
        <time>2016-09-22T13:03:51Z</time>
      </trkpt>
      <trkpt lat="44.35566" lon="5.63827">
        <ele>1083.54</ele>
        <time>2016-09-22T13:03:54Z</time>
      </trkpt>
      <trkpt lat="44.35564" lon="5.63827">
        <ele>1083.06</ele>
        <time>2016-09-22T13:03:56Z</time>
      </trkpt>
      <trkpt lat="44.35555" lon="5.63817">
        <ele>1081.62</ele>
        <time>2016-09-22T13:04:13Z</time>
      </trkpt>
      <trkpt lat="44.35549" lon="5.63806">
        <ele>1079.22</ele>
        <time>2016-09-22T13:04:31Z</time>
      </trkpt>
      <trkpt lat="44.35543" lon="5.63803">
        <ele>1077.78</ele>
        <time>2016-09-22T13:04:48Z</time>
      </trkpt>
      <trkpt lat="44.3555" lon="5.63796">
        <ele>1076.81</ele>
        <time>2016-09-22T13:05:15Z</time>
      </trkpt>
      <trkpt lat="44.35558" lon="5.63786">
        <ele>1075.37</ele>
        <time>2016-09-22T13:05:31Z</time>
      </trkpt>
      <trkpt lat="44.35565" lon="5.63778">
        <ele>1073.93</ele>
        <time>2016-09-22T13:05:50Z</time>
      </trkpt>
      <trkpt lat="44.35569" lon="5.63773">
        <ele>1072.97</ele>
        <time>2016-09-22T13:06:08Z</time>
      </trkpt>
      <trkpt lat="44.35574" lon="5.63769">
        <ele>1072.01</ele>
        <time>2016-09-22T13:06:25Z</time>
      </trkpt>
      <trkpt lat="44.35586" lon="5.63765">
        <ele>1070.08</ele>
        <time>2016-09-22T13:06:40Z</time>
      </trkpt>
      <trkpt lat="44.35593" lon="5.63769">
        <ele>1069.12</ele>
        <time>2016-09-22T13:06:58Z</time>
      </trkpt>
      <trkpt lat="44.35606" lon="5.63773">
        <ele>1066.72</ele>
        <time>2016-09-22T13:07:12Z</time>
      </trkpt>
      <trkpt lat="44.35619" lon="5.63779">
        <ele>1063.84</ele>
        <time>2016-09-22T13:07:28Z</time>
      </trkpt>
      <trkpt lat="44.35634" lon="5.63789">
        <ele>1061.91</ele>
        <time>2016-09-22T13:07:45Z</time>
      </trkpt>
      <trkpt lat="44.35649" lon="5.63796">
        <ele>1059.03</ele>
        <time>2016-09-22T13:08:03Z</time>
      </trkpt>
      <trkpt lat="44.35664" lon="5.63805">
        <ele>1056.63</ele>
        <time>2016-09-22T13:08:20Z</time>
      </trkpt>
      <trkpt lat="44.35675" lon="5.63809">
        <ele>1054.7</ele>
        <time>2016-09-22T13:08:33Z</time>
      </trkpt>
      <trkpt lat="44.35684" lon="5.63811">
        <ele>1052.78</ele>
        <time>2016-09-22T13:08:50Z</time>
      </trkpt>
      <trkpt lat="44.35697" lon="5.63815">
        <ele>1050.86</ele>
        <time>2016-09-22T13:09:03Z</time>
      </trkpt>
      <trkpt lat="44.35714" lon="5.63828">
        <ele>1047.97</ele>
        <time>2016-09-22T13:09:21Z</time>
      </trkpt>
      <trkpt lat="44.35725" lon="5.63843">
        <ele>1045.57</ele>
        <time>2016-09-22T13:09:36Z</time>
      </trkpt>
      <trkpt lat="44.35735" lon="5.63854">
        <ele>1042.21</ele>
        <time>2016-09-22T13:09:51Z</time>
      </trkpt>
      <trkpt lat="44.35738" lon="5.63856">
        <ele>1042.21</ele>
        <time>2016-09-22T13:09:54Z</time>
      </trkpt>
      <trkpt lat="44.35754" lon="5.63873">
        <ele>1039.8</ele>
        <time>2016-09-22T13:10:13Z</time>
      </trkpt>
      <trkpt lat="44.35761" lon="5.63881">
        <ele>1038.84</ele>
        <time>2016-09-22T13:10:26Z</time>
      </trkpt>
      <trkpt lat="44.35773" lon="5.63893">
        <ele>1035.96</ele>
        <time>2016-09-22T13:10:43Z</time>
      </trkpt>
      <trkpt lat="44.35785" lon="5.63903">
        <ele>1034.52</ele>
        <time>2016-09-22T13:10:57Z</time>
      </trkpt>
      <trkpt lat="44.35794" lon="5.63918">
        <ele>1031.63</ele>
        <time>2016-09-22T13:11:12Z</time>
      </trkpt>
      <trkpt lat="44.35798" lon="5.63935">
        <ele>1030.19</ele>
        <time>2016-09-22T13:11:25Z</time>
      </trkpt>
      <trkpt lat="44.35798" lon="5.63956">
        <ele>1028.75</ele>
        <time>2016-09-22T13:11:41Z</time>
      </trkpt>
      <trkpt lat="44.35797" lon="5.63974">
        <ele>1025.86</ele>
        <time>2016-09-22T13:11:56Z</time>
      </trkpt>
      <trkpt lat="44.35797" lon="5.63993">
        <ele>1023.46</ele>
        <time>2016-09-22T13:12:12Z</time>
      </trkpt>
      <trkpt lat="44.35794" lon="5.64012">
        <ele>1021.54</ele>
        <time>2016-09-22T13:12:27Z</time>
      </trkpt>
      <trkpt lat="44.35786" lon="5.64031">
        <ele>1020.58</ele>
        <time>2016-09-22T13:12:44Z</time>
      </trkpt>
      <trkpt lat="44.35778" lon="5.64048">
        <ele>1020.58</ele>
        <time>2016-09-22T13:12:59Z</time>
      </trkpt>
      <trkpt lat="44.35768" lon="5.64065">
        <ele>1019.62</ele>
        <time>2016-09-22T13:13:15Z</time>
      </trkpt>
      <trkpt lat="44.35757" lon="5.64083">
        <ele>1018.17</ele>
        <time>2016-09-22T13:13:30Z</time>
      </trkpt>
      <trkpt lat="44.3575" lon="5.64102">
        <ele>1015.29</ele>
        <time>2016-09-22T13:13:46Z</time>
      </trkpt>
      <trkpt lat="44.35739" lon="5.64118">
        <ele>1013.85</ele>
        <time>2016-09-22T13:14:02Z</time>
      </trkpt>
      <trkpt lat="44.35727" lon="5.64133">
        <ele>1012.41</ele>
        <time>2016-09-22T13:14:19Z</time>
      </trkpt>
      <trkpt lat="44.3572" lon="5.64149">
        <ele>1009.04</ele>
        <time>2016-09-22T13:14:33Z</time>
      </trkpt>
      <trkpt lat="44.35713" lon="5.64164">
        <ele>1005.68</ele>
        <time>2016-09-22T13:14:49Z</time>
      </trkpt>
      <trkpt lat="44.35706" lon="5.64169">
        <ele>1004.23</ele>
        <time>2016-09-22T13:15:04Z</time>
      </trkpt>
      <trkpt lat="44.35694" lon="5.64169">
        <ele>1002.31</ele>
        <time>2016-09-22T13:15:21Z</time>
      </trkpt>
      <trkpt lat="44.35678" lon="5.64171">
        <ele>999.91</ele>
        <time>2016-09-22T13:15:39Z</time>
      </trkpt>
      <trkpt lat="44.35676" lon="5.64172">
        <ele>999.43</ele>
        <time>2016-09-22T13:15:42Z</time>
      </trkpt>
      <trkpt lat="44.35662" lon="5.64175">
        <ele>997.02</ele>
        <time>2016-09-22T13:15:57Z</time>
      </trkpt>
      <trkpt lat="44.35653" lon="5.64176">
        <ele>996.06</ele>
        <time>2016-09-22T13:16:05Z</time>
      </trkpt>
      <trkpt lat="44.35637" lon="5.64173">
        <ele>993.66</ele>
        <time>2016-09-22T13:16:23Z</time>
      </trkpt>
      <trkpt lat="44.35624" lon="5.64171">
        <ele>990.3</ele>
        <time>2016-09-22T13:16:37Z</time>
      </trkpt>
      <trkpt lat="44.35607" lon="5.64168">
        <ele>987.89</ele>
        <time>2016-09-22T13:16:54Z</time>
      </trkpt>
      <trkpt lat="44.35606" lon="5.64168">
        <ele>987.41</ele>
        <time>2016-09-22T13:16:55Z</time>
      </trkpt>
      <trkpt lat="44.35593" lon="5.64164">
        <ele>985.49</ele>
        <time>2016-09-22T13:17:12Z</time>
      </trkpt>
      <trkpt lat="44.35587" lon="5.64166">
        <ele>983.57</ele>
        <time>2016-09-22T13:17:27Z</time>
      </trkpt>
      <trkpt lat="44.35595" lon="5.64171">
        <ele>982.6</ele>
        <time>2016-09-22T13:17:40Z</time>
      </trkpt>
      <trkpt lat="44.35602" lon="5.64174">
        <ele>981.64</ele>
        <time>2016-09-22T13:17:53Z</time>
      </trkpt>
      <trkpt lat="44.35609" lon="5.6418">
        <ele>980.2</ele>
        <time>2016-09-22T13:18:08Z</time>
      </trkpt>
      <trkpt lat="44.35616" lon="5.64189">
        <ele>978.28</ele>
        <time>2016-09-22T13:18:20Z</time>
      </trkpt>
      <trkpt lat="44.35618" lon="5.6419">
        <ele>978.28</ele>
        <time>2016-09-22T13:18:38Z</time>
      </trkpt>
      <trkpt lat="44.35627" lon="5.64199">
        <ele>976.36</ele>
        <time>2016-09-22T13:18:59Z</time>
      </trkpt>
      <trkpt lat="44.35641" lon="5.64211">
        <ele>974.43</ele>
        <time>2016-09-22T13:19:16Z</time>
      </trkpt>
      <trkpt lat="44.35653" lon="5.64217">
        <ele>973.95</ele>
        <time>2016-09-22T13:19:30Z</time>
      </trkpt>
      <trkpt lat="44.35662" lon="5.64218">
        <ele>973.47</ele>
        <time>2016-09-22T13:19:41Z</time>
      </trkpt>
      <trkpt lat="44.35669" lon="5.64222">
        <ele>971.55</ele>
        <time>2016-09-22T13:19:58Z</time>
      </trkpt>
      <trkpt lat="44.35664" lon="5.64225">
        <ele>970.11</ele>
        <time>2016-09-22T13:20:05Z</time>
      </trkpt>
      <trkpt lat="44.35648" lon="5.64229">
        <ele>967.7</ele>
        <time>2016-09-22T13:20:22Z</time>
      </trkpt>
      <trkpt lat="44.35643" lon="5.64227">
        <ele>967.22</ele>
        <time>2016-09-22T13:20:29Z</time>
      </trkpt>
      <trkpt lat="44.35641" lon="5.64226">
        <ele>967.22</ele>
        <time>2016-09-22T13:20:31Z</time>
      </trkpt>
      <trkpt lat="44.35624" lon="5.64226">
        <ele>964.82</ele>
        <time>2016-09-22T13:20:46Z</time>
      </trkpt>
      <trkpt lat="44.35611" lon="5.64218">
        <ele>964.34</ele>
        <time>2016-09-22T13:21:00Z</time>
      </trkpt>
      <trkpt lat="44.35595" lon="5.6421">
        <ele>963.38</ele>
        <time>2016-09-22T13:21:14Z</time>
      </trkpt>
      <trkpt lat="44.35589" lon="5.64208">
        <ele>963.38</ele>
        <time>2016-09-22T13:21:20Z</time>
      </trkpt>
      <trkpt lat="44.35575" lon="5.64207">
        <ele>960.49</ele>
        <time>2016-09-22T13:21:36Z</time>
      </trkpt>
      <trkpt lat="44.35567" lon="5.64199">
        <ele>960.01</ele>
        <time>2016-09-22T13:21:57Z</time>
      </trkpt>
      <trkpt lat="44.3556" lon="5.64195">
        <ele>959.53</ele>
        <time>2016-09-22T13:22:11Z</time>
      </trkpt>
      <trkpt lat="44.35565" lon="5.64195">
        <ele>959.53</ele>
        <time>2016-09-22T13:22:31Z</time>
      </trkpt>
      <trkpt lat="44.35567" lon="5.64199">
        <ele>959.53</ele>
        <time>2016-09-22T13:23:10Z</time>
      </trkpt>
      <trkpt lat="44.3556" lon="5.64195">
        <ele>959.05</ele>
        <time>2016-09-22T13:23:47Z</time>
      </trkpt>
      <trkpt lat="44.35548" lon="5.64191">
        <ele>958.57</ele>
        <time>2016-09-22T13:24:02Z</time>
      </trkpt>
      <trkpt lat="44.35538" lon="5.64198">
        <ele>956.17</ele>
        <time>2016-09-22T13:24:17Z</time>
      </trkpt>
      <trkpt lat="44.3553" lon="5.64203">
        <ele>956.17</ele>
        <time>2016-09-22T13:24:30Z</time>
      </trkpt>
      <trkpt lat="44.35525" lon="5.64211">
        <ele>954.73</ele>
        <time>2016-09-22T13:24:46Z</time>
      </trkpt>
      <trkpt lat="44.35521" lon="5.6422">
        <ele>954.25</ele>
        <time>2016-09-22T13:25:02Z</time>
      </trkpt>
      <trkpt lat="44.35519" lon="5.64222">
        <ele>954.25</ele>
        <time>2016-09-22T13:25:11Z</time>
      </trkpt>
      <trkpt lat="44.35515" lon="5.64235">
        <ele>953.77</ele>
        <time>2016-09-22T13:25:24Z</time>
      </trkpt>
      <trkpt lat="44.35513" lon="5.64243">
        <ele>953.77</ele>
        <time>2016-09-22T13:25:41Z</time>
      </trkpt>
      <trkpt lat="44.35509" lon="5.64255">
        <ele>950.88</ele>
        <time>2016-09-22T13:25:54Z</time>
      </trkpt>
      <trkpt lat="44.35504" lon="5.6427">
        <ele>948.48</ele>
        <time>2016-09-22T13:26:11Z</time>
      </trkpt>
      <trkpt lat="44.35499" lon="5.64287">
        <ele>945.59</ele>
        <time>2016-09-22T13:26:26Z</time>
      </trkpt>
      <trkpt lat="44.35496" lon="5.64303">
        <ele>943.19</ele>
        <time>2016-09-22T13:26:41Z</time>
      </trkpt>
      <trkpt lat="44.35492" lon="5.64317">
        <ele>939.83</ele>
        <time>2016-09-22T13:26:55Z</time>
      </trkpt>
      <trkpt lat="44.3548" lon="5.64329">
        <ele>936.46</ele>
        <time>2016-09-22T13:27:12Z</time>
      </trkpt>
      <trkpt lat="44.35476" lon="5.64329">
        <ele>935.02</ele>
        <time>2016-09-22T13:27:32Z</time>
      </trkpt>
      <trkpt lat="44.35471" lon="5.64338">
        <ele>933.58</ele>
        <time>2016-09-22T13:27:51Z</time>
      </trkpt>
      <trkpt lat="44.35474" lon="5.64335">
        <ele>932.14</ele>
        <time>2016-09-22T13:28:07Z</time>
      </trkpt>
      <trkpt lat="44.35487" lon="5.64332">
        <ele>930.69</ele>
        <time>2016-09-22T13:28:25Z</time>
      </trkpt>
      <trkpt lat="44.35502" lon="5.64328">
        <ele>927.33</ele>
        <time>2016-09-22T13:28:45Z</time>
      </trkpt>
      <trkpt lat="44.35515" lon="5.64315">
        <ele>924.45</ele>
        <time>2016-09-22T13:29:05Z</time>
      </trkpt>
      <trkpt lat="44.35517" lon="5.64323">
        <ele>923</ele>
        <time>2016-09-22T13:29:20Z</time>
      </trkpt>
      <trkpt lat="44.35511" lon="5.64339">
        <ele>921.56</ele>
        <time>2016-09-22T13:29:36Z</time>
      </trkpt>
      <trkpt lat="44.35499" lon="5.64353">
        <ele>919.16</ele>
        <time>2016-09-22T13:29:54Z</time>
      </trkpt>
      <trkpt lat="44.3549" lon="5.64361">
        <ele>916.27</ele>
        <time>2016-09-22T13:30:10Z</time>
      </trkpt>
      <trkpt lat="44.35479" lon="5.64367">
        <ele>913.87</ele>
        <time>2016-09-22T13:30:25Z</time>
      </trkpt>
      <trkpt lat="44.35469" lon="5.6437">
        <ele>912.91</ele>
        <time>2016-09-22T13:30:39Z</time>
      </trkpt>
      <trkpt lat="44.35455" lon="5.64375">
        <ele>911.47</ele>
        <time>2016-09-22T13:30:56Z</time>
      </trkpt>
      <trkpt lat="44.35443" lon="5.64377">
        <ele>910.03</ele>
        <time>2016-09-22T13:31:12Z</time>
      </trkpt>
      <trkpt lat="44.35436" lon="5.6438">
        <ele>909.06</ele>
        <time>2016-09-22T13:31:27Z</time>
      </trkpt>
      <trkpt lat="44.35433" lon="5.6438">
        <ele>908.1</ele>
        <time>2016-09-22T13:31:36Z</time>
      </trkpt>
      <trkpt lat="44.35423" lon="5.64382">
        <ele>906.18</ele>
        <time>2016-09-22T13:31:52Z</time>
      </trkpt>
      <trkpt lat="44.3541" lon="5.64384">
        <ele>904.26</ele>
        <time>2016-09-22T13:32:08Z</time>
      </trkpt>
      <trkpt lat="44.35399" lon="5.64386">
        <ele>902.82</ele>
        <time>2016-09-22T13:32:25Z</time>
      </trkpt>
      <trkpt lat="44.35387" lon="5.64389">
        <ele>900.41</ele>
        <time>2016-09-22T13:32:39Z</time>
      </trkpt>
      <trkpt lat="44.35376" lon="5.64393">
        <ele>898.49</ele>
        <time>2016-09-22T13:32:55Z</time>
      </trkpt>
      <trkpt lat="44.35364" lon="5.64393">
        <ele>897.53</ele>
        <time>2016-09-22T13:33:11Z</time>
      </trkpt>
      <trkpt lat="44.35353" lon="5.64397">
        <ele>895.12</ele>
        <time>2016-09-22T13:33:26Z</time>
      </trkpt>
      <trkpt lat="44.3534" lon="5.64393">
        <ele>893.2</ele>
        <time>2016-09-22T13:33:43Z</time>
      </trkpt>
      <trkpt lat="44.35332" lon="5.64389">
        <ele>891.76</ele>
        <time>2016-09-22T13:33:58Z</time>
      </trkpt>
      <trkpt lat="44.35329" lon="5.64387">
        <ele>891.28</ele>
        <time>2016-09-22T13:34:02Z</time>
      </trkpt>
      <trkpt lat="44.35321" lon="5.64387">
        <ele>890.32</ele>
        <time>2016-09-22T13:34:17Z</time>
      </trkpt>
      <trkpt lat="44.35311" lon="5.64379">
        <ele>888.88</ele>
        <time>2016-09-22T13:34:32Z</time>
      </trkpt>
      <trkpt lat="44.35301" lon="5.64376">
        <ele>887.91</ele>
        <time>2016-09-22T13:34:45Z</time>
      </trkpt>
      <trkpt lat="44.35295" lon="5.64375">
        <ele>887.91</ele>
        <time>2016-09-22T13:35:02Z</time>
      </trkpt>
      <trkpt lat="44.35297" lon="5.64381">
        <ele>887.43</ele>
        <time>2016-09-22T13:35:17Z</time>
      </trkpt>
      <trkpt lat="44.35299" lon="5.64384">
        <ele>887.43</ele>
        <time>2016-09-22T13:35:39Z</time>
      </trkpt>
      <trkpt lat="44.35304" lon="5.6439">
        <ele>886.95</ele>
        <time>2016-09-22T13:35:56Z</time>
      </trkpt>
      <trkpt lat="44.35306" lon="5.64408">
        <ele>885.03</ele>
        <time>2016-09-22T13:36:11Z</time>
      </trkpt>
      <trkpt lat="44.35304" lon="5.64415">
        <ele>884.07</ele>
        <time>2016-09-22T13:36:28Z</time>
      </trkpt>
      <trkpt lat="44.3531" lon="5.64434">
        <ele>883.11</ele>
        <time>2016-09-22T13:36:43Z</time>
      </trkpt>
      <trkpt lat="44.35312" lon="5.64449">
        <ele>880.71</ele>
        <time>2016-09-22T13:36:56Z</time>
      </trkpt>
      <trkpt lat="44.35318" lon="5.64461">
        <ele>879.26</ele>
        <time>2016-09-22T13:37:11Z</time>
      </trkpt>
      <trkpt lat="44.35326" lon="5.64477">
        <ele>880.71</ele>
        <time>2016-09-22T13:37:26Z</time>
      </trkpt>
      <trkpt lat="44.35335" lon="5.64496">
        <ele>880.71</ele>
        <time>2016-09-22T13:37:43Z</time>
      </trkpt>
      <trkpt lat="44.35346" lon="5.64514">
        <ele>880.71</ele>
        <time>2016-09-22T13:38:02Z</time>
      </trkpt>
      <trkpt lat="44.3536" lon="5.64532">
        <ele>879.26</ele>
        <time>2016-09-22T13:38:20Z</time>
      </trkpt>
      <trkpt lat="44.35367" lon="5.64549">
        <ele>879.74</ele>
        <time>2016-09-22T13:38:36Z</time>
      </trkpt>
      <trkpt lat="44.35379" lon="5.64567">
        <ele>880.22</ele>
        <time>2016-09-22T13:38:54Z</time>
      </trkpt>
      <trkpt lat="44.35388" lon="5.64584">
        <ele>880.71</ele>
        <time>2016-09-22T13:39:09Z</time>
      </trkpt>
      <trkpt lat="44.35403" lon="5.64601">
        <ele>879.26</ele>
        <time>2016-09-22T13:39:29Z</time>
      </trkpt>
      <trkpt lat="44.35416" lon="5.64613">
        <ele>878.3</ele>
        <time>2016-09-22T13:39:45Z</time>
      </trkpt>
      <trkpt lat="44.35424" lon="5.64625">
        <ele>879.26</ele>
        <time>2016-09-22T13:40:00Z</time>
      </trkpt>
      <trkpt lat="44.35433" lon="5.64635">
        <ele>878.78</ele>
        <time>2016-09-22T13:40:12Z</time>
      </trkpt>
      <trkpt lat="44.35448" lon="5.64647">
        <ele>878.3</ele>
        <time>2016-09-22T13:40:30Z</time>
      </trkpt>
      <trkpt lat="44.35461" lon="5.64658">
        <ele>876.38</ele>
        <time>2016-09-22T13:40:46Z</time>
      </trkpt>
      <trkpt lat="44.35474" lon="5.64669">
        <ele>875.42</ele>
        <time>2016-09-22T13:41:01Z</time>
      </trkpt>
      <trkpt lat="44.35478" lon="5.64671">
        <ele>874.94</ele>
        <time>2016-09-22T13:41:16Z</time>
      </trkpt>
      <trkpt lat="44.35485" lon="5.64677">
        <ele>873.5</ele>
        <time>2016-09-22T13:41:32Z</time>
      </trkpt>
      <trkpt lat="44.35495" lon="5.64693">
        <ele>873.5</ele>
        <time>2016-09-22T13:41:47Z</time>
      </trkpt>
      <trkpt lat="44.35505" lon="5.64709">
        <ele>873.5</ele>
        <time>2016-09-22T13:42:02Z</time>
      </trkpt>
      <trkpt lat="44.35517" lon="5.64726">
        <ele>873.5</ele>
        <time>2016-09-22T13:42:20Z</time>
      </trkpt>
      <trkpt lat="44.35527" lon="5.64745">
        <ele>873.98</ele>
        <time>2016-09-22T13:42:37Z</time>
      </trkpt>
      <trkpt lat="44.35532" lon="5.64756">
        <ele>873.5</ele>
        <time>2016-09-22T13:42:46Z</time>
      </trkpt>
      <trkpt lat="44.35541" lon="5.64773">
        <ele>872.53</ele>
        <time>2016-09-22T13:43:01Z</time>
      </trkpt>
      <trkpt lat="44.35545" lon="5.64779">
        <ele>871.57</ele>
        <time>2016-09-22T13:43:07Z</time>
      </trkpt>
      <trkpt lat="44.35552" lon="5.64796">
        <ele>870.61</ele>
        <time>2016-09-22T13:43:19Z</time>
      </trkpt>
      <trkpt lat="44.35558" lon="5.64817">
        <ele>870.13</ele>
        <time>2016-09-22T13:43:35Z</time>
      </trkpt>
      <trkpt lat="44.35562" lon="5.64833">
        <ele>868.21</ele>
        <time>2016-09-22T13:43:48Z</time>
      </trkpt>
      <trkpt lat="44.35565" lon="5.64854">
        <ele>866.77</ele>
        <time>2016-09-22T13:44:03Z</time>
      </trkpt>
      <trkpt lat="44.35565" lon="5.64869">
        <ele>865.32</ele>
        <time>2016-09-22T13:44:18Z</time>
      </trkpt>
      <trkpt lat="44.35567" lon="5.64884">
        <ele>864.84</ele>
        <time>2016-09-22T13:44:32Z</time>
      </trkpt>
      <trkpt lat="44.35566" lon="5.64907">
        <ele>862.44</ele>
        <time>2016-09-22T13:44:48Z</time>
      </trkpt>
      <trkpt lat="44.35565" lon="5.64926">
        <ele>861</ele>
        <time>2016-09-22T13:45:01Z</time>
      </trkpt>
      <trkpt lat="44.35563" lon="5.64949">
        <ele>860.52</ele>
        <time>2016-09-22T13:45:17Z</time>
      </trkpt>
      <trkpt lat="44.3556" lon="5.64953">
        <ele>860.04</ele>
        <time>2016-09-22T13:45:19Z</time>
      </trkpt>
      <trkpt lat="44.35554" lon="5.64975">
        <ele>859.56</ele>
        <time>2016-09-22T13:45:35Z</time>
      </trkpt>
      <trkpt lat="44.35552" lon="5.64988">
        <ele>858.11</ele>
        <time>2016-09-22T13:45:49Z</time>
      </trkpt>
      <trkpt lat="44.35551" lon="5.65006">
        <ele>856.19</ele>
        <time>2016-09-22T13:46:06Z</time>
      </trkpt>
      <trkpt lat="44.35548" lon="5.65026">
        <ele>854.75</ele>
        <time>2016-09-22T13:46:22Z</time>
      </trkpt>
      <trkpt lat="44.35545" lon="5.65048">
        <ele>853.79</ele>
        <time>2016-09-22T13:46:37Z</time>
      </trkpt>
      <trkpt lat="44.3554" lon="5.65071">
        <ele>851.38</ele>
        <time>2016-09-22T13:46:54Z</time>
      </trkpt>
      <trkpt lat="44.35534" lon="5.6509">
        <ele>850.42</ele>
        <time>2016-09-22T13:47:11Z</time>
      </trkpt>
      <trkpt lat="44.35531" lon="5.65105">
        <ele>848.98</ele>
        <time>2016-09-22T13:47:26Z</time>
      </trkpt>
      <trkpt lat="44.3553" lon="5.65112">
        <ele>848.5</ele>
        <time>2016-09-22T13:47:47Z</time>
      </trkpt>
      <trkpt lat="44.35527" lon="5.65121">
        <ele>847.54</ele>
        <time>2016-09-22T13:48:08Z</time>
      </trkpt>
      <trkpt lat="44.35518" lon="5.65136">
        <ele>845.62</ele>
        <time>2016-09-22T13:48:27Z</time>
      </trkpt>
      <trkpt lat="44.35514" lon="5.65143">
        <ele>844.18</ele>
        <time>2016-09-22T13:48:43Z</time>
      </trkpt>
      <trkpt lat="44.35513" lon="5.65158">
        <ele>841.77</ele>
        <time>2016-09-22T13:48:56Z</time>
      </trkpt>
      <trkpt lat="44.35513" lon="5.65163">
        <ele>840.33</ele>
        <time>2016-09-22T13:49:10Z</time>
      </trkpt>
      <trkpt lat="44.35511" lon="5.65177">
        <ele>838.41</ele>
        <time>2016-09-22T13:49:26Z</time>
      </trkpt>
      <trkpt lat="44.35508" lon="5.65185">
        <ele>836.48</ele>
        <time>2016-09-22T13:49:40Z</time>
      </trkpt>
      <trkpt lat="44.35504" lon="5.65194">
        <ele>835.52</ele>
        <time>2016-09-22T13:49:53Z</time>
      </trkpt>
      <trkpt lat="44.35503" lon="5.65206">
        <ele>832.64</ele>
        <time>2016-09-22T13:50:08Z</time>
      </trkpt>
      <trkpt lat="44.35505" lon="5.65208">
        <ele>833.12</ele>
        <time>2016-09-22T13:50:29Z</time>
      </trkpt>
      <trkpt lat="44.35501" lon="5.65224">
        <ele>830.24</ele>
        <time>2016-09-22T13:50:46Z</time>
      </trkpt>
      <trkpt lat="44.35493" lon="5.6524">
        <ele>828.31</ele>
        <time>2016-09-22T13:51:04Z</time>
      </trkpt>
      <trkpt lat="44.35493" lon="5.65258">
        <ele>826.39</ele>
        <time>2016-09-22T13:51:20Z</time>
      </trkpt>
      <trkpt lat="44.35496" lon="5.65261">
        <ele>824.47</ele>
        <time>2016-09-22T13:51:34Z</time>
      </trkpt>
      <trkpt lat="44.35496" lon="5.6527">
        <ele>823.03</ele>
        <time>2016-09-22T13:51:46Z</time>
      </trkpt>
      <trkpt lat="44.3549" lon="5.65285">
        <ele>820.62</ele>
        <time>2016-09-22T13:52:02Z</time>
      </trkpt>
      <trkpt lat="44.35489" lon="5.65293">
        <ele>818.22</ele>
        <time>2016-09-22T13:52:17Z</time>
      </trkpt>
      <trkpt lat="44.35498" lon="5.65286">
        <ele>816.3</ele>
        <time>2016-09-22T13:52:32Z</time>
      </trkpt>
      <trkpt lat="44.35497" lon="5.65296">
        <ele>814.85</ele>
        <time>2016-09-22T13:52:45Z</time>
      </trkpt>
      <trkpt lat="44.35495" lon="5.6531">
        <ele>813.41</ele>
        <time>2016-09-22T13:53:02Z</time>
      </trkpt>
      <trkpt lat="44.35492" lon="5.65319">
        <ele>811.49</ele>
        <time>2016-09-22T13:53:18Z</time>
      </trkpt>
      <trkpt lat="44.35488" lon="5.65322">
        <ele>810.53</ele>
        <time>2016-09-22T13:53:41Z</time>
      </trkpt>
      <trkpt lat="44.3549" lon="5.65322">
        <ele>810.53</ele>
        <time>2016-09-22T13:54:05Z</time>
      </trkpt>
      <trkpt lat="44.35491" lon="5.65331">
        <ele>808.61</ele>
        <time>2016-09-22T13:54:25Z</time>
      </trkpt>
      <trkpt lat="44.35494" lon="5.65331">
        <ele>808.61</ele>
        <time>2016-09-22T13:54:51Z</time>
      </trkpt>
      <trkpt lat="44.35495" lon="5.65332">
        <ele>808.61</ele>
        <time>2016-09-22T13:55:25Z</time>
      </trkpt>
      <trkpt lat="44.35495" lon="5.65335">
        <ele>808.61</ele>
        <time>2016-09-22T13:55:51Z</time>
      </trkpt>
      <trkpt lat="44.35492" lon="5.65335">
        <ele>808.13</ele>
        <time>2016-09-22T13:56:17Z</time>
      </trkpt>
      <trkpt lat="44.35484" lon="5.65346">
        <ele>806.68</ele>
        <time>2016-09-22T13:56:33Z</time>
      </trkpt>
      <trkpt lat="44.35474" lon="5.65356">
        <ele>805.24</ele>
        <time>2016-09-22T13:56:48Z</time>
      </trkpt>
      <trkpt lat="44.35469" lon="5.65366">
        <ele>803.32</ele>
        <time>2016-09-22T13:57:04Z</time>
      </trkpt>
      <trkpt lat="44.35467" lon="5.6537">
        <ele>802.84</ele>
        <time>2016-09-22T13:57:08Z</time>
      </trkpt>
      <trkpt lat="44.35458" lon="5.65386">
        <ele>801.4</ele>
        <time>2016-09-22T13:57:25Z</time>
      </trkpt>
      <trkpt lat="44.35456" lon="5.65395">
        <ele>799.95</ele>
        <time>2016-09-22T13:57:40Z</time>
      </trkpt>
      <trkpt lat="44.35455" lon="5.65409">
        <ele>798.03</ele>
        <time>2016-09-22T13:57:53Z</time>
      </trkpt>
      <trkpt lat="44.35457" lon="5.65418">
        <ele>797.55</ele>
        <time>2016-09-22T13:58:06Z</time>
      </trkpt>
      <trkpt lat="44.35467" lon="5.65436">
        <ele>795.63</ele>
        <time>2016-09-22T13:58:24Z</time>
      </trkpt>
      <trkpt lat="44.35473" lon="5.65456">
        <ele>794.19</ele>
        <time>2016-09-22T13:58:40Z</time>
      </trkpt>
      <trkpt lat="44.35482" lon="5.65476">
        <ele>793.22</ele>
        <time>2016-09-22T13:58:57Z</time>
      </trkpt>
      <trkpt lat="44.3549" lon="5.65494">
        <ele>791.78</ele>
        <time>2016-09-22T13:59:13Z</time>
      </trkpt>
      <trkpt lat="44.35498" lon="5.65515">
        <ele>790.34</ele>
        <time>2016-09-22T13:59:30Z</time>
      </trkpt>
      <trkpt lat="44.35506" lon="5.65533">
        <ele>789.38</ele>
        <time>2016-09-22T13:59:46Z</time>
      </trkpt>
      <trkpt lat="44.35512" lon="5.65555">
        <ele>789.86</ele>
        <time>2016-09-22T14:00:02Z</time>
      </trkpt>
      <trkpt lat="44.35515" lon="5.65559">
        <ele>790.34</ele>
        <time>2016-09-22T14:00:19Z</time>
      </trkpt>
      <trkpt lat="44.35515" lon="5.65562">
        <ele>790.34</ele>
        <time>2016-09-22T14:00:40Z</time>
      </trkpt>
      <trkpt lat="44.35513" lon="5.6556">
        <ele>789.86</ele>
        <time>2016-09-22T14:01:08Z</time>
      </trkpt>
      <trkpt lat="44.35515" lon="5.65562">
        <ele>790.34</ele>
        <time>2016-09-22T14:01:33Z</time>
      </trkpt>
      <trkpt lat="44.35516" lon="5.65564">
        <ele>790.34</ele>
        <time>2016-09-22T14:02:03Z</time>
      </trkpt>
      <trkpt lat="44.35512" lon="5.65564">
        <ele>790.34</ele>
        <time>2016-09-22T14:02:28Z</time>
      </trkpt>
      <trkpt lat="44.35514" lon="5.6556">
        <ele>790.34</ele>
        <time>2016-09-22T14:02:56Z</time>
      </trkpt>
      <trkpt lat="44.35515" lon="5.65566">
        <ele>790.34</ele>
        <time>2016-09-22T14:03:23Z</time>
      </trkpt>
      <trkpt lat="44.35514" lon="5.65562">
        <ele>790.34</ele>
        <time>2016-09-22T14:03:48Z</time>
      </trkpt>
      <trkpt lat="44.35512" lon="5.6556">
        <ele>789.86</ele>
        <time>2016-09-22T14:04:22Z</time>
      </trkpt>
      <trkpt lat="44.35513" lon="5.65563">
        <ele>789.86</ele>
        <time>2016-09-22T14:04:38Z</time>
      </trkpt>
      <trkpt lat="44.35515" lon="5.65569">
        <ele>790.34</ele>
        <time>2016-09-22T14:04:50Z</time>
      </trkpt>
      <trkpt lat="44.35515" lon="5.65575">
        <ele>790.34</ele>
        <time>2016-09-22T14:05:07Z</time>
      </trkpt>
      <trkpt lat="44.35521" lon="5.6559">
        <ele>791.78</ele>
        <time>2016-09-22T14:05:23Z</time>
      </trkpt>
      <trkpt lat="44.35528" lon="5.65604">
        <ele>793.71</ele>
        <time>2016-09-22T14:05:40Z</time>
      </trkpt>
      <trkpt lat="44.35533" lon="5.65615">
        <ele>795.15</ele>
        <time>2016-09-22T14:05:53Z</time>
      </trkpt>
      <trkpt lat="44.35539" lon="5.6563">
        <ele>797.07</ele>
        <time>2016-09-22T14:06:08Z</time>
      </trkpt>
      <trkpt lat="44.35539" lon="5.65643">
        <ele>798.51</ele>
        <time>2016-09-22T14:06:23Z</time>
      </trkpt>
      <trkpt lat="44.35537" lon="5.65644">
        <ele>798.51</ele>
        <time>2016-09-22T14:06:45Z</time>
      </trkpt>
      <trkpt lat="44.35535" lon="5.65645">
        <ele>798.99</ele>
        <time>2016-09-22T14:07:03Z</time>
      </trkpt>
      <trkpt lat="44.35531" lon="5.65649">
        <ele>799.47</ele>
        <time>2016-09-22T14:07:21Z</time>
      </trkpt>
      <trkpt lat="44.35532" lon="5.65646">
        <ele>798.99</ele>
        <time>2016-09-22T14:07:37Z</time>
      </trkpt>
      <trkpt lat="44.35533" lon="5.65647">
        <ele>798.51</ele>
        <time>2016-09-22T14:07:57Z</time>
      </trkpt>
      <trkpt lat="44.35532" lon="5.65644">
        <ele>798.99</ele>
        <time>2016-09-22T14:08:30Z</time>
      </trkpt>
      <trkpt lat="44.35537" lon="5.65647">
        <ele>798.99</ele>
        <time>2016-09-22T14:08:57Z</time>
      </trkpt>
      <trkpt lat="44.35535" lon="5.65645">
        <ele>798.51</ele>
        <time>2016-09-22T14:09:28Z</time>
      </trkpt>
      <trkpt lat="44.35533" lon="5.65647">
        <ele>798.99</ele>
        <time>2016-09-22T14:09:56Z</time>
      </trkpt>
      <trkpt lat="44.35535" lon="5.6565">
        <ele>798.99</ele>
        <time>2016-09-22T14:10:32Z</time>
      </trkpt>
      <trkpt lat="44.35537" lon="5.65651">
        <ele>798.99</ele>
        <time>2016-09-22T14:10:57Z</time>
      </trkpt>
      <trkpt lat="44.3554" lon="5.65654">
        <ele>798.99</ele>
        <time>2016-09-22T14:11:30Z</time>
      </trkpt>
      <trkpt lat="44.35532" lon="5.65645">
        <ele>798.99</ele>
        <time>2016-09-22T14:12:01Z</time>
      </trkpt>
      <trkpt lat="44.35531" lon="5.65646">
        <ele>798.99</ele>
        <time>2016-09-22T14:12:36Z</time>
      </trkpt>
      <trkpt lat="44.35532" lon="5.65645">
        <ele>798.99</ele>
        <time>2016-09-22T14:13:10Z</time>
      </trkpt>
      <trkpt lat="44.3553" lon="5.65646">
        <ele>798.99</ele>
        <time>2016-09-22T14:13:44Z</time>
      </trkpt>
      <trkpt lat="44.35531" lon="5.6565">
        <ele>798.99</ele>
        <time>2016-09-22T14:14:14Z</time>
      </trkpt>
      <trkpt lat="44.35533" lon="5.65653">
        <ele>798.99</ele>
        <time>2016-09-22T14:14:46Z</time>
      </trkpt>
      <trkpt lat="44.35532" lon="5.65651">
        <ele>798.51</ele>
        <time>2016-09-22T14:15:29Z</time>
      </trkpt>
      <trkpt lat="44.3553" lon="5.65651">
        <ele>798.99</ele>
        <time>2016-09-22T14:16:11Z</time>
      </trkpt>
      <trkpt lat="44.35533" lon="5.65651">
        <ele>798.51</ele>
        <time>2016-09-22T14:16:50Z</time>
      </trkpt>
      <trkpt lat="44.3553" lon="5.65651">
        <ele>798.51</ele>
        <time>2016-09-22T14:17:35Z</time>
      </trkpt>
      <trkpt lat="44.35532" lon="5.65652">
        <ele>798.51</ele>
        <time>2016-09-22T14:18:03Z</time>
      </trkpt>
      <trkpt lat="44.3553" lon="5.65648">
        <ele>798.51</ele>
        <time>2016-09-22T14:18:30Z</time>
      </trkpt>
      <trkpt lat="44.35535" lon="5.6565">
        <ele>798.51</ele>
        <time>2016-09-22T14:18:49Z</time>
      </trkpt>
      <trkpt lat="44.35536" lon="5.65627">
        <ele>795.15</ele>
        <time>2016-09-22T14:18:59Z</time>
      </trkpt>
      <trkpt lat="44.35522" lon="5.65597">
        <ele>791.78</ele>
        <time>2016-09-22T14:19:08Z</time>
      </trkpt>
      <trkpt lat="44.35517" lon="5.65591">
        <ele>791.3</ele>
        <time>2016-09-22T14:19:19Z</time>
      </trkpt>
      <trkpt lat="44.35516" lon="5.65574">
        <ele>789.86</ele>
        <time>2016-09-22T14:19:23Z</time>
      </trkpt>
      <trkpt lat="44.35506" lon="5.65505">
        <ele>787.46</ele>
        <time>2016-09-22T14:19:33Z</time>
      </trkpt>
      <trkpt lat="44.35512" lon="5.65476">
        <ele>785.53</ele>
        <time>2016-09-22T14:19:39Z</time>
      </trkpt>
      <trkpt lat="44.35515" lon="5.65472">
        <ele>785.53</ele>
        <time>2016-09-22T14:19:40Z</time>
      </trkpt>
      <trkpt lat="44.35519" lon="5.65468">
        <ele>785.05</ele>
        <time>2016-09-22T14:19:41Z</time>
      </trkpt>
      <trkpt lat="44.35542" lon="5.65452">
        <ele>782.17</ele>
        <time>2016-09-22T14:19:46Z</time>
      </trkpt>
      <trkpt lat="44.35565" lon="5.65442">
        <ele>779.29</ele>
        <time>2016-09-22T14:19:50Z</time>
      </trkpt>
      <trkpt lat="44.35582" lon="5.65442">
        <ele>777.84</ele>
        <time>2016-09-22T14:19:53Z</time>
      </trkpt>
      <trkpt lat="44.35593" lon="5.65433">
        <ele>777.36</ele>
        <time>2016-09-22T14:19:56Z</time>
      </trkpt>
      <trkpt lat="44.35595" lon="5.65429">
        <ele>777.36</ele>
        <time>2016-09-22T14:19:57Z</time>
      </trkpt>
      <trkpt lat="44.35596" lon="5.65423">
        <ele>777.36</ele>
        <time>2016-09-22T14:19:58Z</time>
      </trkpt>
      <trkpt lat="44.35595" lon="5.65417">
        <ele>776.88</ele>
        <time>2016-09-22T14:19:59Z</time>
      </trkpt>
      <trkpt lat="44.35594" lon="5.65413">
        <ele>776.88</ele>
        <time>2016-09-22T14:20:00Z</time>
      </trkpt>
      <trkpt lat="44.35593" lon="5.65407">
        <ele>776.4</ele>
        <time>2016-09-22T14:20:01Z</time>
      </trkpt>
      <trkpt lat="44.35591" lon="5.65402">
        <ele>776.4</ele>
        <time>2016-09-22T14:20:02Z</time>
      </trkpt>
      <trkpt lat="44.35588" lon="5.65397">
        <ele>776.4</ele>
        <time>2016-09-22T14:20:03Z</time>
      </trkpt>
      <trkpt lat="44.35585" lon="5.65393">
        <ele>776.4</ele>
        <time>2016-09-22T14:20:04Z</time>
      </trkpt>
      <trkpt lat="44.35571" lon="5.65379">
        <ele>775.44</ele>
        <time>2016-09-22T14:20:15Z</time>
      </trkpt>
      <trkpt lat="44.35564" lon="5.65388">
        <ele>775.92</ele>
        <time>2016-09-22T14:20:43Z</time>
      </trkpt>
      <trkpt lat="44.35563" lon="5.65389">
        <ele>779.77</ele>
        <time>2016-09-22T14:20:47Z</time>
      </trkpt>
      <trkpt lat="44.35564" lon="5.65389">
        <ele>776.4</ele>
        <time>2016-09-22T14:20:48Z</time>
      </trkpt>
      <trkpt lat="44.35562" lon="5.65383">
        <ele>776.4</ele>
        <time>2016-09-22T14:20:59Z</time>
      </trkpt>
      <trkpt lat="44.35562" lon="5.65381">
        <ele>775.92</ele>
        <time>2016-09-22T14:21:16Z</time>
      </trkpt>
    </trkseg>
  </trk>
</gpx>